PWSweather.com
Personal Weather Stations
Station Observations
ESTGRALPAZ
Santa Fe, Santa FeAR 3000

Santa FeSanta FeAR 3000

Lat: -31.6280555556, Lon: -60.6908333333

Elevation: 69

Station Type: WH1081

http://www.estaciongralpaz.com.ar

High Low Average
Temperature 85.1°F29.5°C 70.0°F21.1°C 74.0°F23.3°C
Dew Point 71.6°F22.0°C 64.5°F18.1°C 68.1°F20.1°C
Winds 26.6 mph 42.8 kmh Calm Calm 7.0 mph SE11.3 kmh SE
Wind Gusts 37.4 mph60.2 kmh 4.5 mph7.2 kmh 16.0 mph25.7 kmh
Humidity 96% 56% 83%
Pressure 29.63 in1003.4 mb 29.48 in998.3 mb -
Precipitation 4.94 in125.5 mm - -
Hour Temp Dew Point Humidity Winds Wind Gusts Pressure Precip Precip Rate Daily Precip Total
12:07 AM 85.1°F29.5°C 67.7°F19.8°C 56% 5.4 mph N8.7 kmh N 9.8 mph15.8 kmh 29.51 in999.3 mb 0.00 in0.0 mm 0.00 in0.0 mm 0.00 in0.0 mm
12:08 AM 85.1°F29.5°C 67.6°F19.8°C 56% 5.4 mph N8.7 kmh N 9.8 mph15.8 kmh 29.51 in999.3 mb 0.00 in0.0 mm 0.00 in0.0 mm 0.00 in0.0 mm
12:09 AM 85.1°F29.5°C 67.7°F19.8°C 56% 7.6 mph N12.2 kmh N 12.1 mph19.5 kmh 29.51 in999.3 mb 0.00 in0.0 mm 0.00 in0.0 mm 0.00 in0.0 mm
12:10 AM 85.1°F29.5°C 67.7°F19.8°C 56% 6.9 mph NNE11.1 kmh NNE 12.1 mph19.5 kmh 29.51 in999.3 mb 0.00 in0.0 mm 0.00 in0.0 mm 0.00 in0.0 mm
12:11 AM 85.1°F29.5°C 67.7°F19.8°C 56% 7.6 mph NNE12.2 kmh NNE 12.1 mph19.5 kmh 29.51 in999.3 mb 0.00 in0.0 mm 0.00 in0.0 mm 0.00 in0.0 mm
12:12 AM 84.9°F29.4°C 67.5°F19.7°C 56% 7.6 mph NNE12.2 kmh NNE 12.1 mph19.5 kmh 29.51 in999.3 mb 0.00 in0.0 mm 0.00 in0.0 mm 0.00 in0.0 mm
12:13 AM 84.9°F29.4°C 67.5°F19.7°C 56% 5.4 mph NNE8.7 kmh NNE 12.1 mph19.5 kmh 29.52 in999.7 mb 0.00 in0.0 mm 0.00 in0.0 mm 0.00 in0.0 mm
12:14 AM 84.9°F29.4°C 67.5°F19.7°C 56% 6.9 mph NNE11.1 kmh NNE 12.1 mph19.5 kmh 29.52 in999.7 mb 0.00 in0.0 mm 0.00 in0.0 mm 0.00 in0.0 mm
12:16 AM 84.9°F29.4°C 67.5°F19.7°C 56% 3.8 mph NNE6.1 kmh NNE 11.4 mph18.3 kmh 29.52 in999.7 mb 0.00 in0.0 mm 0.00 in0.0 mm 0.00 in0.0 mm
12:17 AM 84.9°F29.4°C 67.5°F19.7°C 56% 7.6 mph NNE12.2 kmh NNE 11.4 mph18.3 kmh 29.53 in1000.0 mb 0.00 in0.0 mm 0.00 in0.0 mm 0.00 in0.0 mm
12:18 AM 84.9°F29.4°C 67.5°F19.7°C 56% 7.6 mph NNE12.2 kmh NNE 11.4 mph18.3 kmh 29.52 in999.7 mb 0.00 in0.0 mm 0.00 in0.0 mm 0.00 in0.0 mm
12:19 AM 84.9°F29.4°C 67.5°F19.7°C 56% 8.3 mph NE13.4 kmh NE 11.4 mph18.3 kmh 29.52 in999.7 mb 0.00 in0.0 mm 0.00 in0.0 mm 0.00 in0.0 mm
12:20 AM 84.7°F29.3°C 67.4°F19.7°C 56% 4.5 mph NE7.2 kmh NE 11.4 mph18.3 kmh 29.52 in999.7 mb 0.00 in0.0 mm 0.00 in0.0 mm 0.00 in0.0 mm
12:21 AM 84.7°F29.3°C 67.4°F19.7°C 56% 7.6 mph NNE12.2 kmh NNE 11.4 mph18.3 kmh 29.53 in1000.0 mb 0.00 in0.0 mm 0.00 in0.0 mm 0.00 in0.0 mm
12:25 AM 84.7°F29.3°C 67.9°F19.9°C 57% 6.0 mph NE9.7 kmh NE 10.7 mph17.2 kmh 29.52 in999.7 mb 0.00 in0.0 mm 0.00 in0.0 mm 0.00 in0.0 mm
12:27 AM 84.6°F29.2°C 67.7°F19.8°C 57% 6.9 mph NNE11.1 kmh NNE 10.7 mph17.2 kmh 29.52 in999.7 mb 0.00 in0.0 mm 0.00 in0.0 mm 0.00 in0.0 mm
12:28 AM 84.6°F29.2°C 67.7°F19.8°C 57% 4.5 mph NNE7.2 kmh NNE 10.7 mph17.2 kmh 29.52 in999.7 mb 0.00 in0.0 mm 0.00 in0.0 mm 0.00 in0.0 mm
12:29 AM 84.6°F29.2°C 67.7°F19.8°C 57% 5.4 mph NNE8.7 kmh NNE 10.7 mph17.2 kmh 29.52 in999.7 mb 0.00 in0.0 mm 0.00 in0.0 mm 0.00 in0.0 mm
12:38 AM 84.2°F29.0°C 67.3°F19.6°C 57% 4.5 mph NE7.2 kmh NE 9.2 mph14.8 kmh 29.51 in999.3 mb 0.00 in0.0 mm 0.00 in0.0 mm 0.00 in0.0 mm
12:41 AM 84.0°F28.9°C 67.7°F19.8°C 58% 6.9 mph NE11.1 kmh NE 13.0 mph20.9 kmh 29.51 in999.3 mb 0.00 in0.0 mm 0.00 in0.0 mm 0.00 in0.0 mm
12:42 AM 84.0°F28.9°C 67.7°F19.8°C 58% 6.9 mph NE11.1 kmh NE 13.0 mph20.9 kmh 29.51 in999.3 mb 0.00 in0.0 mm 0.00 in0.0 mm 0.00 in0.0 mm
12:43 AM 84.0°F28.9°C 68.2°F20.1°C 59% 6.0 mph NE9.7 kmh NE 13.0 mph20.9 kmh 29.51 in999.3 mb 0.00 in0.0 mm 0.00 in0.0 mm 0.00 in0.0 mm
12:44 AM 84.0°F28.9°C 68.2°F20.1°C 59% 6.9 mph NE11.1 kmh NE 13.0 mph20.9 kmh 29.50 in999.0 mb 0.00 in0.0 mm 0.00 in0.0 mm 0.00 in0.0 mm
12:45 AM 84.0°F28.9°C 68.2°F20.1°C 59% 8.3 mph NE13.4 kmh NE 13.0 mph20.9 kmh 29.50 in999.0 mb 0.00 in0.0 mm 0.00 in0.0 mm 0.00 in0.0 mm
12:46 AM 84.0°F28.9°C 68.2°F20.1°C 59% 8.3 mph NE13.4 kmh NE 14.5 mph23.3 kmh 29.50 in999.0 mb 0.00 in0.0 mm 0.00 in0.0 mm 0.00 in0.0 mm
12:47 AM 84.0°F28.9°C 68.2°F20.1°C 59% 9.8 mph NE15.8 kmh NE 14.5 mph23.3 kmh 29.50 in999.0 mb 0.00 in0.0 mm 0.00 in0.0 mm 0.00 in0.0 mm
12:48 AM 83.8°F28.8°C 68.0°F20.0°C 59% 6.9 mph NNE11.1 kmh NNE 14.5 mph23.3 kmh 29.50 in999.0 mb 0.00 in0.0 mm 0.00 in0.0 mm 0.00 in0.0 mm
12:49 AM 83.8°F28.8°C 68.0°F20.0°C 59% 7.6 mph NNE12.2 kmh NNE 14.5 mph23.3 kmh 29.50 in999.0 mb 0.00 in0.0 mm 0.00 in0.0 mm 0.00 in0.0 mm
12:50 AM 83.8°F28.8°C 68.0°F20.0°C 59% 7.6 mph NNE12.2 kmh NNE 14.5 mph23.3 kmh 29.50 in999.0 mb 0.00 in0.0 mm 0.00 in0.0 mm 0.00 in0.0 mm
12:51 AM 83.8°F28.8°C 68.0°F20.0°C 59% 6.9 mph NNE11.1 kmh NNE 14.5 mph23.3 kmh 29.50 in999.0 mb 0.00 in0.0 mm 0.00 in0.0 mm 0.00 in0.0 mm
12:52 AM 83.8°F28.8°C 68.0°F20.0°C 59% 6.9 mph NNE11.1 kmh NNE 14.5 mph23.3 kmh 29.50 in999.0 mb 0.00 in0.0 mm 0.00 in0.0 mm 0.00 in0.0 mm
12:53 AM 83.8°F28.8°C 68.0°F20.0°C 59% 7.6 mph NNE12.2 kmh NNE 15.2 mph24.5 kmh 29.50 in999.0 mb 0.00 in0.0 mm 0.00 in0.0 mm 0.00 in0.0 mm
12:54 AM 83.8°F28.8°C 68.0°F20.0°C 59% 6.9 mph N11.1 kmh N 15.2 mph24.5 kmh 29.50 in999.0 mb 0.00 in0.0 mm 0.00 in0.0 mm 0.00 in0.0 mm
12:55 AM 83.8°F28.8°C 68.0°F20.0°C 59% 9.2 mph N14.8 kmh N 15.2 mph24.5 kmh 29.50 in999.0 mb 0.00 in0.0 mm 0.00 in0.0 mm 0.00 in0.0 mm
12:56 AM 83.8°F28.8°C 68.0°F20.0°C 59% 6.0 mph N9.7 kmh N 15.2 mph24.5 kmh 29.51 in999.3 mb 0.00 in0.0 mm 0.00 in0.0 mm 0.00 in0.0 mm
12:57 AM 83.8°F28.8°C 68.5°F20.3°C 60% 6.9 mph N11.1 kmh N 15.2 mph24.5 kmh 29.50 in999.0 mb 0.00 in0.0 mm 0.00 in0.0 mm 0.00 in0.0 mm
12:58 AM 83.8°F28.8°C 68.5°F20.3°C 60% 9.2 mph N14.8 kmh N 15.2 mph24.5 kmh 29.50 in999.0 mb 0.00 in0.0 mm 0.00 in0.0 mm 0.00 in0.0 mm
12:59 AM 83.8°F28.8°C 68.5°F20.3°C 60% 6.9 mph N11.1 kmh N 15.2 mph24.5 kmh 29.50 in999.0 mb 0.00 in0.0 mm 0.00 in0.0 mm 0.00 in0.0 mm
01:00 AM 83.8°F28.8°C 68.5°F20.3°C 60% 7.6 mph N12.2 kmh N 15.2 mph24.5 kmh 29.50 in999.0 mb 0.00 in0.0 mm 0.00 in0.0 mm 0.00 in0.0 mm
01:01 AM 83.8°F28.8°C 68.5°F20.3°C 60% 9.8 mph N15.8 kmh N 15.2 mph24.5 kmh 29.50 in999.0 mb 0.00 in0.0 mm 0.00 in0.0 mm 0.00 in0.0 mm
01:02 AM 83.8°F28.8°C 68.5°F20.3°C 60% 8.3 mph N13.4 kmh N 15.2 mph24.5 kmh 29.50 in999.0 mb 0.00 in0.0 mm 0.00 in0.0 mm 0.00 in0.0 mm
01:03 AM 83.8°F28.8°C 68.5°F20.3°C 60% 6.9 mph N11.1 kmh N 15.2 mph24.5 kmh 29.50 in999.0 mb 0.00 in0.0 mm 0.00 in0.0 mm 0.00 in0.0 mm
01:04 AM 83.8°F28.8°C 68.5°F20.3°C 60% 6.9 mph N11.1 kmh N 14.5 mph23.3 kmh 29.50 in999.0 mb 0.00 in0.0 mm 0.00 in0.0 mm 0.00 in0.0 mm
01:05 AM 83.5°F28.6°C 68.2°F20.1°C 60% 9.8 mph N15.8 kmh N 14.5 mph23.3 kmh 29.49 in998.6 mb 0.00 in0.0 mm 0.00 in0.0 mm 0.00 in0.0 mm
01:06 AM 83.5°F28.6°C 68.2°F20.1°C 60% 7.6 mph N12.2 kmh N 14.5 mph23.3 kmh 29.50 in999.0 mb 0.00 in0.0 mm 0.00 in0.0 mm 0.00 in0.0 mm
01:07 AM 83.5°F28.6°C 68.2°F20.1°C 60% 4.5 mph N7.2 kmh N 13.0 mph20.9 kmh 29.50 in999.0 mb 0.00 in0.0 mm 0.00 in0.0 mm 0.00 in0.0 mm
01:08 AM 83.5°F28.6°C 68.2°F20.1°C 60% 6.0 mph N9.7 kmh N 13.0 mph20.9 kmh 29.50 in999.0 mb 0.00 in0.0 mm 0.00 in0.0 mm 0.00 in0.0 mm
01:09 AM 83.5°F28.6°C 68.2°F20.1°C 60% 5.4 mph N8.7 kmh N 13.0 mph20.9 kmh 29.50 in999.0 mb 0.00 in0.0 mm 0.00 in0.0 mm 0.00 in0.0 mm
01:11 AM 83.5°F28.6°C 68.2°F20.1°C 60% 6.9 mph N11.1 kmh N 15.2 mph24.5 kmh 29.50 in999.0 mb 0.00 in0.0 mm 0.00 in0.0 mm 0.00 in0.0 mm
01:12 AM 83.5°F28.6°C 68.2°F20.1°C 60% 6.9 mph N11.1 kmh N 15.2 mph24.5 kmh 29.51 in999.3 mb 0.00 in0.0 mm 0.00 in0.0 mm 0.00 in0.0 mm
01:13 AM 83.5°F28.6°C 68.2°F20.1°C 60% 6.9 mph N11.1 kmh N 15.2 mph24.5 kmh 29.51 in999.3 mb 0.00 in0.0 mm 0.00 in0.0 mm 0.00 in0.0 mm
01:14 AM 83.5°F28.6°C 68.2°F20.1°C 60% 7.6 mph N12.2 kmh N 15.2 mph24.5 kmh 29.50 in999.0 mb 0.00 in0.0 mm 0.00 in0.0 mm 0.00 in0.0 mm
01:15 AM 83.5°F28.6°C 68.2°F20.1°C 60% 7.6 mph N12.2 kmh N 15.2 mph24.5 kmh 29.50 in999.0 mb 0.00 in0.0 mm 0.00 in0.0 mm 0.00 in0.0 mm
01:16 AM 83.5°F28.6°C 68.2°F20.1°C 60% 8.3 mph N13.4 kmh N 15.2 mph24.5 kmh 29.50 in999.0 mb 0.00 in0.0 mm 0.00 in0.0 mm 0.00 in0.0 mm
01:17 AM 83.5°F28.6°C 68.2°F20.1°C 60% 7.6 mph N12.2 kmh N 15.2 mph24.5 kmh 29.51 in999.3 mb 0.00 in0.0 mm 0.00 in0.0 mm 0.00 in0.0 mm
01:18 AM 83.5°F28.6°C 68.2°F20.1°C 60% 5.4 mph N8.7 kmh N 15.2 mph24.5 kmh 29.50 in999.0 mb 0.00 in0.0 mm 0.00 in0.0 mm 0.00 in0.0 mm
01:19 AM 83.5°F28.6°C 68.2°F20.1°C 60% 7.6 mph NNE12.2 kmh NNE 15.2 mph24.5 kmh 29.51 in999.3 mb 0.00 in0.0 mm 0.00 in0.0 mm 0.00 in0.0 mm
01:20 AM 83.5°F28.6°C 68.2°F20.1°C 60% 6.0 mph NNE9.7 kmh NNE 15.2 mph24.5 kmh 29.50 in999.0 mb 0.00 in0.0 mm 0.00 in0.0 mm 0.00 in0.0 mm
01:21 AM 83.5°F28.6°C 68.2°F20.1°C 60% 5.4 mph NNE8.7 kmh NNE 13.0 mph20.9 kmh 29.50 in999.0 mb 0.00 in0.0 mm 0.00 in0.0 mm 0.00 in0.0 mm
01:22 AM 83.5°F28.6°C 68.2°F20.1°C 60% 5.4 mph NNE8.7 kmh NNE 12.1 mph19.5 kmh 29.50 in999.0 mb 0.00 in0.0 mm 0.00 in0.0 mm 0.00 in0.0 mm
01:23 AM 83.5°F28.6°C 68.2°F20.1°C 60% 8.3 mph NNE13.4 kmh NNE 14.5 mph23.3 kmh 29.50 in999.0 mb 0.00 in0.0 mm 0.00 in0.0 mm 0.00 in0.0 mm
01:24 AM 83.5°F28.6°C 68.2°F20.1°C 60% 6.0 mph N9.7 kmh N 14.5 mph23.3 kmh 29.50 in999.0 mb 0.00 in0.0 mm 0.00 in0.0 mm 0.00 in0.0 mm
01:25 AM 83.5°F28.6°C 68.2°F20.1°C 60% 6.0 mph N9.7 kmh N 14.5 mph23.3 kmh 29.50 in999.0 mb 0.00 in0.0 mm 0.00 in0.0 mm 0.00 in0.0 mm
01:26 AM 83.5°F28.6°C 68.2°F20.1°C 60% 10.7 mph N17.2 kmh N 14.5 mph23.3 kmh 29.50 in999.0 mb 0.00 in0.0 mm 0.00 in0.0 mm 0.00 in0.0 mm
01:27 AM 83.5°F28.6°C 68.2°F20.1°C 60% 6.9 mph N11.1 kmh N 16.8 mph27.0 kmh 29.50 in999.0 mb 0.00 in0.0 mm 0.00 in0.0 mm 0.00 in0.0 mm
01:28 AM 83.5°F28.6°C 68.2°F20.1°C 60% 7.6 mph N12.2 kmh N 16.8 mph27.0 kmh 29.50 in999.0 mb 0.00 in0.0 mm 0.00 in0.0 mm 0.00 in0.0 mm
01:29 AM 83.5°F28.6°C 68.2°F20.1°C 60% 8.3 mph N13.4 kmh N 16.8 mph27.0 kmh 29.50 in999.0 mb 0.00 in0.0 mm 0.00 in0.0 mm 0.00 in0.0 mm
01:30 AM 83.5°F28.6°C 68.2°F20.1°C 60% 9.8 mph N15.8 kmh N 16.8 mph27.0 kmh 29.50 in999.0 mb 0.00 in0.0 mm 0.00 in0.0 mm 0.00 in0.0 mm
01:31 AM 83.5°F28.6°C 68.7°F20.4°C 61% 8.3 mph N13.4 kmh N 16.8 mph27.0 kmh 29.50 in999.0 mb 0.00 in0.0 mm 0.00 in0.0 mm 0.00 in0.0 mm
01:32 AM 83.5°F28.6°C 68.7°F20.4°C 61% 6.0 mph N9.7 kmh N 16.8 mph27.0 kmh 29.49 in998.6 mb 0.00 in0.0 mm 0.00 in0.0 mm 0.00 in0.0 mm
01:33 AM 83.5°F28.6°C 68.7°F20.4°C 61% 9.8 mph N15.8 kmh N 16.8 mph27.0 kmh 29.49 in998.6 mb 0.00 in0.0 mm 0.00 in0.0 mm 0.00 in0.0 mm
01:34 AM 83.5°F28.6°C 68.7°F20.4°C 61% 11.4 mph N18.3 kmh N 17.4 mph28.0 kmh 29.49 in998.6 mb 0.00 in0.0 mm 0.00 in0.0 mm 0.00 in0.0 mm
01:35 AM 83.5°F28.6°C 68.7°F20.4°C 61% 6.0 mph N9.7 kmh N 17.4 mph28.0 kmh 29.49 in998.6 mb 0.00 in0.0 mm 0.00 in0.0 mm 0.00 in0.0 mm
01:36 AM 83.5°F28.6°C 68.7°F20.4°C 61% 7.6 mph N12.2 kmh N 17.4 mph28.0 kmh 29.50 in999.0 mb 0.00 in0.0 mm 0.00 in0.0 mm 0.00 in0.0 mm
01:37 AM 83.5°F28.6°C 68.7°F20.4°C 61% 8.3 mph N13.4 kmh N 17.4 mph28.0 kmh 29.50 in999.0 mb 0.00 in0.0 mm 0.00 in0.0 mm 0.00 in0.0 mm
01:38 AM 83.5°F28.6°C 68.7°F20.4°C 61% 6.9 mph N11.1 kmh N 17.4 mph28.0 kmh 29.49 in998.6 mb 0.00 in0.0 mm 0.00 in0.0 mm 0.00 in0.0 mm
01:39 AM 83.5°F28.6°C 68.7°F20.4°C 61% 6.9 mph N11.1 kmh N 17.4 mph28.0 kmh 29.49 in998.6 mb 0.00 in0.0 mm 0.00 in0.0 mm 0.00 in0.0 mm
01:40 AM 83.5°F28.6°C 68.7°F20.4°C 61% 6.9 mph N11.1 kmh N 17.4 mph28.0 kmh 29.49 in998.6 mb 0.00 in0.0 mm 0.00 in0.0 mm 0.00 in0.0 mm
01:41 AM 83.5°F28.6°C 68.7°F20.4°C 61% 6.9 mph N11.1 kmh N 17.4 mph28.0 kmh 29.50 in999.0 mb 0.00 in0.0 mm 0.00 in0.0 mm 0.00 in0.0 mm
01:42 AM 83.5°F28.6°C 68.7°F20.4°C 61% 6.9 mph N11.1 kmh N 17.4 mph28.0 kmh 29.50 in999.0 mb 0.00 in0.0 mm 0.00 in0.0 mm 0.00 in0.0 mm
01:43 AM 83.3°F28.5°C 68.5°F20.3°C 61% 8.3 mph N13.4 kmh N 17.4 mph28.0 kmh 29.50 in999.0 mb 0.00 in0.0 mm 0.00 in0.0 mm 0.00 in0.0 mm
01:44 AM 83.5°F28.6°C 68.7°F20.4°C 61% 8.3 mph N13.4 kmh N 15.9 mph25.6 kmh 29.50 in999.0 mb 0.00 in0.0 mm 0.00 in0.0 mm 0.00 in0.0 mm
01:45 AM 83.3°F28.5°C 68.5°F20.3°C 61% 11.4 mph N18.3 kmh N 15.9 mph25.6 kmh 29.50 in999.0 mb 0.00 in0.0 mm 0.00 in0.0 mm 0.00 in0.0 mm
01:46 AM 83.3°F28.5°C 68.5°F20.3°C 61% 9.8 mph N15.8 kmh N 15.9 mph25.6 kmh 29.50 in999.0 mb 0.00 in0.0 mm 0.00 in0.0 mm 0.00 in0.0 mm
01:47 AM 83.3°F28.5°C 68.5°F20.3°C 61% 8.3 mph N13.4 kmh N 13.6 mph21.9 kmh 29.50 in999.0 mb 0.00 in0.0 mm 0.00 in0.0 mm 0.00 in0.0 mm
01:48 AM 83.3°F28.5°C 68.5°F20.3°C 61% 9.2 mph N14.8 kmh N 13.6 mph21.9 kmh 29.50 in999.0 mb 0.00 in0.0 mm 0.00 in0.0 mm 0.00 in0.0 mm
01:49 AM 83.3°F28.5°C 68.5°F20.3°C 61% 8.3 mph N13.4 kmh N 13.6 mph21.9 kmh 29.50 in999.0 mb 0.00 in0.0 mm 0.00 in0.0 mm 0.00 in0.0 mm
01:50 AM 83.3°F28.5°C 68.5°F20.3°C 61% 9.8 mph N15.8 kmh N 14.5 mph23.3 kmh 29.50 in999.0 mb 0.00 in0.0 mm 0.00 in0.0 mm 0.00 in0.0 mm
01:51 AM 83.3°F28.5°C 68.5°F20.3°C 61% 12.1 mph N19.5 kmh N 15.2 mph24.5 kmh 29.50 in999.0 mb 0.00 in0.0 mm 0.00 in0.0 mm 0.00 in0.0 mm
01:52 AM 83.3°F28.5°C 68.5°F20.3°C 61% 9.8 mph N15.8 kmh N 15.2 mph24.5 kmh 29.51 in999.3 mb 0.00 in0.0 mm 0.00 in0.0 mm 0.00 in0.0 mm
01:53 AM 83.1°F28.4°C 68.3°F20.2°C 61% 11.4 mph NNW18.3 kmh NNW 15.9 mph25.6 kmh 29.51 in999.3 mb 0.00 in0.0 mm 0.00 in0.0 mm 0.00 in0.0 mm
01:54 AM 83.1°F28.4°C 68.3°F20.2°C 61% 9.2 mph NNW14.8 kmh NNW 15.9 mph25.6 kmh 29.51 in999.3 mb 0.00 in0.0 mm 0.00 in0.0 mm 0.00 in0.0 mm
01:55 AM 83.1°F28.4°C 68.3°F20.2°C 61% 9.2 mph N14.8 kmh N 15.9 mph25.6 kmh 29.50 in999.0 mb 0.00 in0.0 mm 0.00 in0.0 mm 0.00 in0.0 mm
01:56 AM 83.1°F28.4°C 68.3°F20.2°C 61% 9.2 mph N14.8 kmh N 15.9 mph25.6 kmh 29.50 in999.0 mb 0.00 in0.0 mm 0.00 in0.0 mm 0.00 in0.0 mm
01:57 AM 83.1°F28.4°C 68.3°F20.2°C 61% 9.8 mph NNW15.8 kmh NNW 15.9 mph25.6 kmh 29.51 in999.3 mb 0.00 in0.0 mm 0.00 in0.0 mm 0.00 in0.0 mm
01:58 AM 83.1°F28.4°C 68.3°F20.2°C 61% 8.3 mph NNW13.4 kmh NNW 15.9 mph25.6 kmh 29.50 in999.0 mb 0.00 in0.0 mm 0.00 in0.0 mm 0.00 in0.0 mm
01:59 AM 83.1°F28.4°C 68.3°F20.2°C 61% 4.5 mph N7.2 kmh N 15.9 mph25.6 kmh 29.50 in999.0 mb 0.00 in0.0 mm 0.00 in0.0 mm 0.00 in0.0 mm
02:00 AM 83.1°F28.4°C 68.3°F20.2°C 61% 10.7 mph N17.2 kmh N 15.9 mph25.6 kmh 29.50 in999.0 mb 0.00 in0.0 mm 0.00 in0.0 mm 0.00 in0.0 mm
02:01 AM 83.1°F28.4°C 68.3°F20.2°C 61% 6.9 mph N11.1 kmh N 15.9 mph25.6 kmh 29.50 in999.0 mb 0.00 in0.0 mm 0.00 in0.0 mm 0.00 in0.0 mm
02:02 AM 83.1°F28.4°C 68.3°F20.2°C 61% 9.2 mph N14.8 kmh N 15.9 mph25.6 kmh 29.50 in999.0 mb 0.00 in0.0 mm 0.00 in0.0 mm 0.00 in0.0 mm
02:04 AM 82.9°F28.3°C 68.2°F20.1°C 61% 8.3 mph N13.4 kmh N 15.9 mph25.6 kmh 29.51 in999.3 mb 0.00 in0.0 mm 0.00 in0.0 mm 0.00 in0.0 mm
02:05 AM 82.9°F28.3°C 68.2°F20.1°C 61% 8.3 mph N13.4 kmh N 15.9 mph25.6 kmh 29.50 in999.0 mb 0.00 in0.0 mm 0.00 in0.0 mm 0.00 in0.0 mm
02:06 AM 82.9°F28.3°C 68.2°F20.1°C 61% 7.6 mph N12.2 kmh N 15.9 mph25.6 kmh 29.50 in999.0 mb 0.00 in0.0 mm 0.00 in0.0 mm 0.00 in0.0 mm
02:07 AM 82.9°F28.3°C 68.6°F20.3°C 62% 7.6 mph N12.2 kmh N 15.9 mph25.6 kmh 29.50 in999.0 mb 0.00 in0.0 mm 0.00 in0.0 mm 0.00 in0.0 mm
02:08 AM 82.9°F28.3°C 68.6°F20.3°C 62% 7.6 mph N12.2 kmh N 15.9 mph25.6 kmh 29.50 in999.0 mb 0.00 in0.0 mm 0.00 in0.0 mm 0.00 in0.0 mm
02:09 AM 82.9°F28.3°C 68.6°F20.3°C 62% 6.9 mph N11.1 kmh N 15.9 mph25.6 kmh 29.51 in999.3 mb 0.00 in0.0 mm 0.00 in0.0 mm 0.00 in0.0 mm
02:10 AM 82.8°F28.2°C 68.5°F20.3°C 62% 10.7 mph N17.2 kmh N 15.9 mph25.6 kmh 29.50 in999.0 mb 0.00 in0.0 mm 0.00 in0.0 mm 0.00 in0.0 mm
02:11 AM 82.8°F28.2°C 68.5°F20.3°C 62% 9.2 mph N14.8 kmh N 15.9 mph25.6 kmh 29.51 in999.3 mb 0.00 in0.0 mm 0.00 in0.0 mm 0.00 in0.0 mm
02:12 AM 82.8°F28.2°C 68.5°F20.3°C 62% 5.4 mph N8.7 kmh N 15.9 mph25.6 kmh 29.51 in999.3 mb 0.00 in0.0 mm 0.00 in0.0 mm 0.00 in0.0 mm
02:13 AM 82.8°F28.2°C 68.5°F20.3°C 62% 6.0 mph N9.7 kmh N 14.5 mph23.3 kmh 29.51 in999.3 mb 0.00 in0.0 mm 0.00 in0.0 mm 0.00 in0.0 mm
02:14 AM 82.8°F28.2°C 68.5°F20.3°C 62% 5.4 mph N8.7 kmh N 14.5 mph23.3 kmh 29.51 in999.3 mb 0.00 in0.0 mm 0.00 in0.0 mm 0.00 in0.0 mm
02:15 AM 82.8°F28.2°C 68.5°F20.3°C 62% 6.9 mph N11.1 kmh N 14.5 mph23.3 kmh 29.51 in999.3 mb 0.00 in0.0 mm 0.00 in0.0 mm 0.00 in0.0 mm
02:16 AM 82.8°F28.2°C 68.5°F20.3°C 62% 6.9 mph N11.1 kmh N 14.5 mph23.3 kmh 29.51 in999.3 mb 0.00 in0.0 mm 0.00 in0.0 mm 0.00 in0.0 mm
02:17 AM 82.8°F28.2°C 68.5°F20.3°C 62% 10.7 mph N17.2 kmh N 14.5 mph23.3 kmh 29.51 in999.3 mb 0.00 in0.0 mm 0.00 in0.0 mm 0.00 in0.0 mm
02:18 AM 82.8°F28.2°C 68.5°F20.3°C 62% 6.9 mph N11.1 kmh N 14.5 mph23.3 kmh 29.51 in999.3 mb 0.00 in0.0 mm 0.00 in0.0 mm 0.00 in0.0 mm
02:19 AM 82.8°F28.2°C 68.5°F20.3°C 62% 4.5 mph N7.2 kmh N 14.5 mph23.3 kmh 29.51 in999.3 mb 0.00 in0.0 mm 0.00 in0.0 mm 0.00 in0.0 mm
02:20 AM 82.8°F28.2°C 68.9°F20.5°C 63% 6.9 mph N11.1 kmh N 14.5 mph23.3 kmh 29.51 in999.3 mb 0.00 in0.0 mm 0.00 in0.0 mm 0.00 in0.0 mm
02:21 AM 82.6°F28.1°C 68.8°F20.4°C 63% 6.0 mph N9.7 kmh N 13.0 mph20.9 kmh 29.52 in999.7 mb 0.00 in0.0 mm 0.00 in0.0 mm 0.00 in0.0 mm
02:22 AM 82.6°F28.1°C 68.8°F20.4°C 63% 6.9 mph N11.1 kmh N 13.0 mph20.9 kmh 29.52 in999.7 mb 0.00 in0.0 mm 0.00 in0.0 mm 0.00 in0.0 mm
02:23 AM 82.6°F28.1°C 68.8°F20.4°C 63% 6.0 mph N9.7 kmh N 13.0 mph20.9 kmh 29.51 in999.3 mb 0.00 in0.0 mm 0.00 in0.0 mm 0.00 in0.0 mm
02:24 AM 82.6°F28.1°C 68.8°F20.4°C 63% 4.5 mph N7.2 kmh N 13.0 mph20.9 kmh 29.52 in999.7 mb 0.00 in0.0 mm 0.00 in0.0 mm 0.00 in0.0 mm
02:26 AM 82.6°F28.1°C 68.8°F20.4°C 63% 3.8 mph N6.1 kmh N 13.0 mph20.9 kmh 29.52 in999.7 mb 0.00 in0.0 mm 0.00 in0.0 mm 0.00 in0.0 mm
02:27 AM 82.6°F28.1°C 68.8°F20.4°C 63% 5.4 mph N8.7 kmh N 13.0 mph20.9 kmh 29.52 in999.7 mb 0.00 in0.0 mm 0.00 in0.0 mm 0.00 in0.0 mm
02:28 AM 82.6°F28.1°C 68.8°F20.4°C 63% 5.4 mph N8.7 kmh N 10.7 mph17.2 kmh 29.51 in999.3 mb 0.00 in0.0 mm 0.00 in0.0 mm 0.00 in0.0 mm
02:29 AM 82.6°F28.1°C 68.8°F20.4°C 63% 3.1 mph N5.0 kmh N 10.7 mph17.2 kmh 29.51 in999.3 mb 0.00 in0.0 mm 0.00 in0.0 mm 0.00 in0.0 mm
02:30 AM 82.6°F28.1°C 68.8°F20.4°C 63% 3.8 mph N6.1 kmh N 10.7 mph17.2 kmh 29.52 in999.7 mb 0.00 in0.0 mm 0.00 in0.0 mm 0.00 in0.0 mm
02:31 AM 82.6°F28.1°C 68.8°F20.4°C 63% 3.8 mph N6.1 kmh N 9.8 mph15.8 kmh 29.51 in999.3 mb 0.00 in0.0 mm 0.00 in0.0 mm 0.00 in0.0 mm
02:32 AM 82.6°F28.1°C 68.8°F20.4°C 63% 2.2 mph N3.5 kmh N 9.8 mph15.8 kmh 29.51 in999.3 mb 0.00 in0.0 mm 0.00 in0.0 mm 0.00 in0.0 mm
02:33 AM 82.6°F28.1°C 68.8°F20.4°C 63% 0.7 mph N1.1 kmh N 8.3 mph13.4 kmh 29.52 in999.7 mb 0.00 in0.0 mm 0.00 in0.0 mm 0.00 in0.0 mm
02:35 AM 82.6°F28.1°C 68.8°F20.4°C 63% 3.1 mph N5.0 kmh N 8.3 mph13.4 kmh 29.52 in999.7 mb 0.00 in0.0 mm 0.00 in0.0 mm 0.00 in0.0 mm
02:36 AM 82.6°F28.1°C 68.8°F20.4°C 63% 3.8 mph N6.1 kmh N 8.3 mph13.4 kmh 29.52 in999.7 mb 0.00 in0.0 mm 0.00 in0.0 mm 0.00 in0.0 mm
02:37 AM 82.4°F28.0°C 68.6°F20.3°C 63% 0.7 mph N1.1 kmh N 8.3 mph13.4 kmh 29.52 in999.7 mb 0.00 in0.0 mm 0.00 in0.0 mm 0.00 in0.0 mm
02:38 AM 82.4°F28.0°C 68.6°F20.3°C 63% 1.6 mph NNE2.6 kmh NNE 8.3 mph13.4 kmh 29.52 in999.7 mb 0.00 in0.0 mm 0.00 in0.0 mm 0.00 in0.0 mm
02:39 AM 82.4°F28.0°C 68.6°F20.3°C 63% 0.7 mph NNE1.1 kmh NNE 6.0 mph9.7 kmh 29.52 in999.7 mb 0.00 in0.0 mm 0.00 in0.0 mm 0.00 in0.0 mm
02:40 AM 82.4°F28.0°C 68.6°F20.3°C 63% 0.7 mph NNE1.1 kmh NNE 6.0 mph9.7 kmh 29.52 in999.7 mb 0.00 in0.0 mm 0.00 in0.0 mm 0.00 in0.0 mm
02:41 AM 82.4°F28.0°C 68.6°F20.3°C 63% Calm Calm 6.0 mph9.7 kmh 29.52 in999.7 mb 0.00 in0.0 mm 0.00 in0.0 mm 0.00 in0.0 mm
02:42 AM 82.4°F28.0°C 68.6°F20.3°C 63% Calm Calm 6.0 mph9.7 kmh 29.53 in1000.0 mb 0.00 in0.0 mm 0.00 in0.0 mm 0.00 in0.0 mm
02:43 AM 82.4°F28.0°C 68.6°F20.3°C 63% 1.6 mph NNE2.6 kmh NNE 6.0 mph9.7 kmh 29.52 in999.7 mb 0.00 in0.0 mm 0.00 in0.0 mm 0.00 in0.0 mm
02:44 AM 82.4°F28.0°C 68.6°F20.3°C 63% 0.7 mph NNE1.1 kmh NNE 6.0 mph9.7 kmh 29.52 in999.7 mb 0.00 in0.0 mm 0.00 in0.0 mm 0.00 in0.0 mm
02:45 AM 82.4°F28.0°C 69.1°F20.6°C 64% 1.6 mph NNE2.6 kmh NNE 6.0 mph9.7 kmh 29.53 in1000.0 mb 0.00 in0.0 mm 0.00 in0.0 mm 0.00 in0.0 mm
02:46 AM 82.4°F28.0°C 69.1°F20.6°C 64% 2.2 mph NE3.5 kmh NE 5.4 mph8.7 kmh 29.53 in1000.0 mb 0.00 in0.0 mm 0.00 in0.0 mm 0.00 in0.0 mm
02:47 AM 82.4°F28.0°C 69.1°F20.6°C 64% 3.1 mph ENE5.0 kmh ENE 4.5 mph7.2 kmh 29.53 in1000.0 mb 0.00 in0.0 mm 0.00 in0.0 mm 0.00 in0.0 mm
02:48 AM 82.4°F28.0°C 69.1°F20.6°C 64% 3.1 mph E5.0 kmh E 4.5 mph7.2 kmh 29.54 in1000.3 mb 0.00 in0.0 mm 0.00 in0.0 mm 0.00 in0.0 mm
02:49 AM 82.4°F28.0°C 69.1°F20.6°C 64% 5.4 mph SSE8.7 kmh SSE 7.6 mph12.2 kmh 29.54 in1000.3 mb 0.00 in0.0 mm 0.00 in0.0 mm 0.00 in0.0 mm
02:50 AM 82.4°F28.0°C 69.1°F20.6°C 64% 9.2 mph S14.8 kmh S 11.4 mph18.3 kmh 29.55 in1000.7 mb 0.00 in0.0 mm 0.00 in0.0 mm 0.00 in0.0 mm
02:51 AM 82.4°F28.0°C 69.1°F20.6°C 64% 7.6 mph S12.2 kmh S 11.4 mph18.3 kmh 29.55 in1000.7 mb 0.00 in0.0 mm 0.00 in0.0 mm 0.00 in0.0 mm
02:52 AM 82.4°F28.0°C 69.1°F20.6°C 64% 7.6 mph S12.2 kmh S 12.1 mph19.5 kmh 29.55 in1000.7 mb 0.00 in0.0 mm 0.00 in0.0 mm 0.00 in0.0 mm
02:53 AM 82.6°F28.1°C 69.2°F20.7°C 64% 13.6 mph S21.9 kmh S 20.6 mph33.2 kmh 29.55 in1000.7 mb 0.00 in0.0 mm 0.00 in0.0 mm 0.00 in0.0 mm
02:54 AM 82.6°F28.1°C 69.7°F20.9°C 65% 11.4 mph S18.3 kmh S 22.1 mph35.6 kmh 29.55 in1000.7 mb 0.00 in0.0 mm 0.00 in0.0 mm 0.00 in0.0 mm
02:55 AM 82.2°F27.9°C 69.8°F21.0°C 66% 9.2 mph S14.8 kmh S 22.1 mph35.6 kmh 29.55 in1000.7 mb 0.00 in0.0 mm 0.00 in0.0 mm 0.00 in0.0 mm
02:56 AM 81.7°F27.6°C 69.3°F20.7°C 66% 14.5 mph S23.3 kmh S 22.1 mph35.6 kmh 29.55 in1000.7 mb 0.00 in0.0 mm 0.00 in0.0 mm 0.00 in0.0 mm
02:57 AM 81.1°F27.3°C 69.2°F20.7°C 67% 8.3 mph S13.4 kmh S 22.1 mph35.6 kmh 29.54 in1000.3 mb 0.00 in0.0 mm 0.00 in0.0 mm 0.00 in0.0 mm
02:58 AM 80.6°F27.0°C 69.1°F20.6°C 68% 7.6 mph S12.2 kmh S 22.1 mph35.6 kmh 29.54 in1000.3 mb 0.00 in0.0 mm 0.00 in0.0 mm 0.00 in0.0 mm
02:59 AM 79.5°F26.4°C 69.7°F20.9°C 72% 14.5 mph S23.3 kmh S 22.8 mph36.7 kmh 29.54 in1000.3 mb 0.00 in0.0 mm 0.00 in0.0 mm 0.00 in0.0 mm
03:00 AM 78.8°F26.0°C 69.1°F20.6°C 72% 6.9 mph S11.1 kmh S 22.8 mph36.7 kmh 29.53 in1000.0 mb 0.00 in0.0 mm 0.00 in0.0 mm 0.00 in0.0 mm
03:01 AM 78.8°F26.0°C 69.5°F20.8°C 73% 3.1 mph S5.0 kmh S 22.8 mph36.7 kmh 29.54 in1000.3 mb 0.00 in0.0 mm 0.00 in0.0 mm 0.00 in0.0 mm
03:02 AM 78.4°F25.8°C 69.9°F21.1°C 75% 6.0 mph S9.7 kmh S 22.8 mph36.7 kmh 29.54 in1000.3 mb 0.00 in0.0 mm 0.00 in0.0 mm 0.00 in0.0 mm
03:03 AM 78.3°F25.7°C 70.1°F21.2°C 76% 5.4 mph S8.7 kmh S 22.8 mph36.7 kmh 29.54 in1000.3 mb 0.00 in0.0 mm 0.00 in0.0 mm 0.00 in0.0 mm
03:04 AM 78.1°F25.6°C 69.9°F21.1°C 76% 6.0 mph S9.7 kmh S 22.8 mph36.7 kmh 29.54 in1000.3 mb 0.00 in0.0 mm 0.00 in0.0 mm 0.00 in0.0 mm
03:05 AM 78.1°F25.6°C 69.9°F21.1°C 76% 10.7 mph S17.2 kmh S 22.8 mph36.7 kmh 29.54 in1000.3 mb 0.00 in0.0 mm 0.00 in0.0 mm 0.00 in0.0 mm
03:06 AM 78.1°F25.6°C 69.9°F21.1°C 76% 7.6 mph S12.2 kmh S 22.8 mph36.7 kmh 29.53 in1000.0 mb 0.00 in0.0 mm 0.00 in0.0 mm 0.00 in0.0 mm
03:07 AM 78.1°F25.6°C 70.3°F21.3°C 77% 9.2 mph S14.8 kmh S 22.8 mph36.7 kmh 29.53 in1000.0 mb 0.00 in0.0 mm 0.00 in0.0 mm 0.00 in0.0 mm
03:08 AM 77.9°F25.5°C 70.2°F21.2°C 77% 9.8 mph S15.8 kmh S 22.8 mph36.7 kmh 29.53 in1000.0 mb 0.00 in0.0 mm 0.00 in0.0 mm 0.00 in0.0 mm
03:09 AM 77.9°F25.5°C 70.2°F21.2°C 77% 6.0 mph S9.7 kmh S 19.7 mph31.7 kmh 29.53 in1000.0 mb 0.00 in0.0 mm 0.00 in0.0 mm 0.00 in0.0 mm
03:10 AM 77.9°F25.5°C 70.2°F21.2°C 77% 5.4 mph S8.7 kmh S 15.9 mph25.6 kmh 29.53 in1000.0 mb 0.00 in0.0 mm 0.00 in0.0 mm 0.00 in0.0 mm
03:11 AM 77.7°F25.4°C 70.0°F21.1°C 77% 3.1 mph S5.0 kmh S 15.9 mph25.6 kmh 29.54 in1000.3 mb 0.00 in0.0 mm 0.00 in0.0 mm 0.00 in0.0 mm
03:12 AM 77.7°F25.4°C 70.0°F21.1°C 77% 3.8 mph S6.1 kmh S 15.2 mph24.5 kmh 29.53 in1000.0 mb 0.00 in0.0 mm 0.00 in0.0 mm 0.00 in0.0 mm
03:13 AM 77.7°F25.4°C 70.0°F21.1°C 77% 7.6 mph S12.2 kmh S 15.2 mph24.5 kmh 29.52 in999.7 mb 0.00 in0.0 mm 0.00 in0.0 mm 0.00 in0.0 mm
03:14 AM 77.7°F25.4°C 70.0°F21.1°C 77% 5.4 mph S8.7 kmh S 15.2 mph24.5 kmh 29.52 in999.7 mb 0.00 in0.0 mm 0.00 in0.0 mm 0.00 in0.0 mm
03:15 AM 77.7°F25.4°C 70.0°F21.1°C 77% 12.1 mph S19.5 kmh S 18.3 mph29.5 kmh 29.52 in999.7 mb 0.00 in0.0 mm 0.00 in0.0 mm 0.00 in0.0 mm
03:16 AM 77.5°F25.3°C 69.8°F21.0°C 77% 10.7 mph S17.2 kmh S 18.3 mph29.5 kmh 29.52 in999.7 mb 0.00 in0.0 mm 0.00 in0.0 mm 0.00 in0.0 mm
03:17 AM 77.4°F25.2°C 69.6°F20.9°C 77% 7.6 mph S12.2 kmh S 18.3 mph29.5 kmh 29.53 in1000.0 mb 0.00 in0.0 mm 0.00 in0.0 mm 0.00 in0.0 mm
03:18 AM 77.4°F25.2°C 69.6°F20.9°C 77% 6.9 mph S11.1 kmh S 18.3 mph29.5 kmh 29.52 in999.7 mb 0.00 in0.0 mm 0.00 in0.0 mm 0.00 in0.0 mm
03:19 AM 77.0°F25.0°C 69.3°F20.7°C 77% 9.2 mph S14.8 kmh S 18.3 mph29.5 kmh 29.52 in999.7 mb 0.00 in0.0 mm 0.00 in0.0 mm 0.00 in0.0 mm
03:20 AM 76.8°F24.9°C 69.5°F20.8°C 78% 8.3 mph S13.4 kmh S 18.3 mph29.5 kmh 29.53 in1000.0 mb 0.00 in0.0 mm 0.00 in0.0 mm 0.00 in0.0 mm
03:21 AM 76.6°F24.8°C 69.3°F20.7°C 78% 7.6 mph S12.2 kmh S 18.3 mph29.5 kmh 29.52 in999.7 mb 0.00 in0.0 mm 0.00 in0.0 mm 0.00 in0.0 mm
03:22 AM 76.5°F24.7°C 69.1°F20.6°C 78% 6.9 mph S11.1 kmh S 18.3 mph29.5 kmh 29.53 in1000.0 mb 0.00 in0.0 mm 0.00 in0.0 mm 0.00 in0.0 mm
03:23 AM 76.1°F24.5°C 68.8°F20.4°C 78% 6.9 mph SSE11.1 kmh SSE 18.3 mph29.5 kmh 29.52 in999.7 mb 0.00 in0.0 mm 0.00 in0.0 mm 0.00 in0.0 mm
03:24 AM 76.1°F24.5°C 69.2°F20.7°C 79% 7.6 mph SSE12.2 kmh SSE 18.3 mph29.5 kmh 29.52 in999.7 mb 0.00 in0.0 mm 0.00 in0.0 mm 0.00 in0.0 mm
03:25 AM 75.9°F24.4°C 69.0°F20.6°C 79% 7.6 mph SSE12.2 kmh SSE 18.3 mph29.5 kmh 29.52 in999.7 mb 0.00 in0.0 mm 0.00 in0.0 mm 0.00 in0.0 mm
03:26 AM 75.9°F24.4°C 69.0°F20.6°C 79% 5.4 mph SSE8.7 kmh SSE 15.9 mph25.6 kmh 29.53 in1000.0 mb 0.00 in0.0 mm 0.00 in0.0 mm 0.00 in0.0 mm
03:27 AM 75.7°F24.3°C 69.2°F20.7°C 80% 6.0 mph SE9.7 kmh SE 15.2 mph24.5 kmh 29.52 in999.7 mb 0.00 in0.0 mm 0.00 in0.0 mm 0.00 in0.0 mm
03:28 AM 75.7°F24.3°C 69.2°F20.7°C 80% 9.2 mph SE14.8 kmh SE 15.2 mph24.5 kmh 29.52 in999.7 mb 0.00 in0.0 mm 0.00 in0.0 mm 0.00 in0.0 mm
03:29 AM 75.6°F24.2°C 69.0°F20.6°C 80% 9.2 mph SE14.8 kmh SE 14.5 mph23.3 kmh 29.53 in1000.0 mb 0.00 in0.0 mm 0.00 in0.0 mm 0.00 in0.0 mm
03:30 AM 75.6°F24.2°C 69.4°F20.8°C 81% 7.6 mph SE12.2 kmh SE 14.5 mph23.3 kmh 29.53 in1000.0 mb 0.00 in0.0 mm 0.00 in0.0 mm 0.00 in0.0 mm
03:31 AM 75.4°F24.1°C 69.2°F20.7°C 81% 6.9 mph SE11.1 kmh SE 14.5 mph23.3 kmh 29.52 in999.7 mb 0.00 in0.0 mm 0.00 in0.0 mm 0.00 in0.0 mm
03:32 AM 75.4°F24.1°C 69.2°F20.7°C 81% 5.4 mph SE8.7 kmh SE 14.5 mph23.3 kmh 29.53 in1000.0 mb 0.00 in0.0 mm 0.00 in0.0 mm 0.00 in0.0 mm
03:33 AM 75.4°F24.1°C 69.2°F20.7°C 81% 7.6 mph SE12.2 kmh SE 14.5 mph23.3 kmh 29.52 in999.7 mb 0.00 in0.0 mm 0.00 in0.0 mm 0.00 in0.0 mm
03:34 AM 75.4°F24.1°C 69.2°F20.7°C 81% 7.6 mph SSE12.2 kmh SSE 14.5 mph23.3 kmh 29.52 in999.7 mb 0.00 in0.0 mm 0.00 in0.0 mm 0.00 in0.0 mm
03:35 AM 75.4°F24.1°C 68.8°F20.4°C 80% 8.3 mph SSE13.4 kmh SSE 14.5 mph23.3 kmh 29.52 in999.7 mb 0.00 in0.0 mm 0.00 in0.0 mm 0.00 in0.0 mm
03:36 AM 75.4°F24.1°C 68.8°F20.4°C 80% 9.8 mph SSE15.8 kmh SSE 14.5 mph23.3 kmh 29.52 in999.7 mb 0.00 in0.0 mm 0.00 in0.0 mm 0.00 in0.0 mm
03:37 AM 75.4°F24.1°C 68.5°F20.3°C 79% 5.4 mph SSE8.7 kmh SSE 14.5 mph23.3 kmh 29.52 in999.7 mb 0.00 in0.0 mm 0.00 in0.0 mm 0.00 in0.0 mm
03:38 AM 75.4°F24.1°C 68.5°F20.3°C 79% 8.3 mph SSE13.4 kmh SSE 14.5 mph23.3 kmh 29.52 in999.7 mb 0.00 in0.0 mm 0.00 in0.0 mm 0.00 in0.0 mm
03:39 AM 75.4°F24.1°C 68.1°F20.1°C 78% 3.8 mph SSE6.1 kmh SSE 14.5 mph23.3 kmh 29.52 in999.7 mb 0.00 in0.0 mm 0.00 in0.0 mm 0.00 in0.0 mm
03:40 AM 75.4°F24.1°C 68.1°F20.1°C 78% 4.5 mph SSE7.2 kmh SSE 14.5 mph23.3 kmh 29.52 in999.7 mb 0.00 in0.0 mm 0.00 in0.0 mm 0.00 in0.0 mm
03:41 AM 75.4°F24.1°C 68.1°F20.1°C 78% 8.3 mph SSE13.4 kmh SSE 14.5 mph23.3 kmh 29.52 in999.7 mb 0.00 in0.0 mm 0.00 in0.0 mm 0.00 in0.0 mm
03:42 AM 75.4°F24.1°C 68.1°F20.1°C 78% 3.8 mph SSE6.1 kmh SSE 14.5 mph23.3 kmh 29.52 in999.7 mb 0.00 in0.0 mm 0.00 in0.0 mm 0.00 in0.0 mm
03:43 AM 75.4°F24.1°C 67.7°F19.8°C 77% 6.0 mph SSE9.7 kmh SSE 14.5 mph23.3 kmh 29.52 in999.7 mb 0.00 in0.0 mm 0.00 in0.0 mm 0.00 in0.0 mm
03:44 AM 75.4°F24.1°C 67.7°F19.8°C 77% 9.8 mph SE15.8 kmh SE 15.9 mph25.6 kmh 29.52 in999.7 mb 0.00 in0.0 mm 0.00 in0.0 mm 0.00 in0.0 mm
03:45 AM 75.4°F24.1°C 67.7°F19.8°C 77% 9.2 mph SE14.8 kmh SE 15.9 mph25.6 kmh 29.52 in999.7 mb 0.00 in0.0 mm 0.00 in0.0 mm 0.00 in0.0 mm
03:46 AM 75.4°F24.1°C 67.7°F19.8°C 77% 6.0 mph SE9.7 kmh SE 15.9 mph25.6 kmh 29.52 in999.7 mb 0.00 in0.0 mm 0.00 in0.0 mm 0.00 in0.0 mm
03:47 AM 75.4°F24.1°C 67.7°F19.8°C 77% 3.8 mph SE6.1 kmh SE 15.9 mph25.6 kmh 29.52 in999.7 mb 0.00 in0.0 mm 0.00 in0.0 mm 0.00 in0.0 mm
03:48 AM 75.4°F24.1°C 67.7°F19.8°C 77% 6.0 mph SE9.7 kmh SE 15.9 mph25.6 kmh 29.52 in999.7 mb 0.00 in0.0 mm 0.00 in0.0 mm 0.00 in0.0 mm
03:49 AM 75.4°F24.1°C 67.7°F19.8°C 77% 6.9 mph SSE11.1 kmh SSE 15.9 mph25.6 kmh 29.52 in999.7 mb 0.00 in0.0 mm 0.00 in0.0 mm 0.00 in0.0 mm
03:50 AM 75.4°F24.1°C 67.7°F19.8°C 77% 6.0 mph SE9.7 kmh SE 15.9 mph25.6 kmh 29.51 in999.3 mb 0.00 in0.0 mm 0.00 in0.0 mm 0.00 in0.0 mm
03:51 AM 75.4°F24.1°C 67.3°F19.6°C 76% 6.9 mph SE11.1 kmh SE 15.9 mph25.6 kmh 29.52 in999.7 mb 0.00 in0.0 mm 0.00 in0.0 mm 0.00 in0.0 mm
03:52 AM 75.4°F24.1°C 67.3°F19.6°C 76% 6.0 mph SE9.7 kmh SE 15.9 mph25.6 kmh 29.52 in999.7 mb 0.00 in0.0 mm 0.00 in0.0 mm 0.00 in0.0 mm
03:53 AM 75.4°F24.1°C 67.3°F19.6°C 76% 5.4 mph SE8.7 kmh SE 15.9 mph25.6 kmh 29.51 in999.3 mb 0.00 in0.0 mm 0.00 in0.0 mm 0.00 in0.0 mm
03:54 AM 75.2°F24.0°C 67.2°F19.6°C 76% 5.4 mph SSE8.7 kmh SSE 15.9 mph25.6 kmh 29.50 in999.0 mb 0.00 in0.0 mm 0.00 in0.0 mm 0.00 in0.0 mm
03:55 AM 75.2°F24.0°C 67.5°F19.7°C 77% 9.2 mph SE14.8 kmh SE 13.0 mph20.9 kmh 29.50 in999.0 mb 0.00 in0.0 mm 0.00 in0.0 mm 0.00 in0.0 mm
03:56 AM 75.2°F24.0°C 67.5°F19.7°C 77% 5.4 mph SE8.7 kmh SE 13.0 mph20.9 kmh 29.50 in999.0 mb 0.00 in0.0 mm 0.00 in0.0 mm 0.00 in0.0 mm
03:57 AM 75.2°F24.0°C 67.5°F19.7°C 77% 5.4 mph SE8.7 kmh SE 13.0 mph20.9 kmh 29.50 in999.0 mb 0.00 in0.0 mm 0.00 in0.0 mm 0.00 in0.0 mm
03:58 AM 75.2°F24.0°C 67.5°F19.7°C 77% 6.9 mph SE11.1 kmh SE 13.0 mph20.9 kmh 29.50 in999.0 mb 0.00 in0.0 mm 0.00 in0.0 mm 0.00 in0.0 mm
03:59 AM 75.0°F23.9°C 67.7°F19.8°C 78% 7.6 mph SE12.2 kmh SE 13.0 mph20.9 kmh 29.50 in999.0 mb 0.00 in0.0 mm 0.00 in0.0 mm 0.00 in0.0 mm
04:00 AM 75.0°F23.9°C 67.7°F19.8°C 78% 8.3 mph SE13.4 kmh SE 14.5 mph23.3 kmh 29.50 in999.0 mb 0.00 in0.0 mm 0.00 in0.0 mm 0.00 in0.0 mm
04:01 AM 74.8°F23.8°C 67.6°F19.8°C 78% 4.5 mph SE7.2 kmh SE 14.5 mph23.3 kmh 29.50 in999.0 mb 0.00 in0.0 mm 0.00 in0.0 mm 0.00 in0.0 mm
04:02 AM 74.8°F23.8°C 67.6°F19.8°C 78% 5.4 mph SE8.7 kmh SE 14.5 mph23.3 kmh 29.50 in999.0 mb 0.00 in0.0 mm 0.00 in0.0 mm 0.00 in0.0 mm
04:03 AM 74.8°F23.8°C 67.6°F19.8°C 78% 5.4 mph SE8.7 kmh SE 14.5 mph23.3 kmh 29.50 in999.0 mb 0.00 in0.0 mm 0.00 in0.0 mm 0.00 in0.0 mm
04:04 AM 74.8°F23.8°C 67.6°F19.8°C 78% 4.5 mph SE7.2 kmh SE 14.5 mph23.3 kmh 29.49 in998.6 mb 0.00 in0.0 mm 0.00 in0.0 mm 0.00 in0.0 mm
04:05 AM 74.8°F23.8°C 67.6°F19.8°C 78% 6.9 mph SE11.1 kmh SE 14.5 mph23.3 kmh 29.48 in998.3 mb 0.00 in0.0 mm 0.00 in0.0 mm 0.00 in0.0 mm
04:06 AM 74.8°F23.8°C 67.6°F19.8°C 78% 4.5 mph SE7.2 kmh SE 14.5 mph23.3 kmh 29.49 in998.6 mb 0.00 in0.0 mm 0.00 in0.0 mm 0.00 in0.0 mm
04:07 AM 74.8°F23.8°C 67.6°F19.8°C 78% 6.9 mph SE11.1 kmh SE 14.5 mph23.3 kmh 29.49 in998.6 mb 0.00 in0.0 mm 0.00 in0.0 mm 0.00 in0.0 mm
04:08 AM 74.8°F23.8°C 67.6°F19.8°C 78% 6.9 mph SE11.1 kmh SE 14.5 mph23.3 kmh 29.50 in999.0 mb 0.00 in0.0 mm 0.00 in0.0 mm 0.00 in0.0 mm
04:09 AM 74.8°F23.8°C 67.6°F19.8°C 78% 6.0 mph SE9.7 kmh SE 14.5 mph23.3 kmh 29.50 in999.0 mb 0.00 in0.0 mm 0.00 in0.0 mm 0.00 in0.0 mm
04:10 AM 74.8°F23.8°C 67.6°F19.8°C 78% 5.4 mph SE8.7 kmh SE 14.5 mph23.3 kmh 29.50 in999.0 mb 0.00 in0.0 mm 0.00 in0.0 mm 0.00 in0.0 mm
04:11 AM 74.8°F23.8°C 67.6°F19.8°C 78% 6.0 mph SE9.7 kmh SE 13.6 mph21.9 kmh 29.51 in999.3 mb 0.00 in0.0 mm 0.00 in0.0 mm 0.00 in0.0 mm
04:12 AM 74.7°F23.7°C 67.4°F19.7°C 78% 3.1 mph SE5.0 kmh SE 13.6 mph21.9 kmh 29.51 in999.3 mb 0.00 in0.0 mm 0.00 in0.0 mm 0.00 in0.0 mm
04:13 AM 74.7°F23.7°C 67.4°F19.7°C 78% 5.4 mph SE8.7 kmh SE 11.4 mph18.3 kmh 29.51 in999.3 mb 0.00 in0.0 mm 0.00 in0.0 mm 0.00 in0.0 mm
04:14 AM 74.7°F23.7°C 67.4°F19.7°C 78% 3.8 mph SE6.1 kmh SE 11.4 mph18.3 kmh 29.51 in999.3 mb 0.00 in0.0 mm 0.00 in0.0 mm 0.00 in0.0 mm
04:15 AM 74.8°F23.8°C 67.6°F19.8°C 78% 5.4 mph SE8.7 kmh SE 11.4 mph18.3 kmh 29.51 in999.3 mb 0.00 in0.0 mm 0.00 in0.0 mm 0.00 in0.0 mm
04:16 AM 74.8°F23.8°C 67.6°F19.8°C 78% 6.0 mph SE9.7 kmh SE 11.4 mph18.3 kmh 29.51 in999.3 mb 0.00 in0.0 mm 0.00 in0.0 mm 0.00 in0.0 mm
04:17 AM 74.8°F23.8°C 67.6°F19.8°C 78% 3.1 mph SE5.0 kmh SE 11.4 mph18.3 kmh 29.51 in999.3 mb 0.00 in0.0 mm 0.00 in0.0 mm 0.00 in0.0 mm
04:18 AM 74.8°F23.8°C 67.6°F19.8°C 78% 6.0 mph SE9.7 kmh SE 11.4 mph18.3 kmh 29.50 in999.0 mb 0.00 in0.0 mm 0.00 in0.0 mm 0.00 in0.0 mm
04:19 AM 74.8°F23.8°C 67.6°F19.8°C 78% 9.2 mph SSE14.8 kmh SSE 10.7 mph17.2 kmh 29.50 in999.0 mb 0.00 in0.0 mm 0.00 in0.0 mm 0.00 in0.0 mm
04:20 AM 74.8°F23.8°C 67.6°F19.8°C 78% 3.8 mph SE6.1 kmh SE 10.7 mph17.2 kmh 29.50 in999.0 mb 0.00 in0.0 mm 0.00 in0.0 mm 0.00 in0.0 mm
04:21 AM 74.8°F23.8°C 67.6°F19.8°C 78% 6.9 mph SE11.1 kmh SE 10.7 mph17.2 kmh 29.50 in999.0 mb 0.00 in0.0 mm 0.00 in0.0 mm 0.00 in0.0 mm
04:22 AM 74.8°F23.8°C 67.6°F19.8°C 78% 5.4 mph SE8.7 kmh SE 10.7 mph17.2 kmh 29.50 in999.0 mb 0.00 in0.0 mm 0.00 in0.0 mm 0.00 in0.0 mm
04:23 AM 74.8°F23.8°C 67.6°F19.8°C 78% 3.1 mph SE5.0 kmh SE 10.7 mph17.2 kmh 29.51 in999.3 mb 0.00 in0.0 mm 0.00 in0.0 mm 0.00 in0.0 mm
04:24 AM 74.8°F23.8°C 67.6°F19.8°C 78% 4.5 mph SE7.2 kmh SE 10.7 mph17.2 kmh 29.52 in999.7 mb 0.00 in0.0 mm 0.00 in0.0 mm 0.00 in0.0 mm
04:25 AM 74.8°F23.8°C 67.6°F19.8°C 78% 3.8 mph SE6.1 kmh SE 10.7 mph17.2 kmh 29.51 in999.3 mb 0.00 in0.0 mm 0.00 in0.0 mm 0.00 in0.0 mm
04:26 AM 74.8°F23.8°C 67.6°F19.8°C 78% 6.0 mph SE9.7 kmh SE 10.7 mph17.2 kmh 29.53 in1000.0 mb 0.00 in0.0 mm 0.00 in0.0 mm 0.00 in0.0 mm
04:27 AM 74.8°F23.8°C 67.6°F19.8°C 78% 2.2 mph SE3.5 kmh SE 10.7 mph17.2 kmh 29.53 in1000.0 mb 0.00 in0.0 mm 0.00 in0.0 mm 0.00 in0.0 mm
04:28 AM 74.8°F23.8°C 67.6°F19.8°C 78% 6.0 mph SE9.7 kmh SE 10.7 mph17.2 kmh 29.53 in1000.0 mb 0.00 in0.0 mm 0.00 in0.0 mm 0.00 in0.0 mm
04:29 AM 74.8°F23.8°C 67.6°F19.8°C 78% 4.5 mph SE7.2 kmh SE 10.7 mph17.2 kmh 29.54 in1000.3 mb 0.00 in0.0 mm 0.00 in0.0 mm 0.00 in0.0 mm
04:30 AM 75.0°F23.9°C 67.7°F19.8°C 78% 6.9 mph SSE11.1 kmh SSE 12.1 mph19.5 kmh 29.54 in1000.3 mb 0.00 in0.0 mm 0.00 in0.0 mm 0.00 in0.0 mm
04:31 AM 75.2°F24.0°C 67.5°F19.7°C 77% 6.0 mph S9.7 kmh S 12.1 mph19.5 kmh 29.55 in1000.7 mb 0.00 in0.0 mm 0.00 in0.0 mm 0.00 in0.0 mm
04:32 AM 75.2°F24.0°C 67.5°F19.7°C 77% 5.4 mph SSE8.7 kmh SSE 15.9 mph25.6 kmh 29.56 in1001.0 mb 0.00 in0.0 mm 0.00 in0.0 mm 0.00 in0.0 mm
04:33 AM 75.2°F24.0°C 67.5°F19.7°C 77% 13.0 mph S20.9 kmh S 20.6 mph33.2 kmh 29.56 in1001.0 mb 0.00 in0.0 mm 0.00 in0.0 mm 0.00 in0.0 mm
04:34 AM 75.2°F24.0°C 67.5°F19.7°C 77% 6.0 mph S9.7 kmh S 20.6 mph33.2 kmh 29.56 in1001.0 mb 0.00 in0.0 mm 0.00 in0.0 mm 0.00 in0.0 mm
04:35 AM 75.4°F24.1°C 67.3°F19.6°C 76% 9.8 mph S15.8 kmh S 20.6 mph33.2 kmh 29.57 in1001.4 mb 0.00 in0.0 mm 0.00 in0.0 mm 0.00 in0.0 mm
04:36 AM 75.4°F24.1°C 67.3°F19.6°C 76% 7.6 mph S12.2 kmh S 20.6 mph33.2 kmh 29.57 in1001.4 mb 0.00 in0.0 mm 0.00 in0.0 mm 0.00 in0.0 mm
04:37 AM 75.4°F24.1°C 67.3°F19.6°C 76% 8.3 mph S13.4 kmh S 20.6 mph33.2 kmh 29.57 in1001.4 mb 0.00 in0.0 mm 0.00 in0.0 mm 0.00 in0.0 mm
04:38 AM 75.4°F24.1°C 67.3°F19.6°C 76% 6.9 mph S11.1 kmh S 20.6 mph33.2 kmh 29.58 in1001.7 mb 0.00 in0.0 mm 0.00 in0.0 mm 0.00 in0.0 mm
04:39 AM 75.2°F24.0°C 67.2°F19.6°C 76% 9.2 mph S14.8 kmh S 20.6 mph33.2 kmh 29.58 in1001.7 mb 0.00 in0.0 mm 0.00 in0.0 mm 0.00 in0.0 mm
04:40 AM 75.2°F24.0°C 67.2°F19.6°C 76% 9.8 mph S15.8 kmh S 20.6 mph33.2 kmh 29.58 in1001.7 mb 0.00 in0.0 mm 0.00 in0.0 mm 0.00 in0.0 mm
04:41 AM 75.2°F24.0°C 67.2°F19.6°C 76% 8.3 mph S13.4 kmh S 20.6 mph33.2 kmh 29.59 in1002.0 mb 0.00 in0.0 mm 0.00 in0.0 mm 0.00 in0.0 mm
04:42 AM 75.2°F24.0°C 67.2°F19.6°C 76% 11.4 mph S18.3 kmh S 20.6 mph33.2 kmh 29.60 in1002.4 mb 0.00 in0.0 mm 0.00 in0.0 mm 0.00 in0.0 mm
04:43 AM 75.2°F24.0°C 67.2°F19.6°C 76% 10.7 mph SSW17.2 kmh SSW 17.4 mph28.0 kmh 29.61 in1002.7 mb 0.00 in0.0 mm 0.00 in0.0 mm 0.00 in0.0 mm
04:44 AM 75.2°F24.0°C 67.5°F19.7°C 77% 9.2 mph SSW14.8 kmh SSW 17.4 mph28.0 kmh 29.61 in1002.7 mb 0.01 in0.3 mm 0.60 in15.2 mm 0.01 in0.3 mm
04:45 AM 75.0°F23.9°C 67.7°F19.8°C 78% 9.8 mph S15.8 kmh S 19.0 mph30.6 kmh 29.62 in1003.0 mb 0.03 in0.8 mm 1.20 in30.5 mm 0.03 in0.8 mm
04:46 AM 74.3°F23.5°C 67.4°F19.7°C 79% 12.1 mph S19.5 kmh S 28.2 mph45.4 kmh 29.61 in1002.7 mb 0.13 in3.3 mm 6.00 in152.4 mm 0.13 in3.3 mm
04:47 AM 73.8°F23.2°C 67.2°F19.6°C 80% 17.4 mph S28.0 kmh S 28.2 mph45.4 kmh 29.61 in1002.7 mb 0.17 in4.3 mm 2.40 in61.0 mm 0.17 in4.3 mm
04:48 AM 73.0°F22.8°C 66.9°F19.4°C 81% 18.3 mph SSW29.5 kmh SSW 37.4 mph60.2 kmh 29.62 in1003.0 mb 0.23 in5.8 mm 3.60 in91.4 mm 0.23 in5.8 mm
04:49 AM 72.3°F22.4°C 66.2°F19.0°C 81% 26.6 mph SSW42.8 kmh SSW 37.4 mph60.2 kmh 29.62 in1003.0 mb 0.29 in7.4 mm 3.60 in91.4 mm 0.29 in7.4 mm
04:50 AM 71.1°F21.7°C 65.7°F18.7°C 83% 15.2 mph SSW24.5 kmh SSW 37.4 mph60.2 kmh 29.63 in1003.4 mb 0.39 in9.9 mm 6.00 in152.4 mm 0.39 in9.9 mm
05:14 AM 70.7°F21.5°C 68.3°F20.2°C 92% 4.5 mph S7.2 kmh S 12.1 mph19.5 kmh 29.60 in1002.4 mb 1.20 in30.5 mm 1.35 in34.3 mm 1.20 in30.5 mm
05:15 AM 70.7°F21.5°C 68.6°F20.3°C 93% 6.0 mph SSE9.7 kmh SSE 12.1 mph19.5 kmh 29.60 in1002.4 mb 1.21 in30.7 mm 0.60 in15.2 mm 1.21 in30.7 mm
05:16 AM 70.7°F21.5°C 68.6°F20.3°C 93% 5.4 mph SSE8.7 kmh SSE 9.8 mph15.8 kmh 29.60 in1002.4 mb 1.21 in30.7 mm 0.00 in0.0 mm 1.21 in30.7 mm
05:17 AM 70.7°F21.5°C 68.6°F20.3°C 93% 3.8 mph SSE6.1 kmh SSE 10.7 mph17.2 kmh 29.61 in1002.7 mb 1.21 in30.7 mm 0.00 in0.0 mm 1.21 in30.7 mm
05:18 AM 70.7°F21.5°C 68.6°F20.3°C 93% 4.5 mph SSE7.2 kmh SSE 10.7 mph17.2 kmh 29.61 in1002.7 mb 1.21 in30.7 mm 0.00 in0.0 mm 1.21 in30.7 mm
05:19 AM 70.7°F21.5°C 68.6°F20.3°C 93% 3.8 mph SSE6.1 kmh SSE 10.7 mph17.2 kmh 29.60 in1002.4 mb 1.21 in30.7 mm 0.00 in0.0 mm 1.21 in30.7 mm
05:20 AM 70.7°F21.5°C 68.6°F20.3°C 93% 4.5 mph SSE7.2 kmh SSE 10.7 mph17.2 kmh 29.61 in1002.7 mb 1.21 in30.7 mm 0.00 in0.0 mm 1.21 in30.7 mm
05:21 AM 70.7°F21.5°C 68.6°F20.3°C 93% 2.2 mph SSE3.5 kmh SSE 10.7 mph17.2 kmh 29.61 in1002.7 mb 1.21 in30.7 mm 0.00 in0.0 mm 1.21 in30.7 mm
05:22 AM 70.7°F21.5°C 68.6°F20.3°C 93% 3.1 mph SSE5.0 kmh SSE 10.7 mph17.2 kmh 29.62 in1003.0 mb 1.21 in30.7 mm 0.00 in0.0 mm 1.21 in30.7 mm
05:23 AM 70.7°F21.5°C 68.6°F20.3°C 93% 4.5 mph SSE7.2 kmh SSE 10.7 mph17.2 kmh 29.61 in1002.7 mb 1.21 in30.7 mm 0.00 in0.0 mm 1.21 in30.7 mm
05:24 AM 70.7°F21.5°C 68.6°F20.3°C 93% 3.8 mph SE6.1 kmh SE 10.7 mph17.2 kmh 29.61 in1002.7 mb 1.21 in30.7 mm 0.00 in0.0 mm 1.21 in30.7 mm
05:25 AM 70.7°F21.5°C 68.6°F20.3°C 93% 3.8 mph SE6.1 kmh SE 10.7 mph17.2 kmh 29.60 in1002.4 mb 1.21 in30.7 mm 0.00 in0.0 mm 1.21 in30.7 mm
05:26 AM 70.7°F21.5°C 68.6°F20.3°C 93% 3.8 mph SE6.1 kmh SE 10.7 mph17.2 kmh 29.60 in1002.4 mb 1.21 in30.7 mm 0.00 in0.0 mm 1.21 in30.7 mm
05:27 AM 70.7°F21.5°C 68.6°F20.3°C 93% 2.2 mph SE3.5 kmh SE 10.7 mph17.2 kmh 29.60 in1002.4 mb 1.21 in30.7 mm 0.00 in0.0 mm 1.21 in30.7 mm
05:28 AM 70.7°F21.5°C 68.6°F20.3°C 93% 3.1 mph SE5.0 kmh SE 10.7 mph17.2 kmh 29.60 in1002.4 mb 1.21 in30.7 mm 0.00 in0.0 mm 1.21 in30.7 mm
05:29 AM 70.7°F21.5°C 68.6°F20.3°C 93% 3.8 mph SE6.1 kmh SE 10.7 mph17.2 kmh 29.60 in1002.4 mb 1.21 in30.7 mm 0.00 in0.0 mm 1.21 in30.7 mm
05:30 AM 70.7°F21.5°C 68.6°F20.3°C 93% 3.8 mph ESE6.1 kmh ESE 10.7 mph17.2 kmh 29.60 in1002.4 mb 1.21 in30.7 mm 0.00 in0.0 mm 1.21 in30.7 mm
05:31 AM 70.7°F21.5°C 68.6°F20.3°C 93% 4.5 mph ESE7.2 kmh ESE 6.9 mph11.1 kmh 29.59 in1002.0 mb 1.21 in30.7 mm 0.00 in0.0 mm 1.21 in30.7 mm
05:32 AM 70.7°F21.5°C 68.6°F20.3°C 93% 4.5 mph ESE7.2 kmh ESE 7.6 mph12.2 kmh 29.59 in1002.0 mb 1.21 in30.7 mm 0.00 in0.0 mm 1.21 in30.7 mm
05:33 AM 70.7°F21.5°C 68.6°F20.3°C 93% 4.5 mph ESE7.2 kmh ESE 7.6 mph12.2 kmh 29.60 in1002.4 mb 1.21 in30.7 mm 0.00 in0.0 mm 1.21 in30.7 mm
05:34 AM 70.7°F21.5°C 68.6°F20.3°C 93% 3.1 mph SE5.0 kmh SE 9.8 mph15.8 kmh 29.59 in1002.0 mb 1.21 in30.7 mm 0.00 in0.0 mm 1.21 in30.7 mm
05:35 AM 70.7°F21.5°C 68.9°F20.5°C 94% 1.6 mph SE2.6 kmh SE 9.8 mph15.8 kmh 29.59 in1002.0 mb 1.21 in30.7 mm 0.00 in0.0 mm 1.21 in30.7 mm
05:36 AM 70.7°F21.5°C 68.9°F20.5°C 94% 3.8 mph SE6.1 kmh SE 9.8 mph15.8 kmh 29.59 in1002.0 mb 1.21 in30.7 mm 0.00 in0.0 mm 1.21 in30.7 mm
05:37 AM 70.7°F21.5°C 68.9°F20.5°C 94% 3.8 mph ESE6.1 kmh ESE 9.8 mph15.8 kmh 29.59 in1002.0 mb 1.21 in30.7 mm 0.00 in0.0 mm 1.21 in30.7 mm
05:38 AM 70.7°F21.5°C 68.9°F20.5°C 94% 3.8 mph ESE6.1 kmh ESE 9.8 mph15.8 kmh 29.59 in1002.0 mb 1.21 in30.7 mm 0.00 in0.0 mm 1.21 in30.7 mm
05:39 AM 70.7°F21.5°C 68.9°F20.5°C 94% 6.0 mph ESE9.7 kmh ESE 9.8 mph15.8 kmh 29.59 in1002.0 mb 1.21 in30.7 mm 0.00 in0.0 mm 1.21 in30.7 mm
05:40 AM 70.7°F21.5°C 68.9°F20.5°C 94% 7.6 mph ESE12.2 kmh ESE 12.1 mph19.5 kmh 29.59 in1002.0 mb 1.21 in30.7 mm 0.00 in0.0 mm 1.21 in30.7 mm
05:41 AM 70.7°F21.5°C 68.9°F20.5°C 94% 6.9 mph E11.1 kmh E 12.1 mph19.5 kmh 29.59 in1002.0 mb 1.21 in30.7 mm 0.00 in0.0 mm 1.21 in30.7 mm
05:42 AM 70.7°F21.5°C 68.9°F20.5°C 94% 5.4 mph E8.7 kmh E 12.1 mph19.5 kmh 29.59 in1002.0 mb 1.21 in30.7 mm 0.00 in0.0 mm 1.21 in30.7 mm
05:43 AM 70.7°F21.5°C 68.9°F20.5°C 94% 6.9 mph E11.1 kmh E 12.1 mph19.5 kmh 29.60 in1002.4 mb 1.20 in30.5 mm 0.00 in0.0 mm 1.21 in30.7 mm
05:44 AM 70.7°F21.5°C 68.9°F20.5°C 94% 5.4 mph E8.7 kmh E 12.1 mph19.5 kmh 29.59 in1002.0 mb 1.18 in30.0 mm 0.00 in0.0 mm 1.21 in30.7 mm
05:45 AM 70.7°F21.5°C 68.9°F20.5°C 94% 4.5 mph E7.2 kmh E 12.1 mph19.5 kmh 29.59 in1002.0 mb 1.08 in27.4 mm 0.00 in0.0 mm 1.21 in30.7 mm
05:46 AM 70.7°F21.5°C 68.9°F20.5°C 94% 5.4 mph E8.7 kmh E 12.1 mph19.5 kmh 29.59 in1002.0 mb 1.04 in26.4 mm 0.00 in0.0 mm 1.21 in30.7 mm
05:47 AM 70.7°F21.5°C 68.9°F20.5°C 94% 3.1 mph E5.0 kmh E 12.1 mph19.5 kmh 29.60 in1002.4 mb 0.98 in24.9 mm 0.00 in0.0 mm 1.21 in30.7 mm
05:48 AM 70.7°F21.5°C 68.9°F20.5°C 94% 3.8 mph E6.1 kmh E 12.1 mph19.5 kmh 29.59 in1002.0 mb 0.92 in23.4 mm 0.00 in0.0 mm 1.21 in30.7 mm
05:49 AM 70.7°F21.5°C 68.9°F20.5°C 94% 3.8 mph ESE6.1 kmh ESE 12.1 mph19.5 kmh 29.59 in1002.0 mb 0.82 in20.8 mm 0.00 in0.0 mm 1.21 in30.7 mm
05:50 AM 70.7°F21.5°C 68.9°F20.5°C 94% 3.8 mph ESE6.1 kmh ESE 12.1 mph19.5 kmh 29.59 in1002.0 mb 0.79 in20.1 mm 0.00 in0.0 mm 1.21 in30.7 mm
05:51 AM 70.7°F21.5°C 68.9°F20.5°C 94% 6.9 mph SE11.1 kmh SE 11.4 mph18.3 kmh 29.59 in1002.0 mb 0.75 in19.1 mm 0.00 in0.0 mm 1.21 in30.7 mm
05:52 AM 70.7°F21.5°C 68.9°F20.5°C 94% 5.4 mph SE8.7 kmh SE 11.4 mph18.3 kmh 29.59 in1002.0 mb 0.72 in18.3 mm 0.00 in0.0 mm 1.21 in30.7 mm
05:53 AM 70.7°F21.5°C 68.9°F20.5°C 94% 3.8 mph ESE6.1 kmh ESE 11.4 mph18.3 kmh 29.59 in1002.0 mb 0.63 in16.0 mm 0.00 in0.0 mm 1.21 in30.7 mm
05:54 AM 70.7°F21.5°C 68.9°F20.5°C 94% 4.5 mph ESE7.2 kmh ESE 10.7 mph17.2 kmh 29.59 in1002.0 mb 0.55 in14.0 mm 0.00 in0.0 mm 1.21 in30.7 mm
05:55 AM 70.7°F21.5°C 68.9°F20.5°C 94% 3.1 mph SE5.0 kmh SE 10.7 mph17.2 kmh 29.60 in1002.4 mb 0.45 in11.4 mm 0.00 in0.0 mm 1.21 in30.7 mm
05:56 AM 70.7°F21.5°C 68.9°F20.5°C 94% 1.6 mph SE2.6 kmh SE 10.7 mph17.2 kmh 29.61 in1002.7 mb 0.33 in8.4 mm 0.00 in0.0 mm 1.21 in30.7 mm
05:57 AM 70.7°F21.5°C 68.9°F20.5°C 94% 3.8 mph SE6.1 kmh SE 10.7 mph17.2 kmh 29.60 in1002.4 mb 0.19 in4.8 mm 0.00 in0.0 mm 1.21 in30.7 mm
05:58 AM 70.7°F21.5°C 68.9°F20.5°C 94% 3.8 mph ESE6.1 kmh ESE 10.7 mph17.2 kmh 29.60 in1002.4 mb 0.14 in3.6 mm 0.00 in0.0 mm 1.21 in30.7 mm
05:59 AM 70.7°F21.5°C 68.9°F20.5°C 94% 3.1 mph E5.0 kmh E 10.7 mph17.2 kmh 29.60 in1002.4 mb 0.13 in3.3 mm 0.00 in0.0 mm 1.22 in31.0 mm
06:00 AM 70.7°F21.5°C 68.9°F20.5°C 94% 2.2 mph E3.5 kmh E 10.7 mph17.2 kmh 29.60 in1002.4 mb 0.12 in3.0 mm 0.00 in0.0 mm 1.22 in31.0 mm
06:01 AM 70.7°F21.5°C 68.9°F20.5°C 94% 3.8 mph E6.1 kmh E 10.7 mph17.2 kmh 29.59 in1002.0 mb 0.09 in2.3 mm 0.00 in0.0 mm 1.22 in31.0 mm
06:02 AM 70.7°F21.5°C 68.9°F20.5°C 94% 4.5 mph E7.2 kmh E 10.7 mph17.2 kmh 29.60 in1002.4 mb 0.07 in1.8 mm 0.00 in0.0 mm 1.22 in31.0 mm
06:03 AM 70.7°F21.5°C 68.9°F20.5°C 94% 6.0 mph E9.7 kmh E 9.8 mph15.8 kmh 29.59 in1002.0 mb 0.07 in1.8 mm 0.00 in0.0 mm 1.22 in31.0 mm
06:04 AM 70.7°F21.5°C 68.9°F20.5°C 94% 5.4 mph E8.7 kmh E 9.8 mph15.8 kmh 29.58 in1001.7 mb 0.06 in1.5 mm 0.00 in0.0 mm 1.22 in31.0 mm
06:05 AM 70.7°F21.5°C 68.9°F20.5°C 94% 3.8 mph E6.1 kmh E 9.8 mph15.8 kmh 29.59 in1002.0 mb 0.06 in1.5 mm 0.00 in0.0 mm 1.22 in31.0 mm
06:06 AM 70.7°F21.5°C 68.9°F20.5°C 94% 4.5 mph ESE7.2 kmh ESE 9.8 mph15.8 kmh 29.58 in1001.7 mb 0.04 in1.0 mm 0.00 in0.0 mm 1.22 in31.0 mm
06:07 AM 70.7°F21.5°C 68.9°F20.5°C 94% 4.5 mph ESE7.2 kmh ESE 9.8 mph15.8 kmh 29.59 in1002.0 mb 0.04 in1.0 mm 0.00 in0.0 mm 1.22 in31.0 mm
06:08 AM 70.7°F21.5°C 68.9°F20.5°C 94% 3.1 mph ESE5.0 kmh ESE 9.8 mph15.8 kmh 29.58 in1001.7 mb 0.04 in1.0 mm 0.00 in0.0 mm 1.22 in31.0 mm
06:09 AM 70.7°F21.5°C 68.9°F20.5°C 94% 3.8 mph ESE6.1 kmh ESE 9.8 mph15.8 kmh 29.58 in1001.7 mb 0.03 in0.8 mm 0.00 in0.0 mm 1.22 in31.0 mm
06:10 AM 70.7°F21.5°C 68.9°F20.5°C 94% 3.1 mph ESE5.0 kmh ESE 9.8 mph15.8 kmh 29.59 in1002.0 mb 0.03 in0.8 mm 0.00 in0.0 mm 1.22 in31.0 mm
06:11 AM 70.7°F21.5°C 68.9°F20.5°C 94% 3.8 mph ESE6.1 kmh ESE 9.8 mph15.8 kmh 29.58 in1001.7 mb 0.03 in0.8 mm 0.00 in0.0 mm 1.22 in31.0 mm
06:12 AM 70.7°F21.5°C 68.9°F20.5°C 94% 6.9 mph ESE11.1 kmh ESE 9.8 mph15.8 kmh 29.58 in1001.7 mb 0.03 in0.8 mm 0.00 in0.0 mm 1.22 in31.0 mm
06:13 AM 70.7°F21.5°C 68.9°F20.5°C 94% 6.9 mph ESE11.1 kmh ESE 9.8 mph15.8 kmh 29.58 in1001.7 mb 0.03 in0.8 mm 0.00 in0.0 mm 1.22 in31.0 mm
06:15 AM 70.7°F21.5°C 69.2°F20.7°C 95% 3.8 mph ESE6.1 kmh ESE 8.3 mph13.4 kmh 29.59 in1002.0 mb 0.01 in0.3 mm 0.00 in0.0 mm 1.22 in31.0 mm
06:16 AM 70.7°F21.5°C 69.2°F20.7°C 95% 3.1 mph E5.0 kmh E 8.3 mph13.4 kmh 29.59 in1002.0 mb 0.01 in0.3 mm 0.00 in0.0 mm 1.22 in31.0 mm
06:17 AM 70.7°F21.5°C 69.2°F20.7°C 95% 6.0 mph ESE9.7 kmh ESE 8.3 mph13.4 kmh 29.59 in1002.0 mb 0.01 in0.3 mm 0.00 in0.0 mm 1.22 in31.0 mm
06:18 AM 70.5°F21.4°C 69.1°F20.6°C 95% 3.1 mph E5.0 kmh E 8.3 mph13.4 kmh 29.58 in1001.7 mb 0.01 in0.3 mm 0.00 in0.0 mm 1.22 in31.0 mm
06:19 AM 70.5°F21.4°C 69.1°F20.6°C 95% 3.1 mph E5.0 kmh E 8.3 mph13.4 kmh 29.58 in1001.7 mb 0.01 in0.3 mm 0.00 in0.0 mm 1.22 in31.0 mm
06:20 AM 70.5°F21.4°C 69.1°F20.6°C 95% 2.2 mph E3.5 kmh E 8.3 mph13.4 kmh 29.59 in1002.0 mb 0.01 in0.3 mm 0.00 in0.0 mm 1.22 in31.0 mm
06:21 AM 70.5°F21.4°C 69.1°F20.6°C 95% 3.1 mph E5.0 kmh E 8.3 mph13.4 kmh 29.59 in1002.0 mb 0.01 in0.3 mm 0.00 in0.0 mm 1.22 in31.0 mm
06:22 AM 70.5°F21.4°C 69.1°F20.6°C 95% 3.8 mph E6.1 kmh E 8.3 mph13.4 kmh 29.58 in1001.7 mb 0.01 in0.3 mm 0.00 in0.0 mm 1.22 in31.0 mm
06:23 AM 70.5°F21.4°C 69.1°F20.6°C 95% 3.8 mph E6.1 kmh E 8.3 mph13.4 kmh 29.59 in1002.0 mb 0.01 in0.3 mm 0.00 in0.0 mm 1.22 in31.0 mm
06:24 AM 70.5°F21.4°C 69.1°F20.6°C 95% 5.4 mph E8.7 kmh E 9.2 mph14.8 kmh 29.59 in1002.0 mb 0.01 in0.3 mm 0.00 in0.0 mm 1.22 in31.0 mm
06:25 AM 70.5°F21.4°C 69.1°F20.6°C 95% 6.0 mph E9.7 kmh E 9.2 mph14.8 kmh 29.59 in1002.0 mb 0.01 in0.3 mm 0.00 in0.0 mm 1.22 in31.0 mm
06:26 AM 70.5°F21.4°C 69.1°F20.6°C 95% 5.4 mph ESE8.7 kmh ESE 9.2 mph14.8 kmh 29.59 in1002.0 mb 0.01 in0.3 mm 0.00 in0.0 mm 1.22 in31.0 mm
06:27 AM 70.5°F21.4°C 69.1°F20.6°C 95% 5.4 mph ESE8.7 kmh ESE 9.2 mph14.8 kmh 29.59 in1002.0 mb 0.01 in0.3 mm 0.00 in0.0 mm 1.22 in31.0 mm
06:28 AM 70.5°F21.4°C 69.1°F20.6°C 95% 5.4 mph ESE8.7 kmh ESE 9.2 mph14.8 kmh 29.59 in1002.0 mb 0.01 in0.3 mm 0.00 in0.0 mm 1.22 in31.0 mm
06:29 AM 70.5°F21.4°C 69.1°F20.6°C 95% 2.2 mph ESE3.5 kmh ESE 9.2 mph14.8 kmh 29.59 in1002.0 mb 0.01 in0.3 mm 0.00 in0.0 mm 1.22 in31.0 mm
06:30 AM 70.5°F21.4°C 69.1°F20.6°C 95% 2.2 mph SE3.5 kmh SE 9.2 mph14.8 kmh 29.59 in1002.0 mb 0.01 in0.3 mm 0.00 in0.0 mm 1.22 in31.0 mm
06:31 AM 70.5°F21.4°C 69.1°F20.6°C 95% 4.5 mph SE7.2 kmh SE 9.2 mph14.8 kmh 29.60 in1002.4 mb 0.01 in0.3 mm 0.00 in0.0 mm 1.22 in31.0 mm
06:32 AM 70.5°F21.4°C 69.1°F20.6°C 95% 3.8 mph SE6.1 kmh SE 9.2 mph14.8 kmh 29.60 in1002.4 mb 0.01 in0.3 mm 0.00 in0.0 mm 1.22 in31.0 mm
06:33 AM 70.5°F21.4°C 69.1°F20.6°C 95% 1.6 mph SE2.6 kmh SE 9.2 mph14.8 kmh 29.61 in1002.7 mb 0.01 in0.3 mm 0.00 in0.0 mm 1.22 in31.0 mm
06:34 AM 70.5°F21.4°C 69.1°F20.6°C 95% 1.6 mph SE2.6 kmh SE 9.2 mph14.8 kmh 29.61 in1002.7 mb 0.03 in0.8 mm 1.20 in30.5 mm 1.24 in31.5 mm
06:35 AM 70.5°F21.4°C 69.1°F20.6°C 95% 3.8 mph SE6.1 kmh SE 9.2 mph14.8 kmh 29.61 in1002.7 mb 0.03 in0.8 mm 0.00 in0.0 mm 1.24 in31.5 mm
06:36 AM 70.5°F21.4°C 69.1°F20.6°C 95% 3.8 mph SE6.1 kmh SE 8.3 mph13.4 kmh 29.62 in1003.0 mb 0.03 in0.8 mm 0.00 in0.0 mm 1.24 in31.5 mm
06:37 AM 70.5°F21.4°C 69.1°F20.6°C 95% 2.2 mph SE3.5 kmh SE 8.3 mph13.4 kmh 29.62 in1003.0 mb 0.03 in0.8 mm 0.00 in0.0 mm 1.24 in31.5 mm
06:38 AM 70.5°F21.4°C 69.1°F20.6°C 95% 1.6 mph SE2.6 kmh SE 8.3 mph13.4 kmh 29.62 in1003.0 mb 0.03 in0.8 mm 0.00 in0.0 mm 1.24 in31.5 mm
06:39 AM 70.5°F21.4°C 69.1°F20.6°C 95% 2.2 mph SE3.5 kmh SE 6.9 mph11.1 kmh 29.62 in1003.0 mb 0.03 in0.8 mm 0.00 in0.0 mm 1.24 in31.5 mm
06:40 AM 70.5°F21.4°C 69.1°F20.6°C 95% 1.6 mph SE2.6 kmh SE 6.9 mph11.1 kmh 29.62 in1003.0 mb 0.04 in1.0 mm 0.60 in15.2 mm 1.25 in31.8 mm
06:41 AM 70.5°F21.4°C 69.1°F20.6°C 95% 2.2 mph SE3.5 kmh SE 6.9 mph11.1 kmh 29.61 in1002.7 mb 0.04 in1.0 mm 0.00 in0.0 mm 1.25 in31.8 mm
06:42 AM 70.5°F21.4°C 69.1°F20.6°C 95% 3.8 mph SE6.1 kmh SE 7.6 mph12.2 kmh 29.62 in1003.0 mb 0.06 in1.5 mm 1.20 in30.5 mm 1.27 in32.3 mm
06:43 AM 70.5°F21.4°C 69.1°F20.6°C 95% 3.1 mph SE5.0 kmh SE 7.6 mph12.2 kmh 29.62 in1003.0 mb 0.10 in2.5 mm 2.40 in61.0 mm 1.31 in33.3 mm
06:44 AM 70.5°F21.4°C 69.1°F20.6°C 95% 2.2 mph SE3.5 kmh SE 7.6 mph12.2 kmh 29.62 in1003.0 mb 0.10 in2.5 mm 0.00 in0.0 mm 1.31 in33.3 mm
06:45 AM 70.5°F21.4°C 69.1°F20.6°C 95% 2.2 mph SE3.5 kmh SE 7.6 mph12.2 kmh 29.62 in1003.0 mb 0.12 in3.0 mm 1.20 in30.5 mm 1.32 in33.5 mm
06:46 AM 70.5°F21.4°C 69.1°F20.6°C 95% 1.6 mph ESE2.6 kmh ESE 7.6 mph12.2 kmh 29.63 in1003.4 mb 0.13 in3.3 mm 0.60 in15.2 mm 1.34 in34.0 mm
06:48 AM 70.5°F21.4°C 69.1°F20.6°C 95% 3.1 mph SE5.0 kmh SE 7.6 mph12.2 kmh 29.62 in1003.0 mb 0.14 in3.6 mm 0.30 in7.6 mm 1.35 in34.3 mm
06:49 AM 70.5°F21.4°C 69.1°F20.6°C 95% 4.5 mph SE7.2 kmh SE 7.6 mph12.2 kmh 29.62 in1003.0 mb 0.14 in3.6 mm 0.00 in0.0 mm 1.35 in34.3 mm
06:50 AM 70.5°F21.4°C 69.1°F20.6°C 95% 4.5 mph SE7.2 kmh SE 7.6 mph12.2 kmh 29.62 in1003.0 mb 0.16 in4.1 mm 1.20 in30.5 mm 1.37 in34.8 mm
06:51 AM 70.5°F21.4°C 69.1°F20.6°C 95% 4.5 mph SE7.2 kmh SE 7.6 mph12.2 kmh 29.62 in1003.0 mb 0.16 in4.1 mm 0.00 in0.0 mm 1.37 in34.8 mm
06:52 AM 70.5°F21.4°C 69.1°F20.6°C 95% 5.4 mph SE8.7 kmh SE 7.6 mph12.2 kmh 29.62 in1003.0 mb 0.16 in4.1 mm 0.00 in0.0 mm 1.37 in34.8 mm
06:53 AM 70.7°F21.5°C 69.2°F20.7°C 95% 5.4 mph SSE8.7 kmh SSE 9.8 mph15.8 kmh 29.63 in1003.4 mb 0.16 in4.1 mm 0.00 in0.0 mm 1.37 in34.8 mm
06:54 AM 70.7°F21.5°C 69.2°F20.7°C 95% 5.4 mph SSE8.7 kmh SSE 9.8 mph15.8 kmh 29.62 in1003.0 mb 0.16 in4.1 mm 0.00 in0.0 mm 1.37 in34.8 mm
06:55 AM 70.7°F21.5°C 69.2°F20.7°C 95% 3.8 mph SSE6.1 kmh SSE 9.8 mph15.8 kmh 29.62 in1003.0 mb 0.17 in4.3 mm 0.60 in15.2 mm 1.38 in35.1 mm
06:56 AM 70.7°F21.5°C 69.2°F20.7°C 95% 4.5 mph SSE7.2 kmh SSE 9.8 mph15.8 kmh 29.63 in1003.4 mb 0.17 in4.3 mm 0.00 in0.0 mm 1.38 in35.1 mm
06:57 AM 70.7°F21.5°C 69.2°F20.7°C 95% 4.5 mph SSE7.2 kmh SSE 9.8 mph15.8 kmh 29.62 in1003.0 mb 0.17 in4.3 mm 0.00 in0.0 mm 1.38 in35.1 mm
06:58 AM 70.7°F21.5°C 69.2°F20.7°C 95% 6.0 mph SSE9.7 kmh SSE 9.8 mph15.8 kmh 29.63 in1003.4 mb 0.16 in4.1 mm 0.00 in0.0 mm 1.38 in35.1 mm
06:59 AM 70.7°F21.5°C 69.2°F20.7°C 95% 3.8 mph SSE6.1 kmh SSE 9.8 mph15.8 kmh 29.63 in1003.4 mb 0.16 in4.1 mm 0.00 in0.0 mm 1.38 in35.1 mm
07:00 AM 70.7°F21.5°C 69.2°F20.7°C 95% 4.5 mph SSE7.2 kmh SSE 9.8 mph15.8 kmh 29.63 in1003.4 mb 0.16 in4.1 mm 0.00 in0.0 mm 1.38 in35.1 mm
07:01 AM 70.7°F21.5°C 69.2°F20.7°C 95% 5.4 mph SSE8.7 kmh SSE 9.8 mph15.8 kmh 29.63 in1003.4 mb 0.16 in4.1 mm 0.00 in0.0 mm 1.38 in35.1 mm
07:03 AM 70.7°F21.5°C 69.2°F20.7°C 95% 2.2 mph SSE3.5 kmh SSE 9.8 mph15.8 kmh 29.63 in1003.4 mb 0.16 in4.1 mm 0.00 in0.0 mm 1.38 in35.1 mm
07:04 AM 70.7°F21.5°C 69.2°F20.7°C 95% 6.9 mph SE11.1 kmh SE 11.4 mph18.3 kmh 29.63 in1003.4 mb 0.16 in4.1 mm 0.00 in0.0 mm 1.38 in35.1 mm
07:05 AM 70.7°F21.5°C 69.2°F20.7°C 95% 6.9 mph SE11.1 kmh SE 13.0 mph20.9 kmh 29.62 in1003.0 mb 0.17 in4.3 mm 0.60 in15.2 mm 1.40 in35.6 mm
07:06 AM 70.7°F21.5°C 69.2°F20.7°C 95% 5.4 mph SE8.7 kmh SE 13.0 mph20.9 kmh 29.62 in1003.0 mb 0.17 in4.3 mm 0.00 in0.0 mm 1.40 in35.6 mm
07:07 AM 70.7°F21.5°C 69.2°F20.7°C 95% 6.0 mph SE9.7 kmh SE 13.0 mph20.9 kmh 29.62 in1003.0 mb 0.17 in4.3 mm 0.00 in0.0 mm 1.40 in35.6 mm
07:08 AM 70.7°F21.5°C 69.2°F20.7°C 95% 3.1 mph SE5.0 kmh SE 13.0 mph20.9 kmh 29.62 in1003.0 mb 0.17 in4.3 mm 0.00 in0.0 mm 1.40 in35.6 mm
07:09 AM 70.7°F21.5°C 69.2°F20.7°C 95% 7.6 mph SE12.2 kmh SE 13.0 mph20.9 kmh 29.61 in1002.7 mb 0.17 in4.3 mm 0.00 in0.0 mm 1.40 in35.6 mm
07:10 AM 70.7°F21.5°C 69.2°F20.7°C 95% 6.0 mph SE9.7 kmh SE 13.0 mph20.9 kmh 29.62 in1003.0 mb 0.17 in4.3 mm 0.00 in0.0 mm 1.40 in35.6 mm
07:11 AM 70.7°F21.5°C 69.2°F20.7°C 95% 6.0 mph SE9.7 kmh SE 13.0 mph20.9 kmh 29.62 in1003.0 mb 0.17 in4.3 mm 0.00 in0.0 mm 1.40 in35.6 mm
07:12 AM 70.7°F21.5°C 69.2°F20.7°C 95% 5.4 mph SE8.7 kmh SE 13.0 mph20.9 kmh 29.62 in1003.0 mb 0.17 in4.3 mm 0.00 in0.0 mm 1.40 in35.6 mm
07:13 AM 70.7°F21.5°C 69.2°F20.7°C 95% 6.0 mph SE9.7 kmh SE 13.0 mph20.9 kmh 29.61 in1002.7 mb 0.17 in4.3 mm 0.00 in0.0 mm 1.40 in35.6 mm
07:14 AM 70.7°F21.5°C 69.2°F20.7°C 95% 10.7 mph SE17.2 kmh SE 14.5 mph23.3 kmh 29.62 in1003.0 mb 0.17 in4.3 mm 0.00 in0.0 mm 1.40 in35.6 mm
07:15 AM 70.7°F21.5°C 69.2°F20.7°C 95% 10.7 mph SE17.2 kmh SE 18.3 mph29.5 kmh 29.62 in1003.0 mb 0.17 in4.3 mm 0.00 in0.0 mm 1.40 in35.6 mm
07:16 AM 70.7°F21.5°C 69.2°F20.7°C 95% 10.7 mph SE17.2 kmh SE 18.3 mph29.5 kmh 29.62 in1003.0 mb 0.17 in4.3 mm 0.00 in0.0 mm 1.40 in35.6 mm
07:18 AM 70.7°F21.5°C 69.2°F20.7°C 95% 6.0 mph SE9.7 kmh SE 18.3 mph29.5 kmh 29.62 in1003.0 mb 0.17 in4.3 mm 0.00 in0.0 mm 1.40 in35.6 mm
07:19 AM 70.7°F21.5°C 69.2°F20.7°C 95% 8.3 mph SE13.4 kmh SE 22.1 mph35.6 kmh 29.61 in1002.7 mb 0.17 in4.3 mm 0.00 in0.0 mm 1.40 in35.6 mm
07:20 AM 70.7°F21.5°C 69.2°F20.7°C 95% 6.0 mph SE9.7 kmh SE 22.1 mph35.6 kmh 29.61 in1002.7 mb 0.17 in4.3 mm 0.00 in0.0 mm 1.40 in35.6 mm
07:21 AM 70.7°F21.5°C 69.2°F20.7°C 95% 4.5 mph SE7.2 kmh SE 22.1 mph35.6 kmh 29.60 in1002.4 mb 0.17 in4.3 mm 0.00 in0.0 mm 1.40 in35.6 mm
07:22 AM 70.7°F21.5°C 69.2°F20.7°C 95% 6.9 mph ESE11.1 kmh ESE 22.1 mph35.6 kmh 29.60 in1002.4 mb 0.17 in4.3 mm 0.00 in0.0 mm 1.40 in35.6 mm
07:23 AM 70.7°F21.5°C 69.2°F20.7°C 95% 6.9 mph ESE11.1 kmh ESE 22.1 mph35.6 kmh 29.61 in1002.7 mb 0.17 in4.3 mm 0.00 in0.0 mm 1.40 in35.6 mm
07:24 AM 70.7°F21.5°C 69.2°F20.7°C 95% 6.0 mph SE9.7 kmh SE 22.1 mph35.6 kmh 29.61 in1002.7 mb 0.17 in4.3 mm 0.00 in0.0 mm 1.40 in35.6 mm
07:25 AM 70.7°F21.5°C 69.2°F20.7°C 95% 6.0 mph SE9.7 kmh SE 22.1 mph35.6 kmh 29.61 in1002.7 mb 0.17 in4.3 mm 0.00 in0.0 mm 1.40 in35.6 mm
07:26 AM 70.7°F21.5°C 69.2°F20.7°C 95% 6.0 mph SE9.7 kmh SE 22.1 mph35.6 kmh 29.61 in1002.7 mb 0.17 in4.3 mm 0.00 in0.0 mm 1.40 in35.6 mm
07:27 AM 70.7°F21.5°C 69.2°F20.7°C 95% 6.9 mph SE11.1 kmh SE 22.1 mph35.6 kmh 29.61 in1002.7 mb 0.19 in4.8 mm 1.20 in30.5 mm 1.41 in35.8 mm
07:28 AM 70.7°F21.5°C 69.2°F20.7°C 95% 3.8 mph SE6.1 kmh SE 22.1 mph35.6 kmh 29.61 in1002.7 mb 0.19 in4.8 mm 0.00 in0.0 mm 1.41 in35.8 mm
07:29 AM 70.7°F21.5°C 69.2°F20.7°C 95% 6.0 mph SE9.7 kmh SE 14.5 mph23.3 kmh 29.61 in1002.7 mb 0.19 in4.8 mm 0.00 in0.0 mm 1.41 in35.8 mm
07:38 AM 70.7°F21.5°C 69.2°F20.7°C 95% 3.1 mph E5.0 kmh E 9.8 mph15.8 kmh 29.63 in1003.4 mb 0.22 in5.6 mm 0.20 in5.1 mm 1.45 in36.8 mm
08:08 AM 70.3°F21.3°C 68.8°F20.4°C 95% 8.3 mph S13.4 kmh S 15.2 mph24.5 kmh 29.61 in1002.7 mb 0.76 in19.3 mm 1.08 in27.4 mm 2.16 in54.9 mm
08:38 AM 70.7°F21.5°C 69.5°F20.8°C 96% 9.8 mph SE15.8 kmh SE 15.2 mph24.5 kmh 29.62 in1003.0 mb 0.48 in12.2 mm 0.00 in0.0 mm 2.63 in66.8 mm
09:08 AM 71.1°F21.7°C 69.9°F21.1°C 96% 8.3 mph NE13.4 kmh NE 13.0 mph20.9 kmh 29.61 in1002.7 mb 0.16 in4.1 mm 0.00 in0.0 mm 2.79 in70.9 mm
09:38 AM 71.4°F21.9°C 70.2°F21.2°C 96% 6.9 mph N11.1 kmh N 13.0 mph20.9 kmh 29.59 in1002.0 mb 0.04 in1.0 mm 0.00 in0.0 mm 2.84 in72.1 mm
09:45 AM 71.4°F21.9°C 70.3°F21.3°C 96% 9.8 mph N15.8 kmh N 13.6 mph21.9 kmh 29.57 in1001.4 mb 0.06 in1.5 mm 0.17 in4.3 mm 2.85 in72.4 mm
09:46 AM 71.4°F21.9°C 70.3°F21.3°C 96% 9.8 mph NNE15.8 kmh NNE 14.5 mph23.3 kmh 29.58 in1001.7 mb 0.06 in1.5 mm 0.00 in0.0 mm 2.85 in72.4 mm
09:47 AM 71.4°F21.9°C 70.3°F21.3°C 96% 9.2 mph N14.8 kmh N 14.5 mph23.3 kmh 29.57 in1001.4 mb 0.07 in1.8 mm 0.60 in15.2 mm 2.87 in72.9 mm
09:48 AM 71.4°F21.9°C 70.3°F21.3°C 96% 8.3 mph N13.4 kmh N 14.5 mph23.3 kmh 29.57 in1001.4 mb 0.07 in1.8 mm 0.00 in0.0 mm 2.87 in72.9 mm
09:49 AM 71.4°F21.9°C 70.3°F21.3°C 96% 6.0 mph N9.7 kmh N 14.5 mph23.3 kmh 29.57 in1001.4 mb 0.09 in2.3 mm 1.20 in30.5 mm 2.88 in73.2 mm
09:50 AM 71.4°F21.9°C 70.3°F21.3°C 96% 7.6 mph N12.2 kmh N 14.5 mph23.3 kmh 29.57 in1001.4 mb 0.09 in2.3 mm 0.00 in0.0 mm 2.88 in73.2 mm
09:51 AM 71.4°F21.9°C 70.3°F21.3°C 96% 6.9 mph NE11.1 kmh NE 14.5 mph23.3 kmh 29.58 in1001.7 mb 0.10 in2.5 mm 0.60 in15.2 mm 2.89 in73.4 mm
09:52 AM 71.4°F21.9°C 70.3°F21.3°C 96% 6.9 mph NE11.1 kmh NE 14.5 mph23.3 kmh 29.57 in1001.4 mb 0.10 in2.5 mm 0.00 in0.0 mm 2.89 in73.4 mm
09:53 AM 71.4°F21.9°C 70.3°F21.3°C 96% 6.9 mph NE11.1 kmh NE 14.5 mph23.3 kmh 29.58 in1001.7 mb 0.10 in2.5 mm 0.00 in0.0 mm 2.89 in73.4 mm
09:54 AM 71.4°F21.9°C 70.3°F21.3°C 96% 8.3 mph NE13.4 kmh NE 14.5 mph23.3 kmh 29.58 in1001.7 mb 0.10 in2.5 mm 0.00 in0.0 mm 2.89 in73.4 mm
09:55 AM 71.4°F21.9°C 70.3°F21.3°C 96% 6.9 mph E11.1 kmh E 14.5 mph23.3 kmh 29.58 in1001.7 mb 0.13 in3.3 mm 1.80 in45.7 mm 2.92 in74.2 mm
09:56 AM 71.4°F21.9°C 70.3°F21.3°C 96% 6.0 mph E9.7 kmh E 14.5 mph23.3 kmh 29.57 in1001.4 mb 0.13 in3.3 mm 0.00 in0.0 mm 2.92 in74.2 mm
09:57 AM 71.4°F21.9°C 70.3°F21.3°C 96% 5.4 mph E8.7 kmh E 14.5 mph23.3 kmh 29.57 in1001.4 mb 0.14 in3.6 mm 0.60 in15.2 mm 2.94 in74.7 mm
09:58 AM 71.4°F21.9°C 70.3°F21.3°C 96% 3.8 mph E6.1 kmh E 13.6 mph21.9 kmh 29.58 in1001.7 mb 0.14 in3.6 mm 0.00 in0.0 mm 2.94 in74.7 mm
09:59 AM 71.4°F21.9°C 70.3°F21.3°C 96% 3.1 mph E5.0 kmh E 13.6 mph21.9 kmh 29.57 in1001.4 mb 0.14 in3.6 mm 0.00 in0.0 mm 2.94 in74.7 mm
10:02 AM 71.4°F21.9°C 70.3°F21.3°C 96% 6.0 mph E9.7 kmh E 13.7 mph22.0 kmh 29.57 in1001.4 mb 0.16 in4.1 mm 0.02 in0.5 mm 2.95 in74.9 mm
10:03 AM 71.4°F21.9°C 70.3°F21.3°C 96% 3.8 mph E6.1 kmh E 13.7 mph22.0 kmh 29.56 in1001.0 mb 0.16 in4.1 mm 0.00 in0.0 mm 2.95 in74.9 mm
10:04 AM 71.4°F21.9°C 70.3°F21.3°C 96% 4.5 mph E7.2 kmh E 13.7 mph22.0 kmh 29.56 in1001.0 mb 0.16 in4.1 mm 0.00 in0.0 mm 2.95 in74.9 mm
02:37 PM 74.3°F23.5°C 71.5°F21.9°C 91% 6.0 mph NE9.7 kmh NE 15.9 mph25.6 kmh 29.50 in999.0 mb 0.00 in0.0 mm 0.00 in0.0 mm 3.20 in81.3 mm
02:38 PM 74.3°F23.5°C 71.5°F21.9°C 91% 9.2 mph NE14.8 kmh NE 15.9 mph25.6 kmh 29.50 in999.0 mb 0.00 in0.0 mm 0.00 in0.0 mm 3.20 in81.3 mm
02:39 PM 74.3°F23.5°C 71.2°F21.8°C 90% 9.8 mph NE15.8 kmh NE 15.9 mph25.6 kmh 29.51 in999.3 mb 0.00 in0.0 mm 0.00 in0.0 mm 3.20 in81.3 mm
02:40 PM 74.3°F23.5°C 71.2°F21.8°C 90% 8.3 mph NE13.4 kmh NE 15.9 mph25.6 kmh 29.50 in999.0 mb 0.00 in0.0 mm 0.00 in0.0 mm 3.20 in81.3 mm
02:41 PM 74.3°F23.5°C 71.2°F21.8°C 90% 13.6 mph NE21.9 kmh NE 17.4 mph28.0 kmh 29.50 in999.0 mb 0.00 in0.0 mm 0.00 in0.0 mm 3.20 in81.3 mm
02:42 PM 74.5°F23.6°C 71.4°F21.9°C 90% 8.3 mph NE13.4 kmh NE 17.4 mph28.0 kmh 29.50 in999.0 mb 0.00 in0.0 mm 0.00 in0.0 mm 3.20 in81.3 mm
02:43 PM 74.5°F23.6°C 71.4°F21.9°C 90% 9.8 mph NE15.8 kmh NE 17.4 mph28.0 kmh 29.50 in999.0 mb 0.00 in0.0 mm 0.00 in0.0 mm 3.20 in81.3 mm
02:44 PM 74.5°F23.6°C 71.4°F21.9°C 90% 10.7 mph NE17.2 kmh NE 17.4 mph28.0 kmh 29.50 in999.0 mb 0.00 in0.0 mm 0.00 in0.0 mm 3.20 in81.3 mm
02:45 PM 74.5°F23.6°C 71.4°F21.9°C 90% 11.4 mph NE18.3 kmh NE 17.4 mph28.0 kmh 29.50 in999.0 mb 0.00 in0.0 mm 0.00 in0.0 mm 3.20 in81.3 mm
02:46 PM 74.5°F23.6°C 71.4°F21.9°C 90% 8.3 mph NE13.4 kmh NE 17.4 mph28.0 kmh 29.52 in999.7 mb 0.00 in0.0 mm 0.00 in0.0 mm 3.20 in81.3 mm
02:47 PM 74.5°F23.6°C 71.4°F21.9°C 90% 6.9 mph NE11.1 kmh NE 17.4 mph28.0 kmh 29.53 in1000.0 mb 0.00 in0.0 mm 0.00 in0.0 mm 3.20 in81.3 mm
02:50 PM 74.5°F23.6°C 71.4°F21.9°C 90% 11.4 mph NNE18.3 kmh NNE 17.4 mph28.0 kmh 29.59 in1002.0 mb 0.00 in0.0 mm 0.00 in0.0 mm 3.20 in81.3 mm
02:51 PM 74.5°F23.6°C 71.4°F21.9°C 90% 14.5 mph N23.3 kmh N 25.1 mph40.4 kmh 29.59 in1002.0 mb 0.00 in0.0 mm 0.00 in0.0 mm 3.20 in81.3 mm
02:52 PM 74.7°F23.7°C 71.6°F22.0°C 90% 13.6 mph N21.9 kmh N 25.1 mph40.4 kmh 29.59 in1002.0 mb 0.00 in0.0 mm 0.00 in0.0 mm 3.20 in81.3 mm
02:53 PM 74.7°F23.7°C 71.2°F21.8°C 89% 9.8 mph NW15.8 kmh NW 25.1 mph40.4 kmh 29.59 in1002.0 mb 0.00 in0.0 mm 0.00 in0.0 mm 3.20 in81.3 mm
03:05 PM 72.7°F22.6°C 69.2°F20.7°C 89% 8.3 mph S13.4 kmh S 12.1 mph19.5 kmh 29.60 in1002.4 mb 0.30 in7.6 mm 0.38 in9.7 mm 3.50 in88.9 mm
03:06 PM 72.7°F22.6°C 69.3°F20.7°C 89% 7.6 mph S12.2 kmh S 12.1 mph19.5 kmh 29.60 in1002.4 mb 0.32 in8.1 mm 1.20 in30.5 mm 3.51 in89.2 mm
03:07 PM 72.5°F22.5°C 69.1°F20.6°C 89% 6.0 mph S9.7 kmh S 12.1 mph19.5 kmh 29.59 in1002.0 mb 0.33 in8.4 mm 0.60 in15.2 mm 3.53 in89.7 mm
03:08 PM 72.5°F22.5°C 69.4°F20.8°C 90% 6.9 mph S11.1 kmh S 12.1 mph19.5 kmh 29.59 in1002.0 mb 0.33 in8.4 mm 0.00 in0.0 mm 3.53 in89.7 mm
03:09 PM 72.5°F22.5°C 69.4°F20.8°C 90% 6.9 mph S11.1 kmh S 12.1 mph19.5 kmh 29.60 in1002.4 mb 0.35 in8.9 mm 1.20 in30.5 mm 3.54 in89.9 mm
03:10 PM 72.3°F22.4°C 69.3°F20.7°C 90% 4.5 mph S7.2 kmh S 12.1 mph19.5 kmh 29.59 in1002.0 mb 0.35 in8.9 mm 0.00 in0.0 mm 3.54 in89.9 mm
03:11 PM 72.3°F22.4°C 69.6°F20.9°C 91% 8.3 mph S13.4 kmh S 12.1 mph19.5 kmh 29.59 in1002.0 mb 0.35 in8.9 mm 0.00 in0.0 mm 3.54 in89.9 mm
03:12 PM 72.3°F22.4°C 69.6°F20.9°C 91% 8.3 mph S13.4 kmh S 12.1 mph19.5 kmh 29.59 in1002.0 mb 0.35 in8.9 mm 0.00 in0.0 mm 3.54 in89.9 mm
03:13 PM 72.3°F22.4°C 69.6°F20.9°C 91% 7.6 mph S12.2 kmh S 12.1 mph19.5 kmh 29.59 in1002.0 mb 0.35 in8.9 mm 0.00 in0.0 mm 3.54 in89.9 mm
03:14 PM 72.1°F22.3°C 69.4°F20.8°C 91% 6.0 mph S9.7 kmh S 12.1 mph19.5 kmh 29.59 in1002.0 mb 0.35 in8.9 mm 0.00 in0.0 mm 3.54 in89.9 mm
03:15 PM 72.1°F22.3°C 69.4°F20.8°C 91% 3.8 mph S6.1 kmh S 12.1 mph19.5 kmh 29.59 in1002.0 mb 0.35 in8.9 mm 0.00 in0.0 mm 3.54 in89.9 mm
03:16 PM 72.1°F22.3°C 69.4°F20.8°C 91% 5.4 mph S8.7 kmh S 12.1 mph19.5 kmh 29.59 in1002.0 mb 0.35 in8.9 mm 0.00 in0.0 mm 3.54 in89.9 mm
03:17 PM 72.1°F22.3°C 69.4°F20.8°C 91% 5.4 mph S8.7 kmh S 12.1 mph19.5 kmh 29.59 in1002.0 mb 0.35 in8.9 mm 0.00 in0.0 mm 3.54 in89.9 mm
03:18 PM 72.1°F22.3°C 69.4°F20.8°C 91% 4.5 mph S7.2 kmh S 12.1 mph19.5 kmh 29.59 in1002.0 mb 0.35 in8.9 mm 0.00 in0.0 mm 3.54 in89.9 mm
03:19 PM 72.3°F22.4°C 69.6°F20.9°C 91% 3.1 mph SSE5.0 kmh SSE 12.1 mph19.5 kmh 29.59 in1002.0 mb 0.35 in8.9 mm 0.00 in0.0 mm 3.54 in89.9 mm
03:20 PM 72.3°F22.4°C 69.6°F20.9°C 91% 3.1 mph SSE5.0 kmh SSE 12.1 mph19.5 kmh 29.59 in1002.0 mb 0.35 in8.9 mm 0.00 in0.0 mm 3.54 in89.9 mm
03:21 PM 72.3°F22.4°C 69.6°F20.9°C 91% 3.8 mph SSE6.1 kmh SSE 12.1 mph19.5 kmh 29.59 in1002.0 mb 0.35 in8.9 mm 0.00 in0.0 mm 3.54 in89.9 mm
03:22 PM 72.3°F22.4°C 69.9°F21.1°C 92% 5.4 mph SSE8.7 kmh SSE 11.4 mph18.3 kmh 29.59 in1002.0 mb 0.35 in8.9 mm 0.00 in0.0 mm 3.54 in89.9 mm
03:23 PM 72.3°F22.4°C 69.9°F21.1°C 92% 3.1 mph SE5.0 kmh SE 9.8 mph15.8 kmh 29.59 in1002.0 mb 0.35 in8.9 mm 0.00 in0.0 mm 3.54 in89.9 mm
03:24 PM 72.3°F22.4°C 69.9°F21.1°C 92% 2.2 mph SE3.5 kmh SE 8.3 mph13.4 kmh 29.59 in1002.0 mb 0.35 in8.9 mm 0.00 in0.0 mm 3.54 in89.9 mm
03:25 PM 72.3°F22.4°C 69.9°F21.1°C 92% 0.7 mph SE1.1 kmh SE 8.3 mph13.4 kmh 29.59 in1002.0 mb 0.35 in8.9 mm 0.00 in0.0 mm 3.54 in89.9 mm
03:26 PM 72.3°F22.4°C 69.9°F21.1°C 92% 3.8 mph SE6.1 kmh SE 8.3 mph13.4 kmh 29.59 in1002.0 mb 0.35 in8.9 mm 0.00 in0.0 mm 3.54 in89.9 mm
03:27 PM 72.5°F22.5°C 70.1°F21.2°C 92% 2.2 mph ESE3.5 kmh ESE 7.6 mph12.2 kmh 29.59 in1002.0 mb 0.35 in8.9 mm 0.00 in0.0 mm 3.54 in89.9 mm
03:28 PM 72.5°F22.5°C 70.1°F21.2°C 92% 2.2 mph E3.5 kmh E 7.6 mph12.2 kmh 29.59 in1002.0 mb 0.35 in8.9 mm 0.00 in0.0 mm 3.54 in89.9 mm
03:29 PM 72.5°F22.5°C 70.1°F21.2°C 92% 3.1 mph E5.0 kmh E 7.6 mph12.2 kmh 29.60 in1002.4 mb 0.35 in8.9 mm 0.00 in0.0 mm 3.54 in89.9 mm
03:30 PM 72.5°F22.5°C 70.1°F21.2°C 92% 3.1 mph E5.0 kmh E 7.6 mph12.2 kmh 29.59 in1002.0 mb 0.35 in8.9 mm 0.00 in0.0 mm 3.54 in89.9 mm
03:31 PM 72.5°F22.5°C 70.1°F21.2°C 92% 3.8 mph E6.1 kmh E 10.7 mph17.2 kmh 29.59 in1002.0 mb 0.35 in8.9 mm 0.00 in0.0 mm 3.54 in89.9 mm
03:32 PM 72.5°F22.5°C 70.1°F21.2°C 92% 5.4 mph E8.7 kmh E 10.7 mph17.2 kmh 29.59 in1002.0 mb 0.35 in8.9 mm 0.00 in0.0 mm 3.54 in89.9 mm
03:33 PM 72.3°F22.4°C 69.9°F21.1°C 92% 6.9 mph E11.1 kmh E 15.2 mph24.5 kmh 29.59 in1002.0 mb 0.35 in8.9 mm 0.00 in0.0 mm 3.54 in89.9 mm
03:34 PM 72.3°F22.4°C 69.9°F21.1°C 92% 7.6 mph E12.2 kmh E 15.2 mph24.5 kmh 29.59 in1002.0 mb 0.35 in8.9 mm 0.00 in0.0 mm 3.54 in89.9 mm
03:35 PM 72.1°F22.3°C 69.7°F20.9°C 92% 6.0 mph ESE9.7 kmh ESE 15.2 mph24.5 kmh 29.59 in1002.0 mb 0.35 in8.9 mm 0.00 in0.0 mm 3.54 in89.9 mm
03:36 PM 72.1°F22.3°C 69.7°F20.9°C 92% 6.0 mph ESE9.7 kmh ESE 15.2 mph24.5 kmh 29.59 in1002.0 mb 0.35 in8.9 mm 0.00 in0.0 mm 3.54 in89.9 mm
03:37 PM 72.0°F22.2°C 69.5°F20.8°C 92% 3.1 mph ESE5.0 kmh ESE 15.2 mph24.5 kmh 29.59 in1002.0 mb 0.35 in8.9 mm 0.00 in0.0 mm 3.54 in89.9 mm
03:38 PM 72.0°F22.2°C 69.5°F20.8°C 92% 2.2 mph ESE3.5 kmh ESE 15.2 mph24.5 kmh 29.59 in1002.0 mb 0.35 in8.9 mm 0.00 in0.0 mm 3.54 in89.9 mm
03:39 PM 72.0°F22.2°C 69.5°F20.8°C 92% 6.9 mph ESE11.1 kmh ESE 15.2 mph24.5 kmh 29.58 in1001.7 mb 0.35 in8.9 mm 0.00 in0.0 mm 3.54 in89.9 mm
03:40 PM 72.1°F22.3°C 69.7°F20.9°C 92% 6.0 mph ESE9.7 kmh ESE 15.2 mph24.5 kmh 29.59 in1002.0 mb 0.35 in8.9 mm 0.00 in0.0 mm 3.54 in89.9 mm
03:41 PM 72.1°F22.3°C 69.7°F20.9°C 92% 6.0 mph SE9.7 kmh SE 15.2 mph24.5 kmh 29.58 in1001.7 mb 0.35 in8.9 mm 0.00 in0.0 mm 3.54 in89.9 mm
03:42 PM 72.1°F22.3°C 69.7°F20.9°C 92% 6.0 mph SE9.7 kmh SE 15.2 mph24.5 kmh 29.59 in1002.0 mb 0.35 in8.9 mm 0.00 in0.0 mm 3.54 in89.9 mm
03:43 PM 72.1°F22.3°C 69.7°F20.9°C 92% 6.0 mph SE9.7 kmh SE 13.6 mph21.9 kmh 29.59 in1002.0 mb 0.35 in8.9 mm 0.00 in0.0 mm 3.54 in89.9 mm
03:44 PM 72.1°F22.3°C 69.7°F20.9°C 92% 6.0 mph SE9.7 kmh SE 13.6 mph21.9 kmh 29.59 in1002.0 mb 0.35 in8.9 mm 0.00 in0.0 mm 3.54 in89.9 mm
03:45 PM 72.1°F22.3°C 69.7°F20.9°C 92% 6.0 mph SE9.7 kmh SE 13.6 mph21.9 kmh 29.59 in1002.0 mb 0.35 in8.9 mm 0.00 in0.0 mm 3.54 in89.9 mm
03:46 PM 72.1°F22.3°C 69.7°F20.9°C 92% 6.0 mph ESE9.7 kmh ESE 13.6 mph21.9 kmh 29.59 in1002.0 mb 0.35 in8.9 mm 0.00 in0.0 mm 3.54 in89.9 mm
03:47 PM 72.3°F22.4°C 69.9°F21.1°C 92% 6.9 mph ESE11.1 kmh ESE 13.6 mph21.9 kmh 29.58 in1001.7 mb 0.35 in8.9 mm 0.00 in0.0 mm 3.54 in89.9 mm
03:48 PM 72.3°F22.4°C 69.9°F21.1°C 92% 6.9 mph ESE11.1 kmh ESE 13.6 mph21.9 kmh 29.59 in1002.0 mb 0.35 in8.9 mm 0.00 in0.0 mm 3.54 in89.9 mm
03:49 PM 72.3°F22.4°C 69.9°F21.1°C 92% 6.9 mph SE11.1 kmh SE 13.6 mph21.9 kmh 29.58 in1001.7 mb 0.35 in8.9 mm 0.00 in0.0 mm 3.54 in89.9 mm
03:50 PM 72.3°F22.4°C 69.9°F21.1°C 92% 6.9 mph SE11.1 kmh SE 11.4 mph18.3 kmh 29.58 in1001.7 mb 0.35 in8.9 mm 0.00 in0.0 mm 3.54 in89.9 mm
03:51 PM 72.3°F22.4°C 69.9°F21.1°C 92% 9.2 mph ESE14.8 kmh ESE 13.0 mph20.9 kmh 29.58 in1001.7 mb 0.35 in8.9 mm 0.00 in0.0 mm 3.54 in89.9 mm
03:52 PM 72.3°F22.4°C 69.9°F21.1°C 92% 9.2 mph ESE14.8 kmh ESE 13.0 mph20.9 kmh 29.58 in1001.7 mb 0.35 in8.9 mm 0.00 in0.0 mm 3.54 in89.9 mm
03:53 PM 72.5°F22.5°C 70.1°F21.2°C 92% 6.0 mph ESE9.7 kmh ESE 13.0 mph20.9 kmh 29.58 in1001.7 mb 0.04 in1.0 mm 0.00 in0.0 mm 3.54 in89.9 mm
03:54 PM 72.5°F22.5°C 70.1°F21.2°C 92% 6.0 mph ESE9.7 kmh ESE 13.0 mph20.9 kmh 29.59 in1002.0 mb 0.04 in1.0 mm 0.00 in0.0 mm 3.54 in89.9 mm
03:55 PM 72.5°F22.5°C 70.1°F21.2°C 92% 6.0 mph SE9.7 kmh SE 13.0 mph20.9 kmh 29.59 in1002.0 mb 0.04 in1.0 mm 0.00 in0.0 mm 3.54 in89.9 mm
03:56 PM 72.5°F22.5°C 70.1°F21.2°C 92% 6.9 mph SE11.1 kmh SE 13.0 mph20.9 kmh 29.58 in1001.7 mb 0.04 in1.0 mm 0.00 in0.0 mm 3.54 in89.9 mm
03:57 PM 72.5°F22.5°C 70.1°F21.2°C 92% 6.9 mph SE11.1 kmh SE 13.0 mph20.9 kmh 29.58 in1001.7 mb 0.04 in1.0 mm 0.00 in0.0 mm 3.54 in89.9 mm
03:58 PM 72.5°F22.5°C 70.1°F21.2°C 92% 6.9 mph ESE11.1 kmh ESE 13.0 mph20.9 kmh 29.58 in1001.7 mb 0.04 in1.0 mm 0.00 in0.0 mm 3.54 in89.9 mm
03:59 PM 72.5°F22.5°C 70.1°F21.2°C 92% 6.9 mph ESE11.1 kmh ESE 15.9 mph25.6 kmh 29.57 in1001.4 mb 0.04 in1.0 mm 0.00 in0.0 mm 3.54 in89.9 mm
04:00 PM 72.5°F22.5°C 70.1°F21.2°C 92% 6.9 mph ESE11.1 kmh ESE 15.9 mph25.6 kmh 29.58 in1001.7 mb 0.04 in1.0 mm 0.00 in0.0 mm 3.54 in89.9 mm
04:01 PM 72.5°F22.5°C 70.1°F21.2°C 92% 6.9 mph ESE11.1 kmh ESE 15.9 mph25.6 kmh 29.58 in1001.7 mb 0.04 in1.0 mm 0.00 in0.0 mm 3.54 in89.9 mm
04:02 PM 72.3°F22.4°C 69.9°F21.1°C 92% 9.8 mph ESE15.8 kmh ESE 15.9 mph25.6 kmh 29.58 in1001.7 mb 0.04 in1.0 mm 0.00 in0.0 mm 3.54 in89.9 mm
04:03 PM 72.1°F22.3°C 69.7°F20.9°C 92% 6.9 mph ESE11.1 kmh ESE 15.9 mph25.6 kmh 29.58 in1001.7 mb 0.04 in1.0 mm 0.00 in0.0 mm 3.54 in89.9 mm
04:04 PM 72.1°F22.3°C 69.7°F20.9°C 92% 6.9 mph E11.1 kmh E 15.9 mph25.6 kmh 29.58 in1001.7 mb 0.04 in1.0 mm 0.00 in0.0 mm 3.54 in89.9 mm
04:05 PM 72.0°F22.2°C 69.5°F20.8°C 92% 11.4 mph E18.3 kmh E 15.9 mph25.6 kmh 29.58 in1001.7 mb 0.04 in1.0 mm 0.00 in0.0 mm 3.54 in89.9 mm
04:06 PM 71.6°F22.0°C 68.9°F20.5°C 91% 11.4 mph E18.3 kmh E 15.9 mph25.6 kmh 29.58 in1001.7 mb 0.03 in0.8 mm 0.00 in0.0 mm 3.54 in89.9 mm
04:07 PM 71.4°F21.9°C 69.0°F20.6°C 92% 6.0 mph ESE9.7 kmh ESE 15.9 mph25.6 kmh 29.58 in1001.7 mb 0.01 in0.3 mm 0.00 in0.0 mm 3.54 in89.9 mm
04:08 PM 71.2°F21.8°C 68.8°F20.4°C 92% 6.0 mph ESE9.7 kmh ESE 15.9 mph25.6 kmh 29.57 in1001.4 mb 0.01 in0.3 mm 0.00 in0.0 mm 3.54 in89.9 mm
04:09 PM 71.2°F21.8°C 68.8°F20.4°C 92% 6.0 mph ESE9.7 kmh ESE 15.9 mph25.6 kmh 29.58 in1001.7 mb 0.00 in0.0 mm 0.00 in0.0 mm 3.54 in89.9 mm
04:10 PM 71.2°F21.8°C 68.8°F20.4°C 92% 6.0 mph ESE9.7 kmh ESE 15.9 mph25.6 kmh 29.58 in1001.7 mb 0.00 in0.0 mm 0.00 in0.0 mm 3.54 in89.9 mm
04:11 PM 71.1°F21.7°C 68.7°F20.4°C 92% 5.4 mph ESE8.7 kmh ESE 15.9 mph25.6 kmh 29.58 in1001.7 mb 0.00 in0.0 mm 0.00 in0.0 mm 3.54 in89.9 mm
04:12 PM 70.9°F21.6°C 68.5°F20.3°C 92% 6.0 mph ESE9.7 kmh ESE 15.9 mph25.6 kmh 29.58 in1001.7 mb 0.00 in0.0 mm 0.00 in0.0 mm 3.54 in89.9 mm
04:13 PM 70.9°F21.6°C 68.5°F20.3°C 92% 6.9 mph SE11.1 kmh SE 15.9 mph25.6 kmh 29.58 in1001.7 mb 0.00 in0.0 mm 0.00 in0.0 mm 3.54 in89.9 mm
04:14 PM 70.9°F21.6°C 68.5°F20.3°C 92% 9.2 mph SE14.8 kmh SE 15.9 mph25.6 kmh 29.58 in1001.7 mb 0.00 in0.0 mm 0.00 in0.0 mm 3.54 in89.9 mm
04:15 PM 70.9°F21.6°C 68.5°F20.3°C 92% 9.8 mph SE15.8 kmh SE 15.9 mph25.6 kmh 29.57 in1001.4 mb 0.00 in0.0 mm 0.00 in0.0 mm 3.54 in89.9 mm
04:16 PM 70.5°F21.4°C 68.1°F20.1°C 92% 8.3 mph ESE13.4 kmh ESE 15.2 mph24.5 kmh 29.57 in1001.4 mb 0.00 in0.0 mm 0.00 in0.0 mm 3.54 in89.9 mm
04:17 PM 70.5°F21.4°C 68.1°F20.1°C 92% 7.6 mph ESE12.2 kmh ESE 15.2 mph24.5 kmh 29.57 in1001.4 mb 0.00 in0.0 mm 0.00 in0.0 mm 3.54 in89.9 mm
04:18 PM 70.5°F21.4°C 68.1°F20.1°C 92% 10.7 mph ESE17.2 kmh ESE 16.8 mph27.0 kmh 29.57 in1001.4 mb 0.00 in0.0 mm 0.00 in0.0 mm 3.54 in89.9 mm
04:19 PM 70.5°F21.4°C 68.1°F20.1°C 92% 9.8 mph ESE15.8 kmh ESE 16.8 mph27.0 kmh 29.57 in1001.4 mb 0.00 in0.0 mm 0.00 in0.0 mm 3.54 in89.9 mm
04:20 PM 70.5°F21.4°C 67.8°F19.9°C 91% 13.0 mph ESE20.9 kmh ESE 20.6 mph33.2 kmh 29.57 in1001.4 mb 0.00 in0.0 mm 0.00 in0.0 mm 3.54 in89.9 mm
04:21 PM 70.5°F21.4°C 67.8°F19.9°C 91% 13.0 mph SE20.9 kmh SE 20.6 mph33.2 kmh 29.57 in1001.4 mb 0.00 in0.0 mm 0.00 in0.0 mm 3.54 in89.9 mm
04:22 PM 70.5°F21.4°C 67.8°F19.9°C 91% 9.8 mph SE15.8 kmh SE 20.6 mph33.2 kmh 29.58 in1001.7 mb 0.01 in0.3 mm 0.60 in15.2 mm 3.56 in90.4 mm
04:23 PM 70.5°F21.4°C 67.8°F19.9°C 91% 6.0 mph SE9.7 kmh SE 20.6 mph33.2 kmh 29.57 in1001.4 mb 0.01 in0.3 mm 0.00 in0.0 mm 3.56 in90.4 mm
04:24 PM 70.5°F21.4°C 67.8°F19.9°C 91% 6.0 mph SE9.7 kmh SE 20.6 mph33.2 kmh 29.57 in1001.4 mb 0.01 in0.3 mm 0.00 in0.0 mm 3.56 in90.4 mm
04:25 PM 70.5°F21.4°C 67.8°F19.9°C 91% 7.6 mph SE12.2 kmh SE 20.6 mph33.2 kmh 29.57 in1001.4 mb 0.01 in0.3 mm 0.00 in0.0 mm 3.56 in90.4 mm
04:26 PM 70.5°F21.4°C 67.8°F19.9°C 91% 9.8 mph SE15.8 kmh SE 20.6 mph33.2 kmh 29.57 in1001.4 mb 0.01 in0.3 mm 0.00 in0.0 mm 3.56 in90.4 mm
04:27 PM 70.5°F21.4°C 67.8°F19.9°C 91% 8.3 mph SE13.4 kmh SE 20.6 mph33.2 kmh 29.57 in1001.4 mb 0.01 in0.3 mm 0.00 in0.0 mm 3.56 in90.4 mm
04:28 PM 70.5°F21.4°C 67.8°F19.9°C 91% 7.6 mph SE12.2 kmh SE 20.6 mph33.2 kmh 29.56 in1001.0 mb 0.01 in0.3 mm 0.00 in0.0 mm 3.56 in90.4 mm
04:29 PM 70.5°F21.4°C 67.8°F19.9°C 91% 6.9 mph SE11.1 kmh SE 20.6 mph33.2 kmh 29.57 in1001.4 mb 0.01 in0.3 mm 0.00 in0.0 mm 3.56 in90.4 mm
04:30 PM 70.5°F21.4°C 67.8°F19.9°C 91% 11.4 mph SE18.3 kmh SE 20.6 mph33.2 kmh 29.56 in1001.0 mb 0.01 in0.3 mm 0.00 in0.0 mm 3.56 in90.4 mm
04:31 PM 70.5°F21.4°C 67.8°F19.9°C 91% 5.4 mph SE8.7 kmh SE 20.6 mph33.2 kmh 29.56 in1001.0 mb 0.01 in0.3 mm 0.00 in0.0 mm 3.56 in90.4 mm
04:32 PM 70.5°F21.4°C 67.8°F19.9°C 91% 9.2 mph SE14.8 kmh SE 16.8 mph27.0 kmh 29.56 in1001.0 mb 0.01 in0.3 mm 0.00 in0.0 mm 3.56 in90.4 mm
04:33 PM 70.5°F21.4°C 67.8°F19.9°C 91% 6.9 mph SE11.1 kmh SE 16.8 mph27.0 kmh 29.57 in1001.4 mb 0.01 in0.3 mm 0.00 in0.0 mm 3.56 in90.4 mm
04:34 PM 70.5°F21.4°C 67.8°F19.9°C 91% 10.7 mph ESE17.2 kmh ESE 16.8 mph27.0 kmh 29.57 in1001.4 mb 0.01 in0.3 mm 0.00 in0.0 mm 3.56 in90.4 mm
04:35 PM 70.5°F21.4°C 67.8°F19.9°C 91% 8.3 mph ESE13.4 kmh ESE 16.8 mph27.0 kmh 29.57 in1001.4 mb 0.01 in0.3 mm 0.00 in0.0 mm 3.56 in90.4 mm
04:36 PM 70.5°F21.4°C 67.8°F19.9°C 91% 7.6 mph ESE12.2 kmh ESE 16.8 mph27.0 kmh 29.57 in1001.4 mb 0.01 in0.3 mm 0.00 in0.0 mm 3.56 in90.4 mm
04:37 PM 70.5°F21.4°C 67.8°F19.9°C 91% 9.2 mph ESE14.8 kmh ESE 17.4 mph28.0 kmh 29.57 in1001.4 mb 0.01 in0.3 mm 0.00 in0.0 mm 3.56 in90.4 mm
04:38 PM 70.5°F21.4°C 67.8°F19.9°C 91% 7.6 mph ESE12.2 kmh ESE 19.0 mph30.6 kmh 29.57 in1001.4 mb 0.01 in0.3 mm 0.00 in0.0 mm 3.56 in90.4 mm
04:39 PM 70.5°F21.4°C 67.5°F19.7°C 90% 8.3 mph ESE13.4 kmh ESE 19.0 mph30.6 kmh 29.56 in1001.0 mb 0.01 in0.3 mm 0.00 in0.0 mm 3.56 in90.4 mm
04:40 PM 70.5°F21.4°C 67.5°F19.7°C 90% 11.4 mph ESE18.3 kmh ESE 19.0 mph30.6 kmh 29.57 in1001.4 mb 0.01 in0.3 mm 0.00 in0.0 mm 3.56 in90.4 mm
04:41 PM 70.5°F21.4°C 67.5°F19.7°C 90% 9.8 mph ESE15.8 kmh ESE 19.0 mph30.6 kmh 29.57 in1001.4 mb 0.01 in0.3 mm 0.00 in0.0 mm 3.56 in90.4 mm
04:42 PM 70.5°F21.4°C 67.5°F19.7°C 90% 5.4 mph ESE8.7 kmh ESE 19.0 mph30.6 kmh 29.56 in1001.0 mb 0.01 in0.3 mm 0.00 in0.0 mm 3.56 in90.4 mm
04:43 PM 70.5°F21.4°C 67.5°F19.7°C 90% 2.2 mph ESE3.5 kmh ESE 19.0 mph30.6 kmh 29.56 in1001.0 mb 0.01 in0.3 mm 0.00 in0.0 mm 3.56 in90.4 mm
04:44 PM 70.9°F21.6°C 67.8°F19.9°C 90% 6.0 mph ESE9.7 kmh ESE 19.0 mph30.6 kmh 29.56 in1001.0 mb 0.01 in0.3 mm 0.00 in0.0 mm 3.56 in90.4 mm
04:45 PM 70.9°F21.6°C 67.8°F19.9°C 90% 6.0 mph ESE9.7 kmh ESE 19.0 mph30.6 kmh 29.56 in1001.0 mb 0.01 in0.3 mm 0.00 in0.0 mm 3.56 in90.4 mm
04:46 PM 70.9°F21.6°C 67.8°F19.9°C 90% 6.9 mph ESE11.1 kmh ESE 19.0 mph30.6 kmh 29.56 in1001.0 mb 0.01 in0.3 mm 0.00 in0.0 mm 3.56 in90.4 mm
04:47 PM 70.9°F21.6°C 67.5°F19.7°C 89% 5.4 mph SE8.7 kmh SE 19.0 mph30.6 kmh 29.56 in1001.0 mb 0.01 in0.3 mm 0.00 in0.0 mm 3.56 in90.4 mm
04:48 PM 71.1°F21.7°C 67.7°F19.8°C 89% 6.0 mph SE9.7 kmh SE 17.4 mph28.0 kmh 29.56 in1001.0 mb 0.01 in0.3 mm 0.00 in0.0 mm 3.56 in90.4 mm
04:49 PM 71.2°F21.8°C 67.9°F19.9°C 89% 3.8 mph SE6.1 kmh SE 17.4 mph28.0 kmh 29.57 in1001.4 mb 0.01 in0.3 mm 0.00 in0.0 mm 3.56 in90.4 mm
04:50 PM 71.2°F21.8°C 67.9°F19.9°C 89% 8.3 mph SE13.4 kmh SE 15.2 mph24.5 kmh 29.57 in1001.4 mb 0.01 in0.3 mm 0.00 in0.0 mm 3.56 in90.4 mm
04:51 PM 71.2°F21.8°C 67.9°F19.9°C 89% 3.1 mph SE5.0 kmh SE 13.6 mph21.9 kmh 29.57 in1001.4 mb 0.01 in0.3 mm 0.00 in0.0 mm 3.56 in90.4 mm
04:52 PM 71.2°F21.8°C 67.9°F19.9°C 89% 9.8 mph SE15.8 kmh SE 13.6 mph21.9 kmh 29.57 in1001.4 mb 0.01 in0.3 mm 0.00 in0.0 mm 3.56 in90.4 mm
04:53 PM 71.2°F21.8°C 67.9°F19.9°C 89% 6.9 mph SE11.1 kmh SE 14.5 mph23.3 kmh 29.57 in1001.4 mb 0.01 in0.3 mm 0.00 in0.0 mm 3.56 in90.4 mm
04:54 PM 71.2°F21.8°C 67.9°F19.9°C 89% 4.5 mph SE7.2 kmh SE 14.5 mph23.3 kmh 29.57 in1001.4 mb 0.01 in0.3 mm 0.00 in0.0 mm 3.56 in90.4 mm
04:55 PM 71.2°F21.8°C 67.5°F19.7°C 88% 6.0 mph SE9.7 kmh SE 14.5 mph23.3 kmh 29.57 in1001.4 mb 0.01 in0.3 mm 0.00 in0.0 mm 3.56 in90.4 mm
04:56 PM 71.2°F21.8°C 67.5°F19.7°C 88% 8.3 mph SE13.4 kmh SE 14.5 mph23.3 kmh 29.57 in1001.4 mb 0.01 in0.3 mm 0.00 in0.0 mm 3.56 in90.4 mm
04:57 PM 71.2°F21.8°C 67.5°F19.7°C 88% 6.0 mph SE9.7 kmh SE 14.5 mph23.3 kmh 29.57 in1001.4 mb 0.01 in0.3 mm 0.00 in0.0 mm 3.56 in90.4 mm
04:58 PM 71.2°F21.8°C 67.5°F19.7°C 88% 9.8 mph SE15.8 kmh SE 14.5 mph23.3 kmh 29.57 in1001.4 mb 0.01 in0.3 mm 0.00 in0.0 mm 3.56 in90.4 mm
04:59 PM 71.2°F21.8°C 67.5°F19.7°C 88% 11.4 mph SE18.3 kmh SE 18.3 mph29.5 kmh 29.57 in1001.4 mb 0.01 in0.3 mm 0.00 in0.0 mm 3.56 in90.4 mm
05:00 PM 71.2°F21.8°C 67.5°F19.7°C 88% 11.4 mph SE18.3 kmh SE 19.0 mph30.6 kmh 29.57 in1001.4 mb 0.01 in0.3 mm 0.00 in0.0 mm 3.56 in90.4 mm
05:01 PM 71.2°F21.8°C 67.2°F19.6°C 87% 10.7 mph SE17.2 kmh SE 19.0 mph30.6 kmh 29.57 in1001.4 mb 0.01 in0.3 mm 0.00 in0.0 mm 3.56 in90.4 mm
05:02 PM 71.1°F21.7°C 67.0°F19.4°C 87% 10.7 mph SE17.2 kmh SE 19.0 mph30.6 kmh 29.57 in1001.4 mb 0.01 in0.3 mm 0.00 in0.0 mm 3.56 in90.4 mm
05:03 PM 71.1°F21.7°C 67.0°F19.4°C 87% 9.2 mph SE14.8 kmh SE 19.0 mph30.6 kmh 29.57 in1001.4 mb 0.01 in0.3 mm 0.00 in0.0 mm 3.56 in90.4 mm
05:04 PM 71.1°F21.7°C 66.7°F19.3°C 86% 11.4 mph SE18.3 kmh SE 19.7 mph31.7 kmh 29.57 in1001.4 mb 0.01 in0.3 mm 0.00 in0.0 mm 3.56 in90.4 mm
05:05 PM 71.1°F21.7°C 66.7°F19.3°C 86% 11.4 mph SE18.3 kmh SE 19.7 mph31.7 kmh 29.56 in1001.0 mb 0.01 in0.3 mm 0.00 in0.0 mm 3.56 in90.4 mm
05:06 PM 71.1°F21.7°C 66.7°F19.3°C 86% 10.7 mph ESE17.2 kmh ESE 19.7 mph31.7 kmh 29.56 in1001.0 mb 0.01 in0.3 mm 0.00 in0.0 mm 3.56 in90.4 mm
05:07 PM 71.2°F21.8°C 66.9°F19.4°C 86% 10.7 mph ESE17.2 kmh ESE 19.7 mph31.7 kmh 29.56 in1001.0 mb 0.01 in0.3 mm 0.00 in0.0 mm 3.56 in90.4 mm
05:08 PM 71.1°F21.7°C 66.4°F19.1°C 85% 9.2 mph ESE14.8 kmh ESE 19.7 mph31.7 kmh 29.56 in1001.0 mb 0.01 in0.3 mm 0.00 in0.0 mm 3.56 in90.4 mm
05:09 PM 71.1°F21.7°C 66.4°F19.1°C 85% 13.0 mph ESE20.9 kmh ESE 19.7 mph31.7 kmh 29.55 in1000.7 mb 0.01 in0.3 mm 0.00 in0.0 mm 3.56 in90.4 mm
05:10 PM 71.1°F21.7°C 66.4°F19.1°C 85% 10.7 mph ESE17.2 kmh ESE 22.8 mph36.7 kmh 29.56 in1001.0 mb 0.01 in0.3 mm 0.00 in0.0 mm 3.56 in90.4 mm
05:11 PM 71.1°F21.7°C 66.4°F19.1°C 85% 12.1 mph ESE19.5 kmh ESE 22.8 mph36.7 kmh 29.55 in1000.7 mb 0.01 in0.3 mm 0.00 in0.0 mm 3.56 in90.4 mm
05:12 PM 71.1°F21.7°C 66.4°F19.1°C 85% 10.7 mph ESE17.2 kmh ESE 22.8 mph36.7 kmh 29.55 in1000.7 mb 0.01 in0.3 mm 0.00 in0.0 mm 3.56 in90.4 mm
05:13 PM 71.1°F21.7°C 66.4°F19.1°C 85% 12.1 mph ESE19.5 kmh ESE 22.8 mph36.7 kmh 29.55 in1000.7 mb 0.01 in0.3 mm 0.00 in0.0 mm 3.56 in90.4 mm
05:14 PM 71.1°F21.7°C 66.4°F19.1°C 85% 7.6 mph ESE12.2 kmh ESE 22.8 mph36.7 kmh 29.55 in1000.7 mb 0.01 in0.3 mm 0.00 in0.0 mm 3.56 in90.4 mm
05:15 PM 71.1°F21.7°C 66.4°F19.1°C 85% 6.0 mph ESE9.7 kmh ESE 22.8 mph36.7 kmh 29.55 in1000.7 mb 0.01 in0.3 mm 0.00 in0.0 mm 3.56 in90.4 mm
05:16 PM 71.2°F21.8°C 66.5°F19.2°C 85% 6.9 mph ESE11.1 kmh ESE 22.8 mph36.7 kmh 29.55 in1000.7 mb 0.01 in0.3 mm 0.00 in0.0 mm 3.56 in90.4 mm
05:17 PM 71.2°F21.8°C 66.5°F19.2°C 85% 6.9 mph ESE11.1 kmh ESE 22.8 mph36.7 kmh 29.55 in1000.7 mb 0.01 in0.3 mm 0.00 in0.0 mm 3.56 in90.4 mm
05:18 PM 71.2°F21.8°C 66.2°F19.0°C 84% 7.6 mph ESE12.2 kmh ESE 22.8 mph36.7 kmh 29.55 in1000.7 mb 0.01 in0.3 mm 0.00 in0.0 mm 3.56 in90.4 mm
05:19 PM 71.4°F21.9°C 66.4°F19.1°C 84% 6.0 mph ESE9.7 kmh ESE 22.8 mph36.7 kmh 29.55 in1000.7 mb 0.01 in0.3 mm 0.00 in0.0 mm 3.56 in90.4 mm
05:20 PM 71.4°F21.9°C 66.4°F19.1°C 84% 7.6 mph ESE12.2 kmh ESE 18.3 mph29.5 kmh 29.55 in1000.7 mb 0.01 in0.3 mm 0.00 in0.0 mm 3.56 in90.4 mm
05:21 PM 71.4°F21.9°C 66.4°F19.1°C 84% 6.9 mph ESE11.1 kmh ESE 18.3 mph29.5 kmh 29.55 in1000.7 mb 0.01 in0.3 mm 0.00 in0.0 mm 3.56 in90.4 mm
05:22 PM 71.6°F22.0°C 66.2°F19.0°C 83% 6.9 mph ESE11.1 kmh ESE 18.3 mph29.5 kmh 29.55 in1000.7 mb 0.00 in0.0 mm 0.00 in0.0 mm 3.56 in90.4 mm
05:23 PM 71.6°F22.0°C 66.2°F19.0°C 83% 7.6 mph SE12.2 kmh SE 17.4 mph28.0 kmh 29.55 in1000.7 mb 0.00 in0.0 mm 0.00 in0.0 mm 3.56 in90.4 mm
05:24 PM 71.6°F22.0°C 66.2°F19.0°C 83% 7.6 mph SE12.2 kmh SE 17.4 mph28.0 kmh 29.55 in1000.7 mb 0.00 in0.0 mm 0.00 in0.0 mm 3.56 in90.4 mm
05:25 PM 71.6°F22.0°C 66.2°F19.0°C 83% 3.1 mph SE5.0 kmh SE 17.4 mph28.0 kmh 29.55 in1000.7 mb 0.00 in0.0 mm 0.00 in0.0 mm 3.56 in90.4 mm
05:26 PM 71.8°F22.1°C 66.0°F18.9°C 82% 6.0 mph SE9.7 kmh SE 17.4 mph28.0 kmh 29.55 in1000.7 mb 0.00 in0.0 mm 0.00 in0.0 mm 3.56 in90.4 mm
05:27 PM 71.8°F22.1°C 66.0°F18.9°C 82% 6.9 mph SE11.1 kmh SE 17.4 mph28.0 kmh 29.55 in1000.7 mb 0.00 in0.0 mm 0.00 in0.0 mm 3.56 in90.4 mm
05:28 PM 71.8°F22.1°C 66.0°F18.9°C 82% 7.6 mph SE12.2 kmh SE 13.6 mph21.9 kmh 29.55 in1000.7 mb 0.00 in0.0 mm 0.00 in0.0 mm 3.56 in90.4 mm
05:29 PM 72.0°F22.2°C 66.2°F19.0°C 82% 6.0 mph SE9.7 kmh SE 13.6 mph21.9 kmh 29.55 in1000.7 mb 0.00 in0.0 mm 0.00 in0.0 mm 3.56 in90.4 mm
05:30 PM 72.0°F22.2°C 66.2°F19.0°C 82% 6.0 mph SE9.7 kmh SE 13.6 mph21.9 kmh 29.55 in1000.7 mb 0.00 in0.0 mm 0.00 in0.0 mm 3.56 in90.4 mm
05:31 PM 72.0°F22.2°C 66.2°F19.0°C 82% 6.0 mph SE9.7 kmh SE 13.6 mph21.9 kmh 29.54 in1000.3 mb 0.00 in0.0 mm 0.00 in0.0 mm 3.56 in90.4 mm
05:32 PM 72.3°F22.4°C 66.2°F19.0°C 81% 6.0 mph ESE9.7 kmh ESE 13.6 mph21.9 kmh 29.54 in1000.3 mb 0.00 in0.0 mm 0.00 in0.0 mm 3.56 in90.4 mm
05:33 PM 72.3°F22.4°C 66.2°F19.0°C 81% 9.2 mph ESE14.8 kmh ESE 14.5 mph23.3 kmh 29.54 in1000.3 mb 0.00 in0.0 mm 0.00 in0.0 mm 3.56 in90.4 mm
05:34 PM 72.7°F22.6°C 66.2°F19.0°C 80% 9.2 mph E14.8 kmh E 15.9 mph25.6 kmh 29.54 in1000.3 mb 0.00 in0.0 mm 0.00 in0.0 mm 3.56 in90.4 mm
05:35 PM 72.7°F22.6°C 66.2°F19.0°C 80% 9.2 mph ESE14.8 kmh ESE 15.9 mph25.6 kmh 29.54 in1000.3 mb 0.00 in0.0 mm 0.00 in0.0 mm 3.56 in90.4 mm
05:36 PM 72.9°F22.7°C 65.6°F18.7°C 78% 9.8 mph E15.8 kmh E 19.0 mph30.6 kmh 29.54 in1000.3 mb 0.00 in0.0 mm 0.00 in0.0 mm 3.56 in90.4 mm
05:37 PM 73.0°F22.8°C 65.8°F18.8°C 78% 9.2 mph E14.8 kmh E 19.0 mph30.6 kmh 29.55 in1000.7 mb 0.00 in0.0 mm 0.00 in0.0 mm 3.56 in90.4 mm
05:38 PM 73.2°F22.9°C 65.6°F18.7°C 77% 10.7 mph E17.2 kmh E 22.1 mph35.6 kmh 29.55 in1000.7 mb 0.00 in0.0 mm 0.00 in0.0 mm 3.56 in90.4 mm
05:39 PM 73.4°F23.0°C 65.8°F18.8°C 77% 9.8 mph ESE15.8 kmh ESE 22.1 mph35.6 kmh 29.55 in1000.7 mb 0.00 in0.0 mm 0.00 in0.0 mm 3.56 in90.4 mm
05:40 PM 73.4°F23.0°C 65.8°F18.8°C 77% 13.0 mph ESE20.9 kmh ESE 22.1 mph35.6 kmh 29.55 in1000.7 mb 0.00 in0.0 mm 0.00 in0.0 mm 3.56 in90.4 mm
05:41 PM 73.4°F23.0°C 65.4°F18.6°C 76% 12.1 mph E19.5 kmh E 22.1 mph35.6 kmh 29.55 in1000.7 mb 0.00 in0.0 mm 0.00 in0.0 mm 3.56 in90.4 mm
05:42 PM 73.4°F23.0°C 65.0°F18.3°C 75% 7.6 mph E12.2 kmh E 22.1 mph35.6 kmh 29.56 in1001.0 mb 0.00 in0.0 mm 0.00 in0.0 mm 3.56 in90.4 mm
05:43 PM 73.4°F23.0°C 65.0°F18.3°C 75% 6.0 mph E9.7 kmh E 22.1 mph35.6 kmh 29.56 in1001.0 mb 0.00 in0.0 mm 0.00 in0.0 mm 3.56 in90.4 mm
05:44 PM 73.4°F23.0°C 65.0°F18.3°C 75% 7.6 mph E12.2 kmh E 22.1 mph35.6 kmh 29.57 in1001.4 mb 0.00 in0.0 mm 0.00 in0.0 mm 3.56 in90.4 mm
05:45 PM 73.2°F22.9°C 64.5°F18.1°C 74% 10.7 mph E17.2 kmh E 22.1 mph35.6 kmh 29.56 in1001.0 mb 0.00 in0.0 mm 0.00 in0.0 mm 3.56 in90.4 mm
05:46 PM 73.2°F22.9°C 64.5°F18.1°C 74% 10.7 mph E17.2 kmh E 22.1 mph35.6 kmh 29.55 in1000.7 mb 0.00 in0.0 mm 0.00 in0.0 mm 3.56 in90.4 mm
05:47 PM 73.2°F22.9°C 64.5°F18.1°C 74% 8.3 mph E13.4 kmh E 22.1 mph35.6 kmh 29.55 in1000.7 mb 0.00 in0.0 mm 0.00 in0.0 mm 3.56 in90.4 mm
05:48 PM 73.4°F23.0°C 65.0°F18.3°C 75% 7.6 mph E12.2 kmh E 22.1 mph35.6 kmh 29.55 in1000.7 mb 0.00 in0.0 mm 0.00 in0.0 mm 3.56 in90.4 mm
05:49 PM 73.4°F23.0°C 65.0°F18.3°C 75% 9.2 mph E14.8 kmh E 22.1 mph35.6 kmh 29.55 in1000.7 mb 0.00 in0.0 mm 0.00 in0.0 mm 3.56 in90.4 mm
05:50 PM 73.4°F23.0°C 65.0°F18.3°C 75% 6.9 mph E11.1 kmh E 22.1 mph35.6 kmh 29.55 in1000.7 mb 0.00 in0.0 mm 0.00 in0.0 mm 3.56 in90.4 mm
05:51 PM 73.6°F23.1°C 65.2°F18.4°C 75% 6.0 mph E9.7 kmh E 18.3 mph29.5 kmh 29.54 in1000.3 mb 0.00 in0.0 mm 0.00 in0.0 mm 3.56 in90.4 mm
05:52 PM 73.6°F23.1°C 65.2°F18.4°C 75% 7.6 mph E12.2 kmh E 18.3 mph29.5 kmh 29.54 in1000.3 mb 0.00 in0.0 mm 0.00 in0.0 mm 3.56 in90.4 mm
05:53 PM 73.6°F23.1°C 65.2°F18.4°C 75% 9.8 mph E15.8 kmh E 18.3 mph29.5 kmh 29.55 in1000.7 mb 0.00 in0.0 mm 0.00 in0.0 mm 3.56 in90.4 mm
05:54 PM 73.6°F23.1°C 65.6°F18.7°C 76% 6.9 mph E11.1 kmh E 18.3 mph29.5 kmh 29.54 in1000.3 mb 0.00 in0.0 mm 0.00 in0.0 mm 3.56 in90.4 mm
05:55 PM 73.6°F23.1°C 65.6°F18.7°C 76% 9.2 mph E14.8 kmh E 18.3 mph29.5 kmh 29.54 in1000.3 mb 0.00 in0.0 mm 0.00 in0.0 mm 3.56 in90.4 mm
05:56 PM 73.6°F23.1°C 65.6°F18.7°C 76% 8.3 mph E13.4 kmh E 15.9 mph25.6 kmh 29.53 in1000.0 mb 0.00 in0.0 mm 0.00 in0.0 mm 3.56 in90.4 mm
05:57 PM 73.4°F23.0°C 65.4°F18.6°C 76% 9.2 mph E14.8 kmh E 15.9 mph25.6 kmh 29.54 in1000.3 mb 0.00 in0.0 mm 0.00 in0.0 mm 3.56 in90.4 mm
05:58 PM 73.4°F23.0°C 65.8°F18.8°C 77% 10.7 mph E17.2 kmh E 24.4 mph39.3 kmh 29.53 in1000.0 mb 0.00 in0.0 mm 0.00 in0.0 mm 3.56 in90.4 mm
05:59 PM 73.4°F23.0°C 65.8°F18.8°C 77% 7.6 mph E12.2 kmh E 24.4 mph39.3 kmh 29.54 in1000.3 mb 0.00 in0.0 mm 0.00 in0.0 mm 3.56 in90.4 mm
06:00 PM 73.4°F23.0°C 65.8°F18.8°C 77% 7.6 mph E12.2 kmh E 24.4 mph39.3 kmh 29.53 in1000.0 mb 0.00 in0.0 mm 0.00 in0.0 mm 3.56 in90.4 mm
06:01 PM 73.4°F23.0°C 65.8°F18.8°C 77% 8.3 mph E13.4 kmh E 24.4 mph39.3 kmh 29.53 in1000.0 mb 0.00 in0.0 mm 0.00 in0.0 mm 3.56 in90.4 mm
06:02 PM 73.2°F22.9°C 65.6°F18.7°C 77% 5.4 mph E8.7 kmh E 24.4 mph39.3 kmh 29.54 in1000.3 mb 0.00 in0.0 mm 0.00 in0.0 mm 3.56 in90.4 mm
06:03 PM 73.2°F22.9°C 66.0°F18.9°C 78% 6.0 mph E9.7 kmh E 24.4 mph39.3 kmh 29.54 in1000.3 mb 0.00 in0.0 mm 0.00 in0.0 mm 3.56 in90.4 mm
06:04 PM 73.2°F22.9°C 66.0°F18.9°C 78% 8.3 mph E13.4 kmh E 24.4 mph39.3 kmh 29.53 in1000.0 mb 0.00 in0.0 mm 0.00 in0.0 mm 3.56 in90.4 mm
06:05 PM 73.2°F22.9°C 66.0°F18.9°C 78% 8.3 mph E13.4 kmh E 24.4 mph39.3 kmh 29.53 in1000.0 mb 0.00 in0.0 mm 0.00 in0.0 mm 3.56 in90.4 mm
06:06 PM 73.0°F22.8°C 65.8°F18.8°C 78% 4.5 mph E7.2 kmh E 24.4 mph39.3 kmh 29.53 in1000.0 mb 0.00 in0.0 mm 0.00 in0.0 mm 3.56 in90.4 mm
06:07 PM 73.0°F22.8°C 66.2°F19.0°C 79% 8.3 mph E13.4 kmh E 24.4 mph39.3 kmh 29.53 in1000.0 mb 0.00 in0.0 mm 0.00 in0.0 mm 3.56 in90.4 mm
06:08 PM 73.0°F22.8°C 66.2°F19.0°C 79% 6.9 mph ESE11.1 kmh ESE 14.5 mph23.3 kmh 29.54 in1000.3 mb 0.00 in0.0 mm 0.00 in0.0 mm 3.56 in90.4 mm
06:09 PM 73.0°F22.8°C 66.2°F19.0°C 79% 6.0 mph ESE9.7 kmh ESE 13.6 mph21.9 kmh 29.54 in1000.3 mb 0.00 in0.0 mm 0.00 in0.0 mm 3.56 in90.4 mm
06:10 PM 73.0°F22.8°C 66.2°F19.0°C 79% 9.2 mph ESE14.8 kmh ESE 14.5 mph23.3 kmh 29.54 in1000.3 mb 0.00 in0.0 mm 0.00 in0.0 mm 3.56 in90.4 mm
06:11 PM 72.9°F22.7°C 66.0°F18.9°C 79% 8.3 mph E13.4 kmh E 14.5 mph23.3 kmh 29.54 in1000.3 mb 0.00 in0.0 mm 0.00 in0.0 mm 3.56 in90.4 mm
06:12 PM 72.9°F22.7°C 66.0°F18.9°C 79% 7.6 mph E12.2 kmh E 14.5 mph23.3 kmh 29.54 in1000.3 mb 0.00 in0.0 mm 0.00 in0.0 mm 3.56 in90.4 mm
06:13 PM 72.9°F22.7°C 66.0°F18.9°C 79% 6.0 mph E9.7 kmh E 14.5 mph23.3 kmh 29.53 in1000.0 mb 0.00 in0.0 mm 0.00 in0.0 mm 3.56 in90.4 mm
06:14 PM 72.9°F22.7°C 66.4°F19.1°C 80% 14.5 mph E23.3 kmh E 18.3 mph29.5 kmh 29.53 in1000.0 mb 0.00 in0.0 mm 0.00 in0.0 mm 3.56 in90.4 mm
06:15 PM 72.9°F22.7°C 66.4°F19.1°C 80% 7.6 mph E12.2 kmh E 18.3 mph29.5 kmh 29.53 in1000.0 mb 0.00 in0.0 mm 0.00 in0.0 mm 3.56 in90.4 mm
06:16 PM 72.9°F22.7°C 66.4°F19.1°C 80% 4.5 mph E7.2 kmh E 18.3 mph29.5 kmh 29.53 in1000.0 mb 0.00 in0.0 mm 0.00 in0.0 mm 3.56 in90.4 mm
06:17 PM 72.9°F22.7°C 66.4°F19.1°C 80% 6.9 mph E11.1 kmh E 18.3 mph29.5 kmh 29.54 in1000.3 mb 0.00 in0.0 mm 0.00 in0.0 mm 3.56 in90.4 mm
06:18 PM 72.9°F22.7°C 66.4°F19.1°C 80% 8.3 mph E13.4 kmh E 18.3 mph29.5 kmh 29.54 in1000.3 mb 0.00 in0.0 mm 0.00 in0.0 mm 3.56 in90.4 mm
06:19 PM 72.9°F22.7°C 66.4°F19.1°C 80% 6.0 mph E9.7 kmh E 18.3 mph29.5 kmh 29.55 in1000.7 mb 0.00 in0.0 mm 0.00 in0.0 mm 3.56 in90.4 mm
06:20 PM 72.9°F22.7°C 66.7°F19.3°C 81% 7.6 mph E12.2 kmh E 18.3 mph29.5 kmh 29.54 in1000.3 mb 0.00 in0.0 mm 0.00 in0.0 mm 3.56 in90.4 mm
06:21 PM 72.9°F22.7°C 66.7°F19.3°C 81% 6.0 mph E9.7 kmh E 18.3 mph29.5 kmh 29.54 in1000.3 mb 0.00 in0.0 mm 0.00 in0.0 mm 3.56 in90.4 mm
06:22 PM 72.9°F22.7°C 66.7°F19.3°C 81% 6.9 mph E11.1 kmh E 18.3 mph29.5 kmh 29.54 in1000.3 mb 0.00 in0.0 mm 0.00 in0.0 mm 3.56 in90.4 mm
06:23 PM 72.9°F22.7°C 66.7°F19.3°C 81% 8.3 mph E13.4 kmh E 18.3 mph29.5 kmh 29.54 in1000.3 mb 0.00 in0.0 mm 0.00 in0.0 mm 3.56 in90.4 mm
06:24 PM 72.9°F22.7°C 66.7°F19.3°C 81% 6.0 mph E9.7 kmh E 18.3 mph29.5 kmh 29.53 in1000.0 mb 0.00 in0.0 mm 0.00 in0.0 mm 3.56 in90.4 mm
06:25 PM 72.9°F22.7°C 66.7°F19.3°C 81% 9.8 mph E15.8 kmh E 13.6 mph21.9 kmh 29.54 in1000.3 mb 0.00 in0.0 mm 0.00 in0.0 mm 3.56 in90.4 mm
06:26 PM 72.7°F22.6°C 66.5°F19.2°C 81% 6.0 mph E9.7 kmh E 13.6 mph21.9 kmh 29.54 in1000.3 mb 0.01 in0.3 mm 0.60 in15.2 mm 3.57 in90.7 mm
06:27 PM 72.5°F22.5°C 66.7°F19.3°C 82% 9.2 mph E14.8 kmh E 13.6 mph21.9 kmh 29.54 in1000.3 mb 0.01 in0.3 mm 0.00 in0.0 mm 3.57 in90.7 mm
06:28 PM 72.5°F22.5°C 66.7°F19.3°C 82% 7.6 mph E12.2 kmh E 17.4 mph28.0 kmh 29.54 in1000.3 mb 0.03 in0.8 mm 1.20 in30.5 mm 3.59 in91.2 mm
06:29 PM 72.3°F22.4°C 66.6°F19.2°C 82% 4.5 mph E7.2 kmh E 17.4 mph28.0 kmh 29.54 in1000.3 mb 0.03 in0.8 mm 0.00 in0.0 mm 3.59 in91.2 mm
06:30 PM 72.3°F22.4°C 66.9°F19.4°C 83% 9.2 mph E14.8 kmh E 17.4 mph28.0 kmh 29.54 in1000.3 mb 0.03 in0.8 mm 0.00 in0.0 mm 3.59 in91.2 mm
06:31 PM 72.3°F22.4°C 66.9°F19.4°C 83% 7.6 mph ENE12.2 kmh ENE 17.4 mph28.0 kmh 29.54 in1000.3 mb 0.04 in1.0 mm 0.60 in15.2 mm 3.60 in91.4 mm
06:32 PM 72.3°F22.4°C 66.9°F19.4°C 83% 6.9 mph NE11.1 kmh NE 17.4 mph28.0 kmh 29.54 in1000.3 mb 0.04 in1.0 mm 0.00 in0.0 mm 3.60 in91.4 mm
06:34 PM 72.1°F22.3°C 67.1°F19.5°C 84% 5.4 mph E8.7 kmh E 17.5 mph28.2 kmh 29.54 in1000.3 mb 0.06 in1.5 mm 0.60 in15.2 mm 3.61 in91.7 mm
06:35 PM 72.1°F22.3°C 67.1°F19.5°C 84% 6.0 mph ESE9.7 kmh ESE 17.5 mph28.2 kmh 29.55 in1000.7 mb 0.06 in1.5 mm 0.00 in0.0 mm 3.61 in91.7 mm
06:36 PM 72.1°F22.3°C 67.1°F19.5°C 84% 6.0 mph ESE9.7 kmh ESE 17.5 mph28.2 kmh 29.55 in1000.7 mb 0.06 in1.5 mm 0.00 in0.0 mm 3.61 in91.7 mm
06:37 PM 72.1°F22.3°C 67.1°F19.5°C 84% 6.0 mph SE9.7 kmh SE 17.5 mph28.2 kmh 29.54 in1000.3 mb 0.06 in1.5 mm 0.00 in0.0 mm 3.61 in91.7 mm
06:38 PM 72.0°F22.2°C 66.9°F19.4°C 84% 7.6 mph ESE12.2 kmh ESE 17.5 mph28.2 kmh 29.54 in1000.3 mb 0.06 in1.5 mm 0.00 in0.0 mm 3.61 in91.7 mm
06:39 PM 72.0°F22.2°C 67.2°F19.6°C 85% 6.0 mph ESE9.7 kmh ESE 15.9 mph25.6 kmh 29.55 in1000.7 mb 0.06 in1.5 mm 0.00 in0.0 mm 3.61 in91.7 mm
06:40 PM 72.0°F22.2°C 67.2°F19.6°C 85% 6.0 mph ESE9.7 kmh ESE 15.9 mph25.6 kmh 29.54 in1000.3 mb 0.06 in1.5 mm 0.00 in0.0 mm 3.61 in91.7 mm
06:41 PM 72.1°F22.3°C 67.4°F19.7°C 85% 6.9 mph ESE11.1 kmh ESE 15.9 mph25.6 kmh 29.54 in1000.3 mb 0.06 in1.5 mm 0.00 in0.0 mm 3.61 in91.7 mm
06:42 PM 72.1°F22.3°C 67.4°F19.7°C 85% 5.4 mph ESE8.7 kmh ESE 13.6 mph21.9 kmh 29.55 in1000.7 mb 0.07 in1.8 mm 0.60 in15.2 mm 3.63 in92.2 mm
06:43 PM 72.1°F22.3°C 67.4°F19.7°C 85% 4.5 mph ESE7.2 kmh ESE 13.6 mph21.9 kmh 29.55 in1000.7 mb 0.07 in1.8 mm 0.00 in0.0 mm 3.63 in92.2 mm
06:44 PM 72.3°F22.4°C 67.6°F19.8°C 85% 6.0 mph ESE9.7 kmh ESE 13.6 mph21.9 kmh 29.55 in1000.7 mb 0.07 in1.8 mm 0.00 in0.0 mm 3.63 in92.2 mm
06:45 PM 72.3°F22.4°C 67.6°F19.8°C 85% 3.8 mph E6.1 kmh E 13.6 mph21.9 kmh 29.55 in1000.7 mb 0.07 in1.8 mm 0.00 in0.0 mm 3.63 in92.2 mm
06:46 PM 72.3°F22.4°C 67.6°F19.8°C 85% 6.0 mph E9.7 kmh E 13.6 mph21.9 kmh 29.56 in1001.0 mb 0.07 in1.8 mm 0.00 in0.0 mm 3.63 in92.2 mm
06:47 PM 72.3°F22.4°C 67.6°F19.8°C 85% 3.8 mph E6.1 kmh E 13.6 mph21.9 kmh 29.56 in1001.0 mb 0.07 in1.8 mm 0.00 in0.0 mm 3.63 in92.2 mm
06:48 PM 72.5°F22.5°C 67.8°F19.9°C 85% 6.0 mph E9.7 kmh E 11.4 mph18.3 kmh 29.56 in1001.0 mb 0.07 in1.8 mm 0.00 in0.0 mm 3.63 in92.2 mm
06:49 PM 72.5°F22.5°C 67.8°F19.9°C 85% 6.0 mph E9.7 kmh E 11.4 mph18.3 kmh 29.56 in1001.0 mb 0.07 in1.8 mm 0.00 in0.0 mm 3.63 in92.2 mm
06:50 PM 72.5°F22.5°C 67.8°F19.9°C 85% 9.2 mph ESE14.8 kmh ESE 13.6 mph21.9 kmh 29.56 in1001.0 mb 0.07 in1.8 mm 0.00 in0.0 mm 3.63 in92.2 mm
06:51 PM 72.7°F22.6°C 67.9°F19.9°C 85% 7.6 mph ESE12.2 kmh ESE 13.6 mph21.9 kmh 29.57 in1001.4 mb 0.07 in1.8 mm 0.00 in0.0 mm 3.63 in92.2 mm
06:52 PM 72.7°F22.6°C 67.9°F19.9°C 85% 5.4 mph ESE8.7 kmh ESE 13.6 mph21.9 kmh 29.57 in1001.4 mb 0.07 in1.8 mm 0.00 in0.0 mm 3.63 in92.2 mm
06:53 PM 72.7°F22.6°C 67.9°F19.9°C 85% 3.8 mph ESE6.1 kmh ESE 13.6 mph21.9 kmh 29.57 in1001.4 mb 0.07 in1.8 mm 0.00 in0.0 mm 3.63 in92.2 mm
06:54 PM 72.7°F22.6°C 67.9°F19.9°C 85% 6.0 mph ESE9.7 kmh ESE 13.6 mph21.9 kmh 29.56 in1001.0 mb 0.07 in1.8 mm 0.00 in0.0 mm 3.63 in92.2 mm
06:55 PM 72.7°F22.6°C 67.9°F19.9°C 85% 6.9 mph ESE11.1 kmh ESE 13.6 mph21.9 kmh 29.57 in1001.4 mb 0.07 in1.8 mm 0.00 in0.0 mm 3.63 in92.2 mm
06:56 PM 72.9°F22.7°C 68.1°F20.1°C 85% 4.5 mph ESE7.2 kmh ESE 13.6 mph21.9 kmh 29.56 in1001.0 mb 0.07 in1.8 mm 0.00 in0.0 mm 3.63 in92.2 mm
06:57 PM 72.9°F22.7°C 68.1°F20.1°C 85% 5.4 mph ESE8.7 kmh ESE 13.6 mph21.9 kmh 29.56 in1001.0 mb 0.07 in1.8 mm 0.00 in0.0 mm 3.63 in92.2 mm
06:59 PM 72.7°F22.6°C 67.9°F19.9°C 85% 3.8 mph ESE6.1 kmh ESE 13.7 mph22.0 kmh 29.55 in1000.7 mb 0.07 in1.8 mm 0.00 in0.0 mm 3.63 in92.2 mm
07:01 PM 72.7°F22.6°C 67.9°F19.9°C 85% 6.9 mph ESE11.1 kmh ESE 11.4 mph18.3 kmh 29.57 in1001.4 mb 0.07 in1.8 mm 0.00 in0.0 mm 3.63 in92.2 mm
07:02 PM 72.7°F22.6°C 67.9°F19.9°C 85% 3.1 mph ESE5.0 kmh ESE 10.7 mph17.2 kmh 29.58 in1001.7 mb 0.07 in1.8 mm 0.00 in0.0 mm 3.63 in92.2 mm
07:03 PM 72.7°F22.6°C 67.9°F19.9°C 85% 4.5 mph SE7.2 kmh SE 10.7 mph17.2 kmh 29.57 in1001.4 mb 0.07 in1.8 mm 0.00 in0.0 mm 3.63 in92.2 mm
07:04 PM 72.5°F22.5°C 67.8°F19.9°C 85% 6.9 mph SE11.1 kmh SE 10.7 mph17.2 kmh 29.57 in1001.4 mb 0.07 in1.8 mm 0.00 in0.0 mm 3.63 in92.2 mm
07:05 PM 72.5°F22.5°C 67.8°F19.9°C 85% 7.6 mph SE12.2 kmh SE 11.4 mph18.3 kmh 29.57 in1001.4 mb 0.07 in1.8 mm 0.00 in0.0 mm 3.63 in92.2 mm
07:06 PM 72.5°F22.5°C 68.1°F20.1°C 86% 6.0 mph ESE9.7 kmh ESE 12.1 mph19.5 kmh 29.57 in1001.4 mb 0.07 in1.8 mm 0.00 in0.0 mm 3.63 in92.2 mm
07:07 PM 72.5°F22.5°C 68.1°F20.1°C 86% 5.4 mph SE8.7 kmh SE 12.1 mph19.5 kmh 29.57 in1001.4 mb 0.07 in1.8 mm 0.00 in0.0 mm 3.63 in92.2 mm
07:08 PM 72.5°F22.5°C 68.1°F20.1°C 86% 9.2 mph SE14.8 kmh SE 12.1 mph19.5 kmh 29.57 in1001.4 mb 0.07 in1.8 mm 0.00 in0.0 mm 3.63 in92.2 mm
07:09 PM 72.5°F22.5°C 68.1°F20.1°C 86% 3.1 mph SE5.0 kmh SE 12.1 mph19.5 kmh 29.57 in1001.4 mb 0.07 in1.8 mm 0.00 in0.0 mm 3.63 in92.2 mm
07:10 PM 72.5°F22.5°C 68.1°F20.1°C 86% 8.3 mph SE13.4 kmh SE 17.4 mph28.0 kmh 29.56 in1001.0 mb 0.07 in1.8 mm 0.00 in0.0 mm 3.63 in92.2 mm
07:11 PM 72.5°F22.5°C 68.1°F20.1°C 86% 7.6 mph SE12.2 kmh SE 17.4 mph28.0 kmh 29.57 in1001.4 mb 0.07 in1.8 mm 0.00 in0.0 mm 3.63 in92.2 mm
07:12 PM 72.5°F22.5°C 68.1°F20.1°C 86% 7.6 mph SE12.2 kmh SE 17.4 mph28.0 kmh 29.57 in1001.4 mb 0.07 in1.8 mm 0.00 in0.0 mm 3.63 in92.2 mm
07:13 PM 72.5°F22.5°C 68.1°F20.1°C 86% 8.3 mph ESE13.4 kmh ESE 17.4 mph28.0 kmh 29.57 in1001.4 mb 0.07 in1.8 mm 0.00 in0.0 mm 3.63 in92.2 mm
07:14 PM 72.5°F22.5°C 68.1°F20.1°C 86% 4.5 mph ESE7.2 kmh ESE 17.4 mph28.0 kmh 29.56 in1001.0 mb 0.07 in1.8 mm 0.00 in0.0 mm 3.63 in92.2 mm
07:15 PM 72.5°F22.5°C 68.1°F20.1°C 86% 6.0 mph ESE9.7 kmh ESE 17.4 mph28.0 kmh 29.57 in1001.4 mb 0.07 in1.8 mm 0.00 in0.0 mm 3.63 in92.2 mm
07:16 PM 72.5°F22.5°C 68.1°F20.1°C 86% 8.3 mph ESE13.4 kmh ESE 17.4 mph28.0 kmh 29.57 in1001.4 mb 0.07 in1.8 mm 0.00 in0.0 mm 3.63 in92.2 mm
07:17 PM 72.3°F22.4°C 67.9°F19.9°C 86% 4.5 mph ESE7.2 kmh ESE 17.4 mph28.0 kmh 29.57 in1001.4 mb 0.07 in1.8 mm 0.00 in0.0 mm 3.63 in92.2 mm
07:18 PM 72.3°F22.4°C 67.9°F19.9°C 86% 4.5 mph ESE7.2 kmh ESE 17.4 mph28.0 kmh 29.57 in1001.4 mb 0.07 in1.8 mm 0.00 in0.0 mm 3.63 in92.2 mm
07:19 PM 72.3°F22.4°C 67.9°F19.9°C 86% 3.8 mph ESE6.1 kmh ESE 17.4 mph28.0 kmh 29.57 in1001.4 mb 0.07 in1.8 mm 0.00 in0.0 mm 3.63 in92.2 mm
07:20 PM 72.3°F22.4°C 67.9°F19.9°C 86% 3.8 mph ESE6.1 kmh ESE 17.4 mph28.0 kmh 29.57 in1001.4 mb 0.07 in1.8 mm 0.00 in0.0 mm 3.63 in92.2 mm
07:21 PM 72.3°F22.4°C 67.9°F19.9°C 86% 3.8 mph SE6.1 kmh SE 15.2 mph24.5 kmh 29.57 in1001.4 mb 0.07 in1.8 mm 0.00 in0.0 mm 3.63 in92.2 mm
07:22 PM 72.3°F22.4°C 67.9°F19.9°C 86% 5.4 mph SE8.7 kmh SE 15.2 mph24.5 kmh 29.58 in1001.7 mb 0.07 in1.8 mm 0.00 in0.0 mm 3.63 in92.2 mm
07:23 PM 72.3°F22.4°C 67.9°F19.9°C 86% 5.4 mph ESE8.7 kmh ESE 15.2 mph24.5 kmh 29.58 in1001.7 mb 0.07 in1.8 mm 0.00 in0.0 mm 3.63 in92.2 mm
07:24 PM 72.3°F22.4°C 67.9°F19.9°C 86% 5.4 mph ESE8.7 kmh ESE 15.2 mph24.5 kmh 29.58 in1001.7 mb 0.07 in1.8 mm 0.00 in0.0 mm 3.63 in92.2 mm
07:25 PM 72.3°F22.4°C 67.9°F19.9°C 86% 8.3 mph E13.4 kmh E 15.2 mph24.5 kmh 29.58 in1001.7 mb 0.06 in1.5 mm 0.00 in0.0 mm 3.63 in92.2 mm
07:26 PM 72.5°F22.5°C 68.1°F20.1°C 86% 6.9 mph E11.1 kmh E 15.2 mph24.5 kmh 29.57 in1001.4 mb 0.06 in1.5 mm 0.00 in0.0 mm 3.63 in92.2 mm
07:27 PM 72.5°F22.5°C 68.1°F20.1°C 86% 6.9 mph E11.1 kmh E 13.6 mph21.9 kmh 29.57 in1001.4 mb 0.04 in1.0 mm 0.00 in0.0 mm 3.63 in92.2 mm
07:28 PM 72.5°F22.5°C 68.1°F20.1°C 86% 7.6 mph E12.2 kmh E 13.6 mph21.9 kmh 29.57 in1001.4 mb 0.04 in1.0 mm 0.00 in0.0 mm 3.63 in92.2 mm
07:29 PM 72.7°F22.6°C 68.3°F20.2°C 86% 6.0 mph E9.7 kmh E 13.6 mph21.9 kmh 29.56 in1001.0 mb 0.04 in1.0 mm 0.00 in0.0 mm 3.63 in92.2 mm
07:30 PM 72.7°F22.6°C 68.3°F20.2°C 86% 5.4 mph E8.7 kmh E 13.6 mph21.9 kmh 29.57 in1001.4 mb 0.03 in0.8 mm 0.00 in0.0 mm 3.63 in92.2 mm
07:31 PM 72.9°F22.7°C 68.5°F20.3°C 86% 6.0 mph E9.7 kmh E 13.6 mph21.9 kmh 29.57 in1001.4 mb 0.03 in0.8 mm 0.00 in0.0 mm 3.63 in92.2 mm
07:32 PM 72.9°F22.7°C 68.5°F20.3°C 86% 10.7 mph E17.2 kmh E 13.6 mph21.9 kmh 29.58 in1001.7 mb 0.01 in0.3 mm 0.00 in0.0 mm 3.63 in92.2 mm
07:33 PM 72.9°F22.7°C 68.1°F20.1°C 85% 6.9 mph ESE11.1 kmh ESE 13.6 mph21.9 kmh 29.57 in1001.4 mb 0.01 in0.3 mm 0.00 in0.0 mm 3.63 in92.2 mm
07:34 PM 72.9°F22.7°C 68.1°F20.1°C 85% 7.6 mph ESE12.2 kmh ESE 13.6 mph21.9 kmh 29.57 in1001.4 mb 0.01 in0.3 mm 0.00 in0.0 mm 3.63 in92.2 mm
07:35 PM 72.9°F22.7°C 68.1°F20.1°C 85% 5.4 mph SE8.7 kmh SE 13.6 mph21.9 kmh 29.57 in1001.4 mb 0.01 in0.3 mm 0.00 in0.0 mm 3.63 in92.2 mm
07:36 PM 72.9°F22.7°C 68.1°F20.1°C 85% 6.0 mph SE9.7 kmh SE 13.0 mph20.9 kmh 29.57 in1001.4 mb 0.01 in0.3 mm 0.00 in0.0 mm 3.63 in92.2 mm
07:37 PM 72.9°F22.7°C 68.1°F20.1°C 85% 6.9 mph SE11.1 kmh SE 13.0 mph20.9 kmh 29.57 in1001.4 mb 0.01 in0.3 mm 0.00 in0.0 mm 3.63 in92.2 mm
07:38 PM 72.7°F22.6°C 67.9°F19.9°C 85% 5.4 mph ESE8.7 kmh ESE 13.0 mph20.9 kmh 29.57 in1001.4 mb 0.01 in0.3 mm 0.00 in0.0 mm 3.63 in92.2 mm
07:39 PM 72.7°F22.6°C 67.9°F19.9°C 85% 6.0 mph ESE9.7 kmh ESE 13.0 mph20.9 kmh 29.57 in1001.4 mb 0.01 in0.3 mm 0.00 in0.0 mm 3.63 in92.2 mm
07:40 PM 72.5°F22.5°C 67.8°F19.9°C 85% 9.8 mph ESE15.8 kmh ESE 15.2 mph24.5 kmh 29.57 in1001.4 mb 0.01 in0.3 mm 0.00 in0.0 mm 3.63 in92.2 mm
07:41 PM 72.5°F22.5°C 67.8°F19.9°C 85% 4.5 mph E7.2 kmh E 15.2 mph24.5 kmh 29.56 in1001.0 mb 0.00 in0.0 mm 0.00 in0.0 mm 3.63 in92.2 mm
07:42 PM 72.5°F22.5°C 67.8°F19.9°C 85% 4.5 mph E7.2 kmh E 15.2 mph24.5 kmh 29.56 in1001.0 mb 0.00 in0.0 mm 0.00 in0.0 mm 3.63 in92.2 mm
07:43 PM 72.3°F22.4°C 67.6°F19.8°C 85% 6.0 mph E9.7 kmh E 15.2 mph24.5 kmh 29.56 in1001.0 mb 0.00 in0.0 mm 0.00 in0.0 mm 3.63 in92.2 mm
07:44 PM 72.3°F22.4°C 67.6°F19.8°C 85% 4.5 mph E7.2 kmh E 15.2 mph24.5 kmh 29.55 in1000.7 mb 0.00 in0.0 mm 0.00 in0.0 mm 3.63 in92.2 mm
07:45 PM 72.3°F22.4°C 67.6°F19.8°C 85% 4.5 mph E7.2 kmh E 15.2 mph24.5 kmh 29.56 in1001.0 mb 0.00 in0.0 mm 0.00 in0.0 mm 3.63 in92.2 mm
07:46 PM 72.3°F22.4°C 67.6°F19.8°C 85% 9.8 mph E15.8 kmh E 18.3 mph29.5 kmh 29.56 in1001.0 mb 0.00 in0.0 mm 0.00 in0.0 mm 3.63 in92.2 mm
07:47 PM 72.3°F22.4°C 67.6°F19.8°C 85% 6.9 mph E11.1 kmh E 18.3 mph29.5 kmh 29.55 in1000.7 mb 0.00 in0.0 mm 0.00 in0.0 mm 3.63 in92.2 mm
07:48 PM 72.3°F22.4°C 67.6°F19.8°C 85% 5.4 mph E8.7 kmh E 18.3 mph29.5 kmh 29.54 in1000.3 mb 0.00 in0.0 mm 0.00 in0.0 mm 3.63 in92.2 mm
07:49 PM 72.3°F22.4°C 67.6°F19.8°C 85% 5.4 mph E8.7 kmh E 18.3 mph29.5 kmh 29.54 in1000.3 mb 0.00 in0.0 mm 0.00 in0.0 mm 3.63 in92.2 mm
07:51 PM 72.1°F22.3°C 67.4°F19.7°C 85% 6.0 mph ESE9.7 kmh ESE 18.3 mph29.5 kmh 29.54 in1000.3 mb 0.04 in1.0 mm 1.20 in30.5 mm 3.67 in93.2 mm
07:52 PM 72.0°F22.2°C 67.2°F19.6°C 85% 3.8 mph ESE6.1 kmh ESE 18.3 mph29.5 kmh 29.52 in999.7 mb 0.04 in1.0 mm 0.00 in0.0 mm 3.67 in93.2 mm
07:54 PM 71.6°F22.0°C 67.2°F19.6°C 86% 8.3 mph E13.4 kmh E 18.3 mph29.5 kmh 29.53 in1000.0 mb 0.04 in1.0 mm 0.00 in0.0 mm 3.67 in93.2 mm
07:55 PM 71.6°F22.0°C 67.2°F19.6°C 86% 7.6 mph E12.2 kmh E 18.3 mph29.5 kmh 29.54 in1000.3 mb 0.04 in1.0 mm 0.00 in0.0 mm 3.67 in93.2 mm
07:56 PM 71.6°F22.0°C 67.2°F19.6°C 86% 6.9 mph E11.1 kmh E 16.8 mph27.0 kmh 29.52 in999.7 mb 0.04 in1.0 mm 0.00 in0.0 mm 3.67 in93.2 mm
07:57 PM 71.6°F22.0°C 67.2°F19.6°C 86% 4.5 mph E7.2 kmh E 16.8 mph27.0 kmh 29.53 in1000.0 mb 0.04 in1.0 mm 0.00 in0.0 mm 3.67 in93.2 mm
07:58 PM 71.6°F22.0°C 67.6°F19.8°C 87% 4.5 mph E7.2 kmh E 16.8 mph27.0 kmh 29.54 in1000.3 mb 0.04 in1.0 mm 0.00 in0.0 mm 3.67 in93.2 mm
07:59 PM 71.6°F22.0°C 67.6°F19.8°C 87% 4.5 mph E7.2 kmh E 16.8 mph27.0 kmh 29.54 in1000.3 mb 0.04 in1.0 mm 0.00 in0.0 mm 3.67 in93.2 mm
08:00 PM 71.6°F22.0°C 67.6°F19.8°C 87% 5.4 mph E8.7 kmh E 16.8 mph27.0 kmh 29.55 in1000.7 mb 0.04 in1.0 mm 0.00 in0.0 mm 3.67 in93.2 mm
08:01 PM 71.6°F22.0°C 67.6°F19.8°C 87% 4.5 mph E7.2 kmh E 16.8 mph27.0 kmh 29.55 in1000.7 mb 0.04 in1.0 mm 0.00 in0.0 mm 3.67 in93.2 mm
08:02 PM 71.6°F22.0°C 67.6°F19.8°C 87% 5.4 mph E8.7 kmh E 16.8 mph27.0 kmh 29.55 in1000.7 mb 0.04 in1.0 mm 0.00 in0.0 mm 3.67 in93.2 mm
08:03 PM 71.6°F22.0°C 67.6°F19.8°C 87% 6.9 mph E11.1 kmh E 16.8 mph27.0 kmh 29.55 in1000.7 mb 0.04 in1.0 mm 0.00 in0.0 mm 3.67 in93.2 mm
08:04 PM 71.6°F22.0°C 67.6°F19.8°C 87% 6.9 mph E11.1 kmh E 16.8 mph27.0 kmh 29.55 in1000.7 mb 0.04 in1.0 mm 0.00 in0.0 mm 3.67 in93.2 mm
08:05 PM 71.8°F22.1°C 67.7°F19.8°C 87% 6.9 mph E11.1 kmh E 13.6 mph21.9 kmh 29.55 in1000.7 mb 0.04 in1.0 mm 0.00 in0.0 mm 3.67 in93.2 mm
08:06 PM 71.8°F22.1°C 67.7°F19.8°C 87% 8.3 mph E13.4 kmh E 13.6 mph21.9 kmh 29.55 in1000.7 mb 0.04 in1.0 mm 0.00 in0.0 mm 3.67 in93.2 mm
08:07 PM 71.8°F22.1°C 67.7°F19.8°C 87% 6.9 mph E11.1 kmh E 13.6 mph21.9 kmh 29.55 in1000.7 mb 0.04 in1.0 mm 0.00 in0.0 mm 3.67 in93.2 mm
08:08 PM 72.0°F22.2°C 67.9°F19.9°C 87% 7.6 mph E12.2 kmh E 13.6 mph21.9 kmh 29.55 in1000.7 mb 0.04 in1.0 mm 0.00 in0.0 mm 3.67 in93.2 mm
08:09 PM 72.0°F22.2°C 67.9°F19.9°C 87% 6.0 mph E9.7 kmh E 13.6 mph21.9 kmh 29.55 in1000.7 mb 0.04 in1.0 mm 0.00 in0.0 mm 3.67 in93.2 mm
08:10 PM 72.0°F22.2°C 67.9°F19.9°C 87% 11.4 mph E18.3 kmh E 15.2 mph24.5 kmh 29.55 in1000.7 mb 0.04 in1.0 mm 0.00 in0.0 mm 3.67 in93.2 mm
08:11 PM 72.0°F22.2°C 67.9°F19.9°C 87% 6.9 mph E11.1 kmh E 15.2 mph24.5 kmh 29.55 in1000.7 mb 0.04 in1.0 mm 0.00 in0.0 mm 3.67 in93.2 mm
08:12 PM 72.1°F22.3°C 68.1°F20.1°C 87% 8.3 mph E13.4 kmh E 15.2 mph24.5 kmh 29.55 in1000.7 mb 0.04 in1.0 mm 0.00 in0.0 mm 3.67 in93.2 mm
08:13 PM 72.1°F22.3°C 68.1°F20.1°C 87% 8.3 mph E13.4 kmh E 15.2 mph24.5 kmh 29.55 in1000.7 mb 0.04 in1.0 mm 0.00 in0.0 mm 3.67 in93.2 mm
08:14 PM 72.1°F22.3°C 68.1°F20.1°C 87% 6.9 mph E11.1 kmh E 15.2 mph24.5 kmh 29.54 in1000.3 mb 0.04 in1.0 mm 0.00 in0.0 mm 3.67 in93.2 mm
08:15 PM 72.1°F22.3°C 67.8°F19.9°C 86% 9.8 mph E15.8 kmh E 16.8 mph27.0 kmh 29.54 in1000.3 mb 0.06 in1.5 mm 1.20 in30.5 mm 3.69 in93.7 mm
08:16 PM 72.1°F22.3°C 67.8°F19.9°C 86% 7.6 mph E12.2 kmh E 16.8 mph27.0 kmh 29.54 in1000.3 mb 0.06 in1.5 mm 0.00 in0.0 mm 3.69 in93.7 mm
08:17 PM 72.1°F22.3°C 67.8°F19.9°C 86% 6.0 mph E9.7 kmh E 16.8 mph27.0 kmh 29.53 in1000.0 mb 0.06 in1.5 mm 0.00 in0.0 mm 3.69 in93.7 mm
08:18 PM 72.1°F22.3°C 67.8°F19.9°C 86% 8.3 mph E13.4 kmh E 16.8 mph27.0 kmh 29.53 in1000.0 mb 0.06 in1.5 mm 0.00 in0.0 mm 3.69 in93.7 mm
08:19 PM 72.1°F22.3°C 67.8°F19.9°C 86% 9.2 mph E14.8 kmh E 16.8 mph27.0 kmh 29.53 in1000.0 mb 0.06 in1.5 mm 0.00 in0.0 mm 3.69 in93.7 mm
08:20 PM 72.1°F22.3°C 67.8°F19.9°C 86% 9.2 mph E14.8 kmh E 16.8 mph27.0 kmh 29.53 in1000.0 mb 0.06 in1.5 mm 0.00 in0.0 mm 3.69 in93.7 mm
08:21 PM 72.1°F22.3°C 67.8°F19.9°C 86% 6.9 mph E11.1 kmh E 16.8 mph27.0 kmh 29.54 in1000.3 mb 0.06 in1.5 mm 0.00 in0.0 mm 3.69 in93.7 mm
08:22 PM 72.1°F22.3°C 67.4°F19.7°C 85% 9.2 mph E14.8 kmh E 16.8 mph27.0 kmh 29.54 in1000.3 mb 0.06 in1.5 mm 0.00 in0.0 mm 3.69 in93.7 mm
08:23 PM 72.1°F22.3°C 67.4°F19.7°C 85% 11.4 mph E18.3 kmh E 16.8 mph27.0 kmh 29.54 in1000.3 mb 0.06 in1.5 mm 0.00 in0.0 mm 3.69 in93.7 mm
08:24 PM 72.1°F22.3°C 67.4°F19.7°C 85% 10.7 mph ENE17.2 kmh ENE 16.8 mph27.0 kmh 29.54 in1000.3 mb 0.06 in1.5 mm 0.00 in0.0 mm 3.69 in93.7 mm
08:25 PM 72.0°F22.2°C 67.2°F19.6°C 85% 7.6 mph ENE12.2 kmh ENE 16.8 mph27.0 kmh 29.53 in1000.0 mb 0.06 in1.5 mm 0.00 in0.0 mm 3.69 in93.7 mm
08:26 PM 72.0°F22.2°C 67.2°F19.6°C 85% 11.4 mph ENE18.3 kmh ENE 22.8 mph36.7 kmh 29.53 in1000.0 mb 0.06 in1.5 mm 0.00 in0.0 mm 3.69 in93.7 mm
08:27 PM 72.0°F22.2°C 67.2°F19.6°C 85% 6.9 mph E11.1 kmh E 22.8 mph36.7 kmh 29.53 in1000.0 mb 0.07 in1.8 mm 0.60 in15.2 mm 3.70 in94.0 mm
08:28 PM 72.0°F22.2°C 67.2°F19.6°C 85% 10.7 mph ENE17.2 kmh ENE 22.8 mph36.7 kmh 29.54 in1000.3 mb 0.07 in1.8 mm 0.00 in0.0 mm 3.70 in94.0 mm
08:29 PM 72.0°F22.2°C 67.2°F19.6°C 85% 10.7 mph ENE17.2 kmh ENE 22.8 mph36.7 kmh 29.53 in1000.0 mb 0.07 in1.8 mm 0.00 in0.0 mm 3.70 in94.0 mm
08:30 PM 72.0°F22.2°C 67.2°F19.6°C 85% 11.4 mph ENE18.3 kmh ENE 22.8 mph36.7 kmh 29.55 in1000.7 mb 0.07 in1.8 mm 0.00 in0.0 mm 3.70 in94.0 mm
08:31 PM 72.0°F22.2°C 67.2°F19.6°C 85% 10.7 mph ENE17.2 kmh ENE 22.8 mph36.7 kmh 29.54 in1000.3 mb 0.07 in1.8 mm 0.00 in0.0 mm 3.70 in94.0 mm
08:32 PM 72.0°F22.2°C 67.2°F19.6°C 85% 10.7 mph E17.2 kmh E 22.8 mph36.7 kmh 29.55 in1000.7 mb 0.07 in1.8 mm 0.00 in0.0 mm 3.70 in94.0 mm
08:33 PM 72.0°F22.2°C 67.2°F19.6°C 85% 10.7 mph E17.2 kmh E 22.8 mph36.7 kmh 29.55 in1000.7 mb 0.07 in1.8 mm 0.00 in0.0 mm 3.70 in94.0 mm
08:34 PM 72.0°F22.2°C 67.2°F19.6°C 85% 12.1 mph E19.5 kmh E 22.8 mph36.7 kmh 29.55 in1000.7 mb 0.07 in1.8 mm 0.00 in0.0 mm 3.70 in94.0 mm
08:35 PM 72.0°F22.2°C 67.2°F19.6°C 85% 10.7 mph E17.2 kmh E 22.8 mph36.7 kmh 29.54 in1000.3 mb 0.07 in1.8 mm 0.00 in0.0 mm 3.70 in94.0 mm
08:36 PM 72.0°F22.2°C 67.2°F19.6°C 85% 7.6 mph E12.2 kmh E 22.8 mph36.7 kmh 29.55 in1000.7 mb 0.07 in1.8 mm 0.00 in0.0 mm 3.70 in94.0 mm
08:37 PM 72.0°F22.2°C 67.2°F19.6°C 85% 7.6 mph E12.2 kmh E 18.3 mph29.5 kmh 29.54 in1000.3 mb 0.07 in1.8 mm 0.00 in0.0 mm 3.70 in94.0 mm
08:38 PM 72.0°F22.2°C 67.2°F19.6°C 85% 9.8 mph E15.8 kmh E 18.3 mph29.5 kmh 29.54 in1000.3 mb 0.07 in1.8 mm 0.00 in0.0 mm 3.70 in94.0 mm
08:39 PM 72.0°F22.2°C 67.2°F19.6°C 85% 10.7 mph NE17.2 kmh NE 18.3 mph29.5 kmh 29.54 in1000.3 mb 0.07 in1.8 mm 0.00 in0.0 mm 3.70 in94.0 mm
08:40 PM 72.1°F22.3°C 67.4°F19.7°C 85% 6.9 mph ENE11.1 kmh ENE 18.3 mph29.5 kmh 29.53 in1000.0 mb 0.07 in1.8 mm 0.00 in0.0 mm 3.70 in94.0 mm
08:41 PM 72.1°F22.3°C 67.1°F19.5°C 84% 6.0 mph E9.7 kmh E 18.3 mph29.5 kmh 29.53 in1000.0 mb 0.07 in1.8 mm 0.00 in0.0 mm 3.70 in94.0 mm
08:42 PM 72.1°F22.3°C 67.1°F19.5°C 84% 7.6 mph NE12.2 kmh NE 18.3 mph29.5 kmh 29.53 in1000.0 mb 0.07 in1.8 mm 0.00 in0.0 mm 3.70 in94.0 mm
08:43 PM 72.1°F22.3°C 67.1°F19.5°C 84% 9.2 mph NE14.8 kmh NE 18.3 mph29.5 kmh 29.53 in1000.0 mb 0.07 in1.8 mm 0.00 in0.0 mm 3.70 in94.0 mm
08:44 PM 72.1°F22.3°C 67.1°F19.5°C 84% 4.5 mph NE7.2 kmh NE 18.3 mph29.5 kmh 29.53 in1000.0 mb 0.07 in1.8 mm 0.00 in0.0 mm 3.70 in94.0 mm
08:45 PM 72.1°F22.3°C 67.1°F19.5°C 84% 7.6 mph ENE12.2 kmh ENE 18.3 mph29.5 kmh 29.54 in1000.3 mb 0.07 in1.8 mm 0.00 in0.0 mm 3.70 in94.0 mm
08:46 PM 72.1°F22.3°C 66.7°F19.3°C 83% 6.9 mph ENE11.1 kmh ENE 19.0 mph30.6 kmh 29.53 in1000.0 mb 0.07 in1.8 mm 0.00 in0.0 mm 3.70 in94.0 mm
08:47 PM 72.1°F22.3°C 66.7°F19.3°C 83% 4.5 mph ENE7.2 kmh ENE 19.0 mph30.6 kmh 29.54 in1000.3 mb 0.07 in1.8 mm 0.00 in0.0 mm 3.70 in94.0 mm
08:48 PM 72.1°F22.3°C 66.7°F19.3°C 83% 6.0 mph E9.7 kmh E 19.0 mph30.6 kmh 29.53 in1000.0 mb 0.07 in1.8 mm 0.00 in0.0 mm 3.70 in94.0 mm
08:49 PM 72.1°F22.3°C 66.7°F19.3°C 83% 3.1 mph E5.0 kmh E 19.0 mph30.6 kmh 29.52 in999.7 mb 0.03 in0.8 mm 0.00 in0.0 mm 3.70 in94.0 mm
08:50 PM 72.1°F22.3°C 66.7°F19.3°C 83% 8.3 mph E13.4 kmh E 19.0 mph30.6 kmh 29.53 in1000.0 mb 0.03 in0.8 mm 0.00 in0.0 mm 3.70 in94.0 mm
08:51 PM 72.1°F22.3°C 66.7°F19.3°C 83% 8.3 mph E13.4 kmh E 19.0 mph30.6 kmh 29.53 in1000.0 mb 0.03 in0.8 mm 0.00 in0.0 mm 3.70 in94.0 mm
08:52 PM 72.1°F22.3°C 66.7°F19.3°C 83% 8.3 mph E13.4 kmh E 19.0 mph30.6 kmh 29.53 in1000.0 mb 0.03 in0.8 mm 0.00 in0.0 mm 3.70 in94.0 mm
08:53 PM 72.1°F22.3°C 66.7°F19.3°C 83% 8.3 mph E13.4 kmh E 19.0 mph30.6 kmh 29.52 in999.7 mb 0.03 in0.8 mm 0.00 in0.0 mm 3.70 in94.0 mm
08:54 PM 72.3°F22.4°C 66.9°F19.4°C 83% 5.4 mph ENE8.7 kmh ENE 19.0 mph30.6 kmh 29.53 in1000.0 mb 0.03 in0.8 mm 0.00 in0.0 mm 3.70 in94.0 mm
08:55 PM 72.3°F22.4°C 66.9°F19.4°C 83% 6.9 mph ENE11.1 kmh ENE 19.0 mph30.6 kmh 29.52 in999.7 mb 0.03 in0.8 mm 0.00 in0.0 mm 3.70 in94.0 mm
08:56 PM 72.3°F22.4°C 66.6°F19.2°C 82% 9.8 mph ENE15.8 kmh ENE 15.9 mph25.6 kmh 29.52 in999.7 mb 0.03 in0.8 mm 0.00 in0.0 mm 3.70 in94.0 mm
08:57 PM 72.3°F22.4°C 66.6°F19.2°C 82% 6.9 mph E11.1 kmh E 15.9 mph25.6 kmh 29.53 in1000.0 mb 0.03 in0.8 mm 0.00 in0.0 mm 3.70 in94.0 mm
08:58 PM 72.5°F22.5°C 66.7°F19.3°C 82% 7.6 mph E12.2 kmh E 15.9 mph25.6 kmh 29.53 in1000.0 mb 0.03 in0.8 mm 0.00 in0.0 mm 3.70 in94.0 mm
08:59 PM 72.5°F22.5°C 66.7°F19.3°C 82% 6.0 mph E9.7 kmh E 15.9 mph25.6 kmh 29.53 in1000.0 mb 0.03 in0.8 mm 0.00 in0.0 mm 3.70 in94.0 mm
09:00 PM 72.5°F22.5°C 66.7°F19.3°C 82% 6.0 mph E9.7 kmh E 15.9 mph25.6 kmh 29.53 in1000.0 mb 0.03 in0.8 mm 0.00 in0.0 mm 3.70 in94.0 mm
09:01 PM 72.5°F22.5°C 66.7°F19.3°C 82% 8.3 mph E13.4 kmh E 19.0 mph30.6 kmh 29.52 in999.7 mb 0.03 in0.8 mm 0.00 in0.0 mm 3.70 in94.0 mm
09:02 PM 72.7°F22.6°C 66.9°F19.4°C 82% 6.0 mph E9.7 kmh E 19.0 mph30.6 kmh 29.52 in999.7 mb 0.03 in0.8 mm 0.00 in0.0 mm 3.70 in94.0 mm
09:03 PM 72.7°F22.6°C 66.9°F19.4°C 82% 6.0 mph E9.7 kmh E 19.0 mph30.6 kmh 29.52 in999.7 mb 0.03 in0.8 mm 0.00 in0.0 mm 3.70 in94.0 mm
09:04 PM 72.7°F22.6°C 66.9°F19.4°C 82% 7.6 mph E12.2 kmh E 19.0 mph30.6 kmh 29.52 in999.7 mb 0.03 in0.8 mm 0.00 in0.0 mm 3.70 in94.0 mm
09:05 PM 72.7°F22.6°C 66.9°F19.4°C 82% 5.4 mph E8.7 kmh E 19.0 mph30.6 kmh 29.52 in999.7 mb 0.03 in0.8 mm 0.00 in0.0 mm 3.70 in94.0 mm
09:06 PM 72.7°F22.6°C 66.5°F19.2°C 81% 11.4 mph E18.3 kmh E 19.0 mph30.6 kmh 29.52 in999.7 mb 0.03 in0.8 mm 0.00 in0.0 mm 3.70 in94.0 mm
09:07 PM 72.9°F22.7°C 66.7°F19.3°C 81% 8.3 mph E13.4 kmh E 19.0 mph30.6 kmh 29.52 in999.7 mb 0.03 in0.8 mm 0.00 in0.0 mm 3.70 in94.0 mm
09:08 PM 72.9°F22.7°C 66.7°F19.3°C 81% 6.0 mph E9.7 kmh E 19.0 mph30.6 kmh 29.52 in999.7 mb 0.03 in0.8 mm 0.00 in0.0 mm 3.70 in94.0 mm
09:09 PM 72.9°F22.7°C 66.7°F19.3°C 81% 6.0 mph E9.7 kmh E 19.0 mph30.6 kmh 29.52 in999.7 mb 0.03 in0.8 mm 0.00 in0.0 mm 3.70 in94.0 mm
09:10 PM 73.0°F22.8°C 66.9°F19.4°C 81% 6.9 mph E11.1 kmh E 19.0 mph30.6 kmh 29.52 in999.7 mb 0.03 in0.8 mm 0.00 in0.0 mm 3.70 in94.0 mm
09:11 PM 73.0°F22.8°C 66.9°F19.4°C 81% 5.4 mph ENE8.7 kmh ENE 18.3 mph29.5 kmh 29.53 in1000.0 mb 0.03 in0.8 mm 0.00 in0.0 mm 3.70 in94.0 mm
09:18 PM 73.6°F23.1°C 67.1°F19.5°C 80% 3.1 mph E5.0 kmh E 18.3 mph29.5 kmh 29.58 in1001.7 mb 0.03 in0.8 mm 0.00 in0.0 mm 3.71 in94.2 mm
09:19 PM 73.6°F23.1°C 67.1°F19.5°C 80% 3.8 mph E6.1 kmh E 18.3 mph29.5 kmh 29.58 in1001.7 mb 0.03 in0.8 mm 0.00 in0.0 mm 3.71 in94.2 mm
09:20 PM 73.6°F23.1°C 67.1°F19.5°C 80% 3.8 mph E6.1 kmh E 18.3 mph29.5 kmh 29.58 in1001.7 mb 0.03 in0.8 mm 0.00 in0.0 mm 3.71 in94.2 mm
09:21 PM 73.6°F23.1°C 67.1°F19.5°C 80% 12.1 mph SE19.5 kmh SE 18.3 mph29.5 kmh 29.57 in1001.4 mb 0.03 in0.8 mm 0.00 in0.0 mm 3.71 in94.2 mm
09:22 PM 73.4°F23.0°C 66.9°F19.4°C 80% 7.6 mph SSE12.2 kmh SSE 18.3 mph29.5 kmh 29.57 in1001.4 mb 0.03 in0.8 mm 0.00 in0.0 mm 3.71 in94.2 mm
09:23 PM 73.2°F22.9°C 67.1°F19.5°C 81% 4.5 mph S7.2 kmh S 15.9 mph25.6 kmh 29.57 in1001.4 mb 0.03 in0.8 mm 0.00 in0.0 mm 3.71 in94.2 mm
09:25 PM 73.0°F22.8°C 66.9°F19.4°C 81% 2.2 mph SE3.5 kmh SE 15.9 mph25.6 kmh 29.57 in1001.4 mb 0.03 in0.8 mm 0.00 in0.0 mm 3.71 in94.2 mm
09:26 PM 72.9°F22.7°C 66.7°F19.3°C 81% 2.2 mph SE3.5 kmh SE 15.9 mph25.6 kmh 29.57 in1001.4 mb 0.01 in0.3 mm 0.00 in0.0 mm 3.71 in94.2 mm
09:27 PM 72.5°F22.5°C 66.4°F19.1°C 81% 6.9 mph SE11.1 kmh SE 15.9 mph25.6 kmh 29.57 in1001.4 mb 0.03 in0.8 mm 1.20 in30.5 mm 3.73 in94.7 mm
09:28 PM 72.5°F22.5°C 66.4°F19.1°C 81% 4.5 mph SE7.2 kmh SE 15.9 mph25.6 kmh 29.57 in1001.4 mb 0.03 in0.8 mm 0.00 in0.0 mm 3.73 in94.7 mm
09:29 PM 72.3°F22.4°C 66.2°F19.0°C 81% 6.0 mph SSE9.7 kmh SSE 17.4 mph28.0 kmh 29.57 in1001.4 mb 0.03 in0.8 mm 0.00 in0.0 mm 3.73 in94.7 mm
09:30 PM 72.3°F22.4°C 66.6°F19.2°C 82% 4.5 mph SSE7.2 kmh SSE 17.4 mph28.0 kmh 29.57 in1001.4 mb 0.03 in0.8 mm 0.00 in0.0 mm 3.73 in94.7 mm
09:31 PM 72.3°F22.4°C 66.6°F19.2°C 82% 9.2 mph SSE14.8 kmh SSE 17.4 mph28.0 kmh 29.55 in1000.7 mb 0.03 in0.8 mm 0.00 in0.0 mm 3.73 in94.7 mm
09:32 PM 72.1°F22.3°C 66.4°F19.1°C 82% 9.8 mph S15.8 kmh S 17.4 mph28.0 kmh 29.55 in1000.7 mb 0.03 in0.8 mm 0.00 in0.0 mm 3.73 in94.7 mm
09:33 PM 72.3°F22.4°C 66.6°F19.2°C 82% 12.1 mph S19.5 kmh S 17.4 mph28.0 kmh 29.56 in1001.0 mb 0.04 in1.0 mm 0.60 in15.2 mm 3.74 in95.0 mm
09:34 PM 72.3°F22.4°C 66.6°F19.2°C 82% 10.7 mph S17.2 kmh S 17.4 mph28.0 kmh 29.56 in1001.0 mb 0.04 in1.0 mm 0.00 in0.0 mm 3.74 in95.0 mm
09:35 PM 72.5°F22.5°C 66.7°F19.3°C 82% 14.5 mph S23.3 kmh S 19.7 mph31.7 kmh 29.56 in1001.0 mb 0.06 in1.5 mm 1.20 in30.5 mm 3.76 in95.5 mm
09:36 PM 72.5°F22.5°C 66.7°F19.3°C 82% 9.2 mph S14.8 kmh S 19.7 mph31.7 kmh 29.57 in1001.4 mb 0.07 in1.8 mm 0.60 in15.2 mm 3.77 in95.8 mm
09:37 PM 72.5°F22.5°C 66.7°F19.3°C 82% 6.9 mph S11.1 kmh S 19.7 mph31.7 kmh 29.56 in1001.0 mb 0.07 in1.8 mm 0.00 in0.0 mm 3.77 in95.8 mm
09:38 PM 72.5°F22.5°C 66.7°F19.3°C 82% 6.9 mph S11.1 kmh S 19.7 mph31.7 kmh 29.57 in1001.4 mb 0.07 in1.8 mm 0.00 in0.0 mm 3.77 in95.8 mm
09:39 PM 72.5°F22.5°C 66.7°F19.3°C 82% 9.8 mph S15.8 kmh S 19.7 mph31.7 kmh 29.56 in1001.0 mb 0.09 in2.3 mm 1.20 in30.5 mm 3.79 in96.3 mm
09:40 PM 72.5°F22.5°C 66.7°F19.3°C 82% 9.8 mph S15.8 kmh S 19.7 mph31.7 kmh 29.57 in1001.4 mb 0.09 in2.3 mm 0.00 in0.0 mm 3.79 in96.3 mm
09:41 PM 72.5°F22.5°C 66.7°F19.3°C 82% 9.8 mph S15.8 kmh S 19.7 mph31.7 kmh 29.57 in1001.4 mb 0.09 in2.3 mm 0.00 in0.0 mm 3.79 in96.3 mm
09:42 PM 72.5°F22.5°C 66.7°F19.3°C 82% 9.8 mph SSE15.8 kmh SSE 19.7 mph31.7 kmh 29.57 in1001.4 mb 0.09 in2.3 mm 0.00 in0.0 mm 3.79 in96.3 mm
09:43 PM 72.5°F22.5°C 66.7°F19.3°C 82% 9.8 mph E15.8 kmh E 19.7 mph31.7 kmh 29.57 in1001.4 mb 0.09 in2.3 mm 0.00 in0.0 mm 3.79 in96.3 mm
09:44 PM 72.5°F22.5°C 66.7°F19.3°C 82% 9.8 mph E15.8 kmh E 19.7 mph31.7 kmh 29.57 in1001.4 mb 0.09 in2.3 mm 0.00 in0.0 mm 3.79 in96.3 mm
09:46 PM 72.9°F22.7°C 67.1°F19.5°C 82% 8.3 mph S13.4 kmh S 16.8 mph27.0 kmh 29.57 in1001.4 mb 0.14 in3.6 mm 1.50 in38.1 mm 3.84 in97.5 mm
09:47 PM 72.7°F22.6°C 66.9°F19.4°C 82% 8.3 mph SSE13.4 kmh SSE 18.3 mph29.5 kmh 29.57 in1001.4 mb 0.16 in4.1 mm 1.20 in30.5 mm 3.86 in98.0 mm
09:48 PM 72.9°F22.7°C 67.1°F19.5°C 82% 3.8 mph SE6.1 kmh SE 18.3 mph29.5 kmh 29.57 in1001.4 mb 0.16 in4.1 mm 0.00 in0.0 mm 3.86 in98.0 mm
09:49 PM 72.9°F22.7°C 67.1°F19.5°C 82% 5.4 mph SE8.7 kmh SE 18.3 mph29.5 kmh 29.57 in1001.4 mb 0.17 in4.3 mm 0.60 in15.2 mm 3.87 in98.3 mm
09:51 PM 72.5°F22.5°C 66.7°F19.3°C 82% 4.5 mph SE7.2 kmh SE 18.3 mph29.5 kmh 29.57 in1001.4 mb 0.19 in4.8 mm 0.60 in15.2 mm 3.89 in98.8 mm
09:52 PM 72.3°F22.4°C 66.6°F19.2°C 82% 7.6 mph SE12.2 kmh SE 18.3 mph29.5 kmh 29.57 in1001.4 mb 0.20 in5.1 mm 0.60 in15.2 mm 3.90 in99.1 mm
09:53 PM 72.3°F22.4°C 66.6°F19.2°C 82% 4.5 mph SE7.2 kmh SE 18.3 mph29.5 kmh 29.57 in1001.4 mb 0.20 in5.1 mm 0.00 in0.0 mm 3.90 in99.1 mm
09:55 PM 72.1°F22.3°C 66.7°F19.3°C 83% 3.1 mph SSE5.0 kmh SSE 18.3 mph29.5 kmh 29.58 in1001.7 mb 0.22 in5.6 mm 0.60 in15.2 mm 3.92 in99.6 mm
09:56 PM 72.1°F22.3°C 66.7°F19.3°C 83% 2.2 mph SSE3.5 kmh SSE 18.3 mph29.5 kmh 29.57 in1001.4 mb 0.23 in5.8 mm 0.60 in15.2 mm 3.93 in99.8 mm
09:57 PM 72.1°F22.3°C 66.7°F19.3°C 83% 7.6 mph SSE12.2 kmh SSE 18.3 mph29.5 kmh 29.58 in1001.7 mb 0.23 in5.8 mm 0.00 in0.0 mm 3.93 in99.8 mm
09:58 PM 72.0°F22.2°C 66.6°F19.2°C 83% 3.8 mph SE6.1 kmh SE 11.4 mph18.3 kmh 29.59 in1002.0 mb 0.26 in6.6 mm 1.80 in45.7 mm 3.96 in100.6 mm
09:59 PM 72.0°F22.2°C 66.6°F19.2°C 83% 5.4 mph SE8.7 kmh SE 11.4 mph18.3 kmh 29.59 in1002.0 mb 0.26 in6.6 mm 0.00 in0.0 mm 3.96 in100.6 mm
10:00 PM 72.0°F22.2°C 66.9°F19.4°C 84% 6.0 mph SE9.7 kmh SE 10.7 mph17.2 kmh 29.59 in1002.0 mb 0.27 in6.9 mm 0.01 in0.3 mm 3.97 in100.8 mm
10:01 PM 72.0°F22.2°C 66.9°F19.4°C 84% 6.0 mph SE9.7 kmh SE 10.7 mph17.2 kmh 29.59 in1002.0 mb 0.27 in6.9 mm 0.00 in0.0 mm 3.97 in100.8 mm
10:02 PM 72.0°F22.2°C 66.9°F19.4°C 84% 3.8 mph SE6.1 kmh SE 10.7 mph17.2 kmh 29.61 in1002.7 mb 0.30 in7.6 mm 1.80 in45.7 mm 4.00 in101.6 mm
10:03 PM 72.0°F22.2°C 66.9°F19.4°C 84% 6.0 mph SSE9.7 kmh SSE 10.7 mph17.2 kmh 29.60 in1002.4 mb 0.32 in8.1 mm 1.20 in30.5 mm 4.02 in102.1 mm
10:04 PM 72.0°F22.2°C 66.9°F19.4°C 84% 6.0 mph SSE9.7 kmh SSE 10.7 mph17.2 kmh 29.60 in1002.4 mb 0.32 in8.1 mm 0.00 in0.0 mm 4.02 in102.1 mm
10:05 PM 72.0°F22.2°C 66.9°F19.4°C 84% 6.0 mph SSE9.7 kmh SSE 10.7 mph17.2 kmh 29.60 in1002.4 mb 0.32 in8.1 mm 0.00 in0.0 mm 4.02 in102.1 mm
10:07 PM 71.8°F22.1°C 67.1°F19.5°C 85% 2.2 mph SE3.5 kmh SE 10.7 mph17.2 kmh 29.60 in1002.4 mb 0.36 in9.1 mm 1.20 in30.5 mm 4.06 in103.1 mm
10:08 PM 71.8°F22.1°C 67.1°F19.5°C 85% 6.9 mph SSE11.1 kmh SSE 10.7 mph17.2 kmh 29.60 in1002.4 mb 0.37 in9.4 mm 0.60 in15.2 mm 4.07 in103.4 mm
10:09 PM 71.6°F22.0°C 66.9°F19.4°C 85% 6.9 mph SSE11.1 kmh SSE 10.7 mph17.2 kmh 29.60 in1002.4 mb 0.37 in9.4 mm 0.00 in0.0 mm 4.07 in103.4 mm
10:10 PM 71.6°F22.0°C 66.9°F19.4°C 85% 7.6 mph S12.2 kmh S 13.0 mph20.9 kmh 29.60 in1002.4 mb 0.40 in10.2 mm 1.80 in45.7 mm 4.10 in104.1 mm
10:11 PM 71.6°F22.0°C 66.9°F19.4°C 85% 7.6 mph S12.2 kmh S 13.0 mph20.9 kmh 29.60 in1002.4 mb 0.40 in10.2 mm 0.00 in0.0 mm 4.12 in104.6 mm
10:12 PM 71.6°F22.0°C 67.2°F19.6°C 86% 8.3 mph S13.4 kmh S 15.9 mph25.6 kmh 29.60 in1002.4 mb 0.42 in10.7 mm 1.20 in30.5 mm 4.13 in104.9 mm
10:13 PM 71.6°F22.0°C 67.2°F19.6°C 86% 10.7 mph S17.2 kmh S 15.9 mph25.6 kmh 29.60 in1002.4 mb 0.42 in10.7 mm 0.00 in0.0 mm 4.13 in104.9 mm
10:14 PM 71.4°F21.9°C 67.4°F19.7°C 87% 9.8 mph S15.8 kmh S 15.9 mph25.6 kmh 29.60 in1002.4 mb 0.45 in11.4 mm 1.80 in45.7 mm 4.16 in105.7 mm
10:15 PM 71.4°F21.9°C 67.4°F19.7°C 87% 4.5 mph S7.2 kmh S 15.9 mph25.6 kmh 29.60 in1002.4 mb 0.46 in11.7 mm 0.60 in15.2 mm 4.18 in106.2 mm
10:16 PM 71.4°F21.9°C 67.4°F19.7°C 87% 3.8 mph S6.1 kmh S 15.9 mph25.6 kmh 29.60 in1002.4 mb 0.46 in11.7 mm 0.00 in0.0 mm 4.18 in106.2 mm
10:17 PM 71.2°F21.8°C 67.2°F19.6°C 87% 6.0 mph S9.7 kmh S 15.9 mph25.6 kmh 29.60 in1002.4 mb 0.48 in12.2 mm 1.20 in30.5 mm 4.19 in106.4 mm
10:18 PM 71.1°F21.7°C 67.0°F19.4°C 87% 2.2 mph S3.5 kmh S 15.9 mph25.6 kmh 29.62 in1003.0 mb 0.50 in12.7 mm 1.20 in30.5 mm 4.22 in107.2 mm
10:19 PM 71.2°F21.8°C 67.2°F19.6°C 87% 3.1 mph S5.0 kmh S 15.9 mph25.6 kmh 29.63 in1003.4 mb 0.53 in13.5 mm 1.80 in45.7 mm 4.25 in108.0 mm
10:20 PM 71.1°F21.7°C 67.4°F19.7°C 88% 3.1 mph S5.0 kmh S 15.9 mph25.6 kmh 29.63 in1003.4 mb 0.55 in14.0 mm 1.20 in30.5 mm 4.26 in108.2 mm
10:21 PM 71.1°F21.7°C 67.4°F19.7°C 88% 3.8 mph S6.1 kmh S 15.9 mph25.6 kmh 29.63 in1003.4 mb 0.56 in14.2 mm 0.60 in15.2 mm 4.28 in108.7 mm
10:22 PM 70.9°F21.6°C 67.2°F19.6°C 88% 6.0 mph S9.7 kmh S 15.9 mph25.6 kmh 29.63 in1003.4 mb 0.59 in15.0 mm 1.80 in45.7 mm 4.30 in109.2 mm
10:23 PM 70.9°F21.6°C 67.2°F19.6°C 88% 4.5 mph S7.2 kmh S 13.6 mph21.9 kmh 29.62 in1003.0 mb 0.60 in15.2 mm 0.60 in15.2 mm 4.32 in109.7 mm
10:24 PM 70.9°F21.6°C 67.2°F19.6°C 88% 3.1 mph SSE5.0 kmh SSE 13.6 mph21.9 kmh 29.62 in1003.0 mb 0.62 in15.7 mm 1.20 in30.5 mm 4.33 in110.0 mm
10:25 PM 70.9°F21.6°C 67.2°F19.6°C 88% 2.2 mph SSE3.5 kmh SSE 10.7 mph17.2 kmh 29.62 in1003.0 mb 0.65 in16.5 mm 1.80 in45.7 mm 4.36 in110.7 mm
10:26 PM 70.5°F21.4°C 66.8°F19.3°C 88% 2.2 mph SSE3.5 kmh SSE 10.7 mph17.2 kmh 29.62 in1003.0 mb 0.66 in16.8 mm 0.60 in15.2 mm 4.39 in111.5 mm
10:27 PM 70.5°F21.4°C 66.8°F19.3°C 88% 2.2 mph SSE3.5 kmh SSE 10.7 mph17.2 kmh 29.63 in1003.4 mb 0.69 in17.5 mm 1.80 in45.7 mm 4.42 in112.3 mm
10:28 PM 70.5°F21.4°C 67.2°F19.6°C 89% 4.5 mph SSE7.2 kmh SSE 10.7 mph17.2 kmh 29.62 in1003.0 mb 0.71 in18.0 mm 1.20 in30.5 mm 4.43 in112.5 mm
10:29 PM 70.5°F21.4°C 67.2°F19.6°C 89% 5.4 mph SSE8.7 kmh SSE 10.7 mph17.2 kmh 29.62 in1003.0 mb 0.75 in19.1 mm 2.40 in61.0 mm 4.48 in113.8 mm
10:30 PM 70.5°F21.4°C 67.2°F19.6°C 89% 7.6 mph SSE12.2 kmh SSE 10.7 mph17.2 kmh 29.62 in1003.0 mb 0.78 in19.8 mm 1.80 in45.7 mm 4.51 in114.6 mm
10:32 PM 70.5°F21.4°C 67.2°F19.6°C 89% 6.0 mph SE9.7 kmh SE 9.8 mph15.8 kmh 29.61 in1002.7 mb 0.82 in20.8 mm 1.20 in30.5 mm 4.56 in115.8 mm
10:33 PM 70.5°F21.4°C 67.2°F19.6°C 89% 6.9 mph SE11.1 kmh SE 13.6 mph21.9 kmh 29.60 in1002.4 mb 0.84 in21.3 mm 1.20 in30.5 mm 4.58 in116.3 mm
10:34 PM 70.3°F21.3°C 67.3°F19.6°C 90% 8.3 mph ESE13.4 kmh ESE 13.6 mph21.9 kmh 29.60 in1002.4 mb 0.91 in23.1 mm 4.20 in106.7 mm 4.66 in118.4 mm
10:35 PM 70.3°F21.3°C 67.3°F19.6°C 90% 7.6 mph ESE12.2 kmh ESE 13.6 mph21.9 kmh 29.59 in1002.0 mb 0.92 in23.4 mm 0.60 in15.2 mm 4.69 in119.1 mm
10:36 PM 70.3°F21.3°C 67.3°F19.6°C 90% 9.2 mph ESE14.8 kmh ESE 13.6 mph21.9 kmh 29.59 in1002.0 mb 0.95 in24.1 mm 1.80 in45.7 mm 4.72 in119.9 mm
10:37 PM 70.3°F21.3°C 67.3°F19.6°C 90% 8.3 mph SE13.4 kmh SE 15.9 mph25.6 kmh 29.59 in1002.0 mb 0.96 in24.4 mm 0.60 in15.2 mm 4.74 in120.4 mm
10:38 PM 70.2°F21.2°C 67.4°F19.7°C 91% 8.3 mph SE13.4 kmh SE 15.9 mph25.6 kmh 29.58 in1001.7 mb 1.01 in25.7 mm 3.00 in76.2 mm 4.79 in121.7 mm
10:39 PM 70.2°F21.2°C 67.4°F19.7°C 91% 6.0 mph SE9.7 kmh SE 15.9 mph25.6 kmh 29.59 in1002.0 mb 1.02 in25.9 mm 0.60 in15.2 mm 4.81 in122.2 mm
10:40 PM 70.2°F21.2°C 67.4°F19.7°C 91% 9.2 mph SE14.8 kmh SE 15.9 mph25.6 kmh 29.59 in1002.0 mb 1.04 in26.4 mm 1.20 in30.5 mm 4.82 in122.4 mm
10:41 PM 70.2°F21.2°C 67.4°F19.7°C 91% 13.6 mph SE21.9 kmh SE 17.4 mph28.0 kmh 29.59 in1002.0 mb 1.04 in26.4 mm 0.00 in0.0 mm 4.82 in122.4 mm
10:42 PM 70.2°F21.2°C 67.4°F19.7°C 91% 8.3 mph SE13.4 kmh SE 17.4 mph28.0 kmh 29.59 in1002.0 mb 1.05 in26.7 mm 0.60 in15.2 mm 4.84 in122.9 mm
10:44 PM 70.2°F21.2°C 67.8°F19.9°C 92% 9.8 mph SE15.8 kmh SE 17.5 mph28.2 kmh 29.59 in1002.0 mb 1.01 in25.7 mm 0.00 in0.0 mm 4.85 in123.2 mm
10:45 PM 70.2°F21.2°C 67.8°F19.9°C 92% 6.9 mph SE11.1 kmh SE 17.5 mph28.2 kmh 29.59 in1002.0 mb 1.01 in25.7 mm 0.00 in0.0 mm 4.85 in123.2 mm
10:46 PM 70.0°F21.1°C 67.6°F19.8°C 92% 9.2 mph SE14.8 kmh SE 17.5 mph28.2 kmh 29.58 in1001.7 mb 1.01 in25.7 mm 0.00 in0.0 mm 4.87 in123.7 mm
10:47 PM 70.0°F21.1°C 67.6°F19.8°C 92% 8.3 mph SE13.4 kmh SE 17.5 mph28.2 kmh 29.58 in1001.7 mb 1.01 in25.7 mm 0.00 in0.0 mm 4.87 in123.7 mm
10:48 PM 70.0°F21.1°C 67.6°F19.8°C 92% 9.8 mph SE15.8 kmh SE 18.3 mph29.5 kmh 29.58 in1001.7 mb 0.99 in25.1 mm 0.00 in0.0 mm 4.87 in123.7 mm
10:49 PM 70.0°F21.1°C 67.6°F19.8°C 92% 9.8 mph SE15.8 kmh SE 18.3 mph29.5 kmh 29.58 in1001.7 mb 0.99 in25.1 mm 0.00 in0.0 mm 4.88 in124.0 mm
10:50 PM 70.0°F21.1°C 67.6°F19.8°C 92% 11.4 mph SE18.3 kmh SE 18.3 mph29.5 kmh 29.58 in1001.7 mb 0.99 in25.1 mm 0.00 in0.0 mm 4.88 in124.0 mm
10:51 PM 70.0°F21.1°C 67.6°F19.8°C 92% 9.8 mph SE15.8 kmh SE 18.3 mph29.5 kmh 29.57 in1001.4 mb 0.98 in24.9 mm 0.00 in0.0 mm 4.88 in124.0 mm
10:53 PM 70.0°F21.1°C 67.6°F19.8°C 92% 8.3 mph SE13.4 kmh SE 18.3 mph29.5 kmh 29.57 in1001.4 mb 0.96 in24.4 mm 0.00 in0.0 mm 4.88 in124.0 mm
10:54 PM 70.0°F21.1°C 67.6°F19.8°C 92% 9.2 mph SE14.8 kmh SE 18.3 mph29.5 kmh 29.57 in1001.4 mb 0.96 in24.4 mm 0.00 in0.0 mm 4.88 in124.0 mm
10:56 PM 70.0°F21.1°C 67.9°F19.9°C 93% 6.9 mph SE11.1 kmh SE 18.3 mph29.5 kmh 29.58 in1001.7 mb 0.95 in24.1 mm 0.00 in0.0 mm 4.88 in124.0 mm
10:57 PM 70.0°F21.1°C 67.9°F19.9°C 93% 3.8 mph SE6.1 kmh SE 18.3 mph29.5 kmh 29.58 in1001.7 mb 0.92 in23.4 mm 0.00 in0.0 mm 4.88 in124.0 mm
10:58 PM 70.0°F21.1°C 67.9°F19.9°C 93% 4.5 mph SE7.2 kmh SE 18.3 mph29.5 kmh 29.60 in1002.4 mb 0.92 in23.4 mm 0.00 in0.0 mm 4.88 in124.0 mm
10:59 PM 70.0°F21.1°C 67.9°F19.9°C 93% 6.0 mph SE9.7 kmh SE 15.2 mph24.5 kmh 29.61 in1002.7 mb 0.91 in23.1 mm 0.00 in0.0 mm 4.88 in124.0 mm
11:00 PM 70.0°F21.1°C 67.9°F19.9°C 93% 6.0 mph SE9.7 kmh SE 15.2 mph24.5 kmh 29.61 in1002.7 mb 0.91 in23.1 mm 0.00 in0.0 mm 4.88 in124.0 mm
11:02 PM 70.2°F21.2°C 68.1°F20.1°C 93% 13.6 mph ESE21.9 kmh ESE 17.4 mph28.0 kmh 29.62 in1003.0 mb 0.86 in21.8 mm 0.00 in0.0 mm 4.88 in124.0 mm
11:03 PM 70.2°F21.2°C 68.1°F20.1°C 93% 7.6 mph ESE12.2 kmh ESE 17.4 mph28.0 kmh 29.61 in1002.7 mb 0.86 in21.8 mm 0.00 in0.0 mm 4.88 in124.0 mm
11:04 PM 70.3°F21.3°C 68.3°F20.2°C 93% 8.3 mph ESE13.4 kmh ESE 17.4 mph28.0 kmh 29.61 in1002.7 mb 0.86 in21.8 mm 0.00 in0.0 mm 4.88 in124.0 mm
11:05 PM 70.3°F21.3°C 68.3°F20.2°C 93% 6.9 mph ESE11.1 kmh ESE 17.4 mph28.0 kmh 29.60 in1002.4 mb 0.82 in20.8 mm 0.00 in0.0 mm 4.88 in124.0 mm
11:06 PM 70.3°F21.3°C 68.3°F20.2°C 93% 5.4 mph ESE8.7 kmh ESE 17.4 mph28.0 kmh 29.60 in1002.4 mb 0.82 in20.8 mm 0.00 in0.0 mm 4.88 in124.0 mm
11:07 PM 70.3°F21.3°C 68.3°F20.2°C 93% 6.0 mph ESE9.7 kmh ESE 17.4 mph28.0 kmh 29.61 in1002.7 mb 0.81 in20.6 mm 0.00 in0.0 mm 4.88 in124.0 mm
11:08 PM 70.3°F21.3°C 68.3°F20.2°C 93% 3.1 mph ESE5.0 kmh ESE 17.4 mph28.0 kmh 29.61 in1002.7 mb 0.81 in20.6 mm 0.00 in0.0 mm 4.88 in124.0 mm
11:09 PM 70.3°F21.3°C 68.3°F20.2°C 93% 6.0 mph ESE9.7 kmh ESE 17.4 mph28.0 kmh 29.61 in1002.7 mb 0.78 in19.8 mm 0.00 in0.0 mm 4.88 in124.0 mm
11:11 PM 70.5°F21.4°C 68.4°F20.2°C 93% 8.3 mph E13.4 kmh E 17.5 mph28.2 kmh 29.62 in1003.0 mb 0.76 in19.3 mm 0.00 in0.0 mm 4.90 in124.5 mm
11:12 PM 70.5°F21.4°C 68.4°F20.2°C 93% 12.1 mph E19.5 kmh E 19.7 mph31.7 kmh 29.62 in1003.0 mb 0.76 in19.3 mm 0.00 in0.0 mm 4.90 in124.5 mm
11:13 PM 70.5°F21.4°C 68.4°F20.2°C 93% 9.8 mph ESE15.8 kmh ESE 19.7 mph31.7 kmh 29.61 in1002.7 mb 0.73 in18.5 mm 0.00 in0.0 mm 4.90 in124.5 mm
11:14 PM 70.5°F21.4°C 68.4°F20.2°C 93% 9.8 mph ESE15.8 kmh ESE 19.7 mph31.7 kmh 29.60 in1002.4 mb 0.72 in18.3 mm 0.00 in0.0 mm 4.90 in124.5 mm
11:15 PM 70.5°F21.4°C 68.4°F20.2°C 93% 9.2 mph E14.8 kmh E 19.7 mph31.7 kmh 29.60 in1002.4 mb 0.72 in18.3 mm 0.00 in0.0 mm 4.90 in124.5 mm
11:16 PM 70.5°F21.4°C 68.4°F20.2°C 93% 12.1 mph ESE19.5 kmh ESE 19.7 mph31.7 kmh 29.60 in1002.4 mb 0.71 in18.0 mm 0.00 in0.0 mm 4.90 in124.5 mm
11:17 PM 70.5°F21.4°C 68.4°F20.2°C 93% 7.6 mph E12.2 kmh E 19.7 mph31.7 kmh 29.60 in1002.4 mb 0.68 in17.3 mm 0.00 in0.0 mm 4.90 in124.5 mm
11:18 PM 70.5°F21.4°C 68.4°F20.2°C 93% 6.9 mph E11.1 kmh E 19.7 mph31.7 kmh 29.61 in1002.7 mb 0.65 in16.5 mm 0.00 in0.0 mm 4.90 in124.5 mm
11:19 PM 70.9°F21.6°C 68.8°F20.4°C 93% 10.7 mph E17.2 kmh E 22.8 mph36.7 kmh 29.61 in1002.7 mb 0.63 in16.0 mm 0.00 in0.0 mm 4.90 in124.5 mm
11:20 PM 70.9°F21.6°C 68.8°F20.4°C 93% 9.2 mph ESE14.8 kmh ESE 22.8 mph36.7 kmh 29.61 in1002.7 mb 0.62 in15.7 mm 0.00 in0.0 mm 4.90 in124.5 mm
11:21 PM 70.9°F21.6°C 68.8°F20.4°C 93% 9.8 mph ESE15.8 kmh ESE 22.8 mph36.7 kmh 29.62 in1003.0 mb 0.59 in15.0 mm 0.00 in0.0 mm 4.90 in124.5 mm
11:22 PM 70.9°F21.6°C 68.8°F20.4°C 93% 6.9 mph ESE11.1 kmh ESE 22.8 mph36.7 kmh 29.61 in1002.7 mb 0.58 in14.7 mm 0.00 in0.0 mm 4.90 in124.5 mm
11:23 PM 70.9°F21.6°C 68.8°F20.4°C 93% 6.9 mph E11.1 kmh E 22.8 mph36.7 kmh 29.60 in1002.4 mb 0.56 in14.2 mm 0.00 in0.0 mm 4.90 in124.5 mm
11:24 PM 70.9°F21.6°C 68.8°F20.4°C 93% 8.3 mph E13.4 kmh E 22.8 mph36.7 kmh 29.59 in1002.0 mb 0.53 in13.5 mm 0.00 in0.0 mm 4.90 in124.5 mm
11:25 PM 70.9°F21.6°C 68.8°F20.4°C 93% 6.9 mph E11.1 kmh E 22.8 mph36.7 kmh 29.60 in1002.4 mb 0.50 in12.7 mm 0.00 in0.0 mm 4.90 in124.5 mm
11:26 PM 70.9°F21.6°C 68.8°F20.4°C 93% 11.4 mph E18.3 kmh E 22.8 mph36.7 kmh 29.58 in1001.7 mb 0.48 in12.2 mm 0.00 in0.0 mm 4.90 in124.5 mm
11:27 PM 70.9°F21.6°C 68.8°F20.4°C 93% 5.4 mph E8.7 kmh E 22.8 mph36.7 kmh 29.58 in1001.7 mb 0.46 in11.7 mm 0.00 in0.0 mm 4.90 in124.5 mm
11:28 PM 70.9°F21.6°C 68.8°F20.4°C 93% 9.8 mph E15.8 kmh E 22.8 mph36.7 kmh 29.58 in1001.7 mb 0.42 in10.7 mm 0.00 in0.0 mm 4.90 in124.5 mm
11:29 PM 70.9°F21.6°C 68.8°F20.4°C 93% 6.9 mph E11.1 kmh E 22.8 mph36.7 kmh 29.57 in1001.4 mb 0.40 in10.2 mm 0.00 in0.0 mm 4.91 in124.7 mm
11:30 PM 70.9°F21.6°C 68.8°F20.4°C 93% 9.8 mph E15.8 kmh E 17.4 mph28.0 kmh 29.57 in1001.4 mb 0.35 in8.9 mm 0.00 in0.0 mm 4.91 in124.7 mm
11:31 PM 70.9°F21.6°C 68.8°F20.4°C 93% 10.7 mph E17.2 kmh E 16.8 mph27.0 kmh 29.57 in1001.4 mb 0.35 in8.9 mm 0.00 in0.0 mm 4.91 in124.7 mm
11:32 PM 70.9°F21.6°C 68.5°F20.3°C 92% 9.2 mph E14.8 kmh E 16.8 mph27.0 kmh 29.57 in1001.4 mb 0.33 in8.4 mm 0.00 in0.0 mm 4.91 in124.7 mm
11:33 PM 70.9°F21.6°C 68.5°F20.3°C 92% 9.2 mph E14.8 kmh E 16.8 mph27.0 kmh 29.57 in1001.4 mb 0.24 in6.1 mm 0.00 in0.0 mm 4.91 in124.7 mm
11:35 PM 70.9°F21.6°C 68.5°F20.3°C 92% 9.8 mph E15.8 kmh E 18.3 mph29.5 kmh 29.55 in1000.7 mb 0.20 in5.1 mm 0.00 in0.0 mm 4.92 in125.0 mm
11:36 PM 70.9°F21.6°C 68.5°F20.3°C 92% 12.1 mph ESE19.5 kmh ESE 21.3 mph34.3 kmh 29.55 in1000.7 mb 0.19 in4.8 mm 0.00 in0.0 mm 4.92 in125.0 mm
11:37 PM 70.9°F21.6°C 68.5°F20.3°C 92% 9.2 mph ESE14.8 kmh ESE 21.3 mph34.3 kmh 29.55 in1000.7 mb 0.13 in3.3 mm 0.00 in0.0 mm 4.92 in125.0 mm
11:38 PM 70.9°F21.6°C 68.5°F20.3°C 92% 15.2 mph SE24.5 kmh SE 21.3 mph34.3 kmh 29.55 in1000.7 mb 0.12 in3.0 mm 0.00 in0.0 mm 4.92 in125.0 mm
11:39 PM 70.9°F21.6°C 68.5°F20.3°C 92% 14.5 mph SE23.3 kmh SE 21.3 mph34.3 kmh 29.56 in1001.0 mb 0.10 in2.5 mm 0.00 in0.0 mm 4.92 in125.0 mm
11:40 PM 70.9°F21.6°C 68.5°F20.3°C 92% 8.3 mph SE13.4 kmh SE 21.3 mph34.3 kmh 29.57 in1001.4 mb 0.10 in2.5 mm 0.00 in0.0 mm 4.92 in125.0 mm
11:41 PM 70.9°F21.6°C 68.5°F20.3°C 92% 11.4 mph ESE18.3 kmh ESE 21.3 mph34.3 kmh 29.56 in1001.0 mb 0.09 in2.3 mm 0.00 in0.0 mm 4.92 in125.0 mm
11:42 PM 71.1°F21.7°C 68.7°F20.4°C 92% 9.8 mph SE15.8 kmh SE 21.3 mph34.3 kmh 29.57 in1001.4 mb 0.07 in1.8 mm 0.00 in0.0 mm 4.92 in125.0 mm
11:43 PM 71.1°F21.7°C 68.7°F20.4°C 92% 9.2 mph ESE14.8 kmh ESE 21.3 mph34.3 kmh 29.57 in1001.4 mb 0.07 in1.8 mm 0.00 in0.0 mm 4.92 in125.0 mm
11:44 PM 71.1°F21.7°C 68.7°F20.4°C 92% 9.8 mph SE15.8 kmh SE 21.3 mph34.3 kmh 29.57 in1001.4 mb 0.07 in1.8 mm 0.00 in0.0 mm 4.92 in125.0 mm
11:45 PM 71.1°F21.7°C 68.7°F20.4°C 92% 9.8 mph SE15.8 kmh SE 21.3 mph34.3 kmh 29.57 in1001.4 mb 0.06 in1.5 mm 0.00 in0.0 mm 4.92 in125.0 mm
11:46 PM 71.1°F21.7°C 68.7°F20.4°C 92% 12.1 mph E19.5 kmh E 21.3 mph34.3 kmh 29.57 in1001.4 mb 0.06 in1.5 mm 0.00 in0.0 mm 4.92 in125.0 mm
11:47 PM 71.1°F21.7°C 68.7°F20.4°C 92% 8.3 mph E13.4 kmh E 21.3 mph34.3 kmh 29.57 in1001.4 mb 0.07 in1.8 mm 0.60 in15.2 mm 4.94 in125.5 mm
11:48 PM 71.1°F21.7°C 68.7°F20.4°C 92% 12.1 mph ENE19.5 kmh ENE 21.3 mph34.3 kmh 29.57 in1001.4 mb 0.06 in1.5 mm 0.00 in0.0 mm 4.94 in125.5 mm
11:49 PM 71.1°F21.7°C 68.7°F20.4°C 92% 11.4 mph ENE18.3 kmh ENE 21.3 mph34.3 kmh 29.57 in1001.4 mb 0.06 in1.5 mm 0.00 in0.0 mm 4.94 in125.5 mm
11:51 PM 70.9°F21.6°C 68.5°F20.3°C 92% 9.8 mph E15.8 kmh E 21.3 mph34.3 kmh 29.55 in1000.7 mb 0.06 in1.5 mm 0.00 in0.0 mm 4.94 in125.5 mm
11:52 PM 70.9°F21.6°C 68.5°F20.3°C 92% 13.0 mph E20.9 kmh E 21.3 mph34.3 kmh 29.56 in1001.0 mb 0.06 in1.5 mm 0.00 in0.0 mm 4.94 in125.5 mm
11:53 PM 70.9°F21.6°C 68.5°F20.3°C 92% 9.8 mph ESE15.8 kmh ESE 21.3 mph34.3 kmh 29.56 in1001.0 mb 0.06 in1.5 mm 0.00 in0.0 mm 4.94 in125.5 mm
11:54 PM 70.9°F21.6°C 68.5°F20.3°C 92% 12.1 mph ESE19.5 kmh ESE 21.3 mph34.3 kmh 29.56 in1001.0 mb 0.06 in1.5 mm 0.00 in0.0 mm 4.94 in125.5 mm
11:55 PM 70.9°F21.6°C 68.5°F20.3°C 92% 10.7 mph ESE17.2 kmh ESE 22.1 mph35.6 kmh 29.56 in1001.0 mb 0.06 in1.5 mm 0.00 in0.0 mm 4.94 in125.5 mm
11:56 PM 70.9°F21.6°C 68.5°F20.3°C 92% 9.8 mph ESE15.8 kmh ESE 22.1 mph35.6 kmh 29.56 in1001.0 mb 0.06 in1.5 mm 0.00 in0.0 mm 4.94 in125.5 mm
11:57 PM 70.9°F21.6°C 68.5°F20.3°C 92% 6.9 mph ESE11.1 kmh ESE 22.1 mph35.6 kmh 29.55 in1000.7 mb 0.06 in1.5 mm 0.00 in0.0 mm 4.94 in125.5 mm
11:58 PM 70.9°F21.6°C 68.5°F20.3°C 92% 11.4 mph ESE18.3 kmh ESE 22.1 mph35.6 kmh 29.55 in1000.7 mb 0.06 in1.5 mm 0.00 in0.0 mm 4.94 in125.5 mm
11:59 PM 70.9°F21.6°C 68.5°F20.3°C 92% 6.0 mph SE9.7 kmh SE 22.1 mph35.6 kmh 29.56 in1001.0 mb 0.06 in1.5 mm 0.00 in0.0 mm 4.94 in125.5 mm